PWSweather.com
Personal Weather Stations
Station Observations
KV9EWX
Winnebago, Il, Winnebago, IL 61088

Winnebago, IlWinnebago, IL 61088

Lat: 42.261175, Lon: -89.236369

Elevation: 892

Station Type: Lacrosse ws-2811

Latest ConditionsUpdated 1:42:21 PM CDT Saturday, Aug 27, 2016
Currently Today's Max Today's Min Today's Average
Temperature 77.2°F25.1°C 77.5°F25.3°C 57.6°F14.2°C 63.4°F17.4°C
Dew Point -16.7°F-27.1°C -16.6°F-27.0°C -29.4°F-34.1°C -25.7°F-32.1°C
Winds 3.6 mph S5.8 kmh S 6.3 mph SE10.1 kmh SE - 1.7 mph 2.7 kmh
Wind Gusts 6.7 mph10.8 kmh 11.0 mph17.7 kmh - -
Humidity 1% 1% 1% 1%
Pressure 29.61 in1002.7 mb 29.71 in1006.1 mb 29.61 in1002.7 mb -
Precipitation - 0.55 in14.0 mm - -
Hour Temp Dew Point Humidity Winds Wind Gusts Pressure Precip Precip Rate Daily Precip Total
01:42 PM 77.2°F25.1°C -16.7°F-27.1°C 1% 3.5 mph S5.6 kmh S 6.7 mph10.8 kmh 29.61 in1002.7 mb 0.00 in0.0 mm 0.00 in0.0 mm 0.55 in14.0 mm
01:41 PM 77.2°F25.1°C -16.7°F-27.1°C 1% 3.4 mph SSE5.5 kmh SSE 6.7 mph10.8 kmh 29.61 in1002.7 mb 0.00 in0.0 mm 0.00 in0.0 mm 0.55 in14.0 mm
01:40 PM 77.0°F25.0°C -16.9°F-27.2°C 1% 2.6 mph SSE4.2 kmh SSE 6.0 mph9.7 kmh 29.61 in1002.7 mb 0.00 in0.0 mm 0.00 in0.0 mm 0.55 in14.0 mm
01:39 PM 76.8°F24.9°C -17.0°F-27.2°C 1% 1.9 mph SSE3.1 kmh SSE 5.4 mph8.7 kmh 29.61 in1002.7 mb 0.00 in0.0 mm 0.00 in0.0 mm 0.55 in14.0 mm
01:38 PM 76.8°F24.9°C -17.0°F-27.2°C 1% 1.4 mph S2.3 kmh S 6.7 mph10.8 kmh 29.61 in1002.7 mb 0.00 in0.0 mm 0.00 in0.0 mm 0.55 in14.0 mm
01:37 PM 77.0°F25.0°C -16.9°F-27.2°C 1% 1.0 mph SW1.6 kmh SW 6.7 mph10.8 kmh 29.61 in1002.7 mb 0.00 in0.0 mm 0.00 in0.0 mm 0.55 in14.0 mm
01:36 PM 76.8°F24.9°C -17.0°F-27.2°C 1% 2.1 mph S3.4 kmh S 11.0 mph17.7 kmh 29.61 in1002.7 mb 0.00 in0.0 mm 0.00 in0.0 mm 0.55 in14.0 mm
01:35 PM 77.0°F25.0°C -16.9°F-27.2°C 1% 3.2 mph S5.1 kmh S 11.0 mph17.7 kmh 29.61 in1002.7 mb 0.00 in0.0 mm 0.00 in0.0 mm 0.55 in14.0 mm
01:34 PM 77.2°F25.1°C -16.7°F-27.1°C 1% 3.1 mph SSE5.0 kmh SSE 11.0 mph17.7 kmh 29.61 in1002.7 mb 0.00 in0.0 mm 0.00 in0.0 mm 0.55 in14.0 mm
01:33 PM 76.8°F24.9°C -17.0°F-27.2°C 1% 1.8 mph SE2.9 kmh SE 11.0 mph17.7 kmh 29.61 in1002.7 mb 0.00 in0.0 mm 0.00 in0.0 mm 0.55 in14.0 mm
01:32 PM 76.8°F24.9°C -17.0°F-27.2°C 1% 0.9 mph SSW1.4 kmh SSW 11.0 mph17.7 kmh 29.61 in1002.7 mb 0.00 in0.0 mm 0.00 in0.0 mm 0.55 in14.0 mm
01:31 PM 76.8°F24.9°C -17.0°F-27.2°C 1% 1.3 mph S2.1 kmh S 11.0 mph17.7 kmh 29.61 in1002.7 mb 0.00 in0.0 mm 0.00 in0.0 mm 0.55 in14.0 mm
01:30 PM 76.8°F24.9°C -17.0°F-27.2°C 1% 2.7 mph SSE4.3 kmh SSE 11.0 mph17.7 kmh 29.61 in1002.7 mb 0.00 in0.0 mm 0.00 in0.0 mm 0.55 in14.0 mm
01:29 PM 77.0°F25.0°C -16.9°F-27.2°C 1% 3.4 mph S5.5 kmh S 11.0 mph17.7 kmh 29.61 in1002.7 mb 0.00 in0.0 mm 0.00 in0.0 mm 0.55 in14.0 mm
01:28 PM 77.3°F25.2°C -16.7°F-27.1°C 1% 4.8 mph SSE7.7 kmh SSE 11.0 mph17.7 kmh 29.61 in1002.7 mb 0.00 in0.0 mm 0.00 in0.0 mm 0.55 in14.0 mm
01:27 PM 77.0°F25.0°C -16.9°F-27.2°C 1% 5.1 mph SSE8.2 kmh SSE 11.0 mph17.7 kmh 29.61 in1002.7 mb 0.00 in0.0 mm 0.00 in0.0 mm 0.55 in14.0 mm
01:26 PM 77.2°F25.1°C -16.7°F-27.1°C 1% 3.4 mph SSE5.5 kmh SSE 7.0 mph11.3 kmh 29.61 in1002.7 mb 0.00 in0.0 mm 0.00 in0.0 mm 0.55 in14.0 mm
01:25 PM 77.0°F25.0°C -16.9°F-27.2°C 1% 3.5 mph SSE5.6 kmh SSE 6.0 mph9.7 kmh 29.61 in1002.7 mb 0.00 in0.0 mm 0.00 in0.0 mm 0.55 in14.0 mm
01:24 PM 77.0°F25.0°C -16.9°F-27.2°C 1% 3.0 mph SSE4.8 kmh SSE 6.0 mph9.7 kmh 29.61 in1002.7 mb 0.00 in0.0 mm 0.00 in0.0 mm 0.55 in14.0 mm
01:23 PM 76.6°F24.8°C -17.1°F-27.3°C 1% 1.5 mph S2.4 kmh S 6.0 mph9.7 kmh 29.61 in1002.7 mb 0.00 in0.0 mm 0.00 in0.0 mm 0.55 in14.0 mm
01:22 PM 76.6°F24.8°C -17.1°F-27.3°C 1% 1.0 mph SW1.6 kmh SW 6.0 mph9.7 kmh 29.61 in1002.7 mb 0.00 in0.0 mm 0.00 in0.0 mm 0.55 in14.0 mm
01:21 PM 76.6°F24.8°C -17.1°F-27.3°C 1% 0.7 mph SW1.1 kmh SW 6.0 mph9.7 kmh 29.61 in1002.7 mb 0.00 in0.0 mm 0.00 in0.0 mm 0.55 in14.0 mm
01:20 PM 76.6°F24.8°C -17.1°F-27.3°C 1% 0.5 mph WSW0.8 kmh WSW 7.0 mph11.3 kmh 29.61 in1002.7 mb 0.00 in0.0 mm 0.00 in0.0 mm 0.55 in14.0 mm
01:19 PM 76.6°F24.8°C -17.1°F-27.3°C 1% 1.1 mph WSW1.8 kmh WSW 7.0 mph11.3 kmh 29.61 in1002.7 mb 0.00 in0.0 mm 0.00 in0.0 mm 0.55 in14.0 mm
01:18 PM 76.8°F24.9°C -17.0°F-27.2°C 1% 1.2 mph SW1.9 kmh SW 7.0 mph11.3 kmh 29.61 in1002.7 mb 0.00 in0.0 mm 0.00 in0.0 mm 0.55 in14.0 mm
01:17 PM 76.6°F24.8°C -17.1°F-27.3°C 1% 1.9 mph S3.1 kmh S 7.0 mph11.3 kmh 29.61 in1002.7 mb 0.00 in0.0 mm 0.00 in0.0 mm 0.55 in14.0 mm
01:16 PM 76.6°F24.8°C -17.1°F-27.3°C 1% 2.9 mph S4.7 kmh S 7.0 mph11.3 kmh 29.61 in1002.7 mb 0.00 in0.0 mm 0.00 in0.0 mm 0.55 in14.0 mm
01:15 PM 76.4°F24.7°C -17.2°F-27.3°C 1% 2.9 mph S4.7 kmh S 7.0 mph11.3 kmh 29.61 in1002.7 mb 0.00 in0.0 mm 0.00 in0.0 mm 0.55 in14.0 mm
01:14 PM 76.4°F24.7°C -17.2°F-27.3°C 1% 2.0 mph S3.2 kmh S 7.0 mph11.3 kmh 29.61 in1002.7 mb 0.00 in0.0 mm 0.00 in0.0 mm 0.55 in14.0 mm
01:13 PM 76.3°F24.6°C -17.3°F-27.4°C 1% 2.4 mph SSE3.9 kmh SSE 7.0 mph11.3 kmh 29.61 in1002.7 mb 0.00 in0.0 mm 0.00 in0.0 mm 0.55 in14.0 mm
01:12 PM 76.1°F24.5°C -17.4°F-27.4°C 1% 3.8 mph SSE6.1 kmh SSE 7.0 mph11.3 kmh 29.61 in1002.7 mb 0.00 in0.0 mm 0.00 in0.0 mm 0.55 in14.0 mm
01:11 PM 76.1°F24.5°C -17.4°F-27.4°C 1% 4.4 mph S7.1 kmh S 7.0 mph11.3 kmh 29.61 in1002.7 mb 0.00 in0.0 mm 0.00 in0.0 mm 0.55 in14.0 mm
01:10 PM 75.8°F24.3°C -17.7°F-27.6°C 1% 3.2 mph SSE5.1 kmh SSE 7.0 mph11.3 kmh 29.61 in1002.7 mb 0.00 in0.0 mm 0.00 in0.0 mm 0.55 in14.0 mm
01:09 PM 75.6°F24.2°C -17.8°F-27.7°C 1% 2.7 mph SE4.3 kmh SE 7.0 mph11.3 kmh 29.61 in1002.7 mb 0.00 in0.0 mm 0.00 in0.0 mm 0.55 in14.0 mm
01:08 PM 75.6°F24.2°C -17.8°F-27.7°C 1% 2.4 mph SE3.9 kmh SE 7.0 mph11.3 kmh 29.61 in1002.7 mb 0.00 in0.0 mm 0.00 in0.0 mm 0.55 in14.0 mm
01:07 PM 75.6°F24.2°C -17.8°F-27.7°C 1% 3.6 mph SE5.8 kmh SE 7.0 mph11.3 kmh 29.61 in1002.7 mb 0.00 in0.0 mm 0.00 in0.0 mm 0.55 in14.0 mm
01:06 PM 75.6°F24.2°C -17.8°F-27.7°C 1% 3.4 mph SSE5.5 kmh SSE 7.0 mph11.3 kmh 29.61 in1002.7 mb 0.00 in0.0 mm 0.00 in0.0 mm 0.55 in14.0 mm
01:05 PM 75.5°F24.2°C -17.9°F-27.7°C 1% 1.5 mph SSE2.4 kmh SSE 7.0 mph11.3 kmh 29.61 in1002.7 mb 0.00 in0.0 mm 0.00 in0.0 mm 0.55 in14.0 mm
01:04 PM 75.6°F24.2°C -17.8°F-27.7°C 1% 0.7 mph SE1.1 kmh SE 7.0 mph11.3 kmh 29.61 in1002.7 mb 0.00 in0.0 mm 0.00 in0.0 mm 0.55 in14.0 mm
01:03 PM 75.6°F24.2°C -17.8°F-27.7°C 1% 1.3 mph SSE2.1 kmh SSE 7.0 mph11.3 kmh 29.61 in1002.7 mb 0.00 in0.0 mm 0.00 in0.0 mm 0.55 in14.0 mm
01:02 PM 75.8°F24.3°C -17.7°F-27.6°C 1% 2.5 mph S4.0 kmh S 7.0 mph11.3 kmh 29.61 in1002.7 mb 0.00 in0.0 mm 0.00 in0.0 mm 0.55 in14.0 mm
01:01 PM 75.8°F24.3°C -17.7°F-27.6°C 1% 3.3 mph SSE5.3 kmh SSE 7.0 mph11.3 kmh 29.61 in1002.7 mb 0.00 in0.0 mm 0.00 in0.0 mm 0.55 in14.0 mm
01:00 PM 75.8°F24.3°C -17.7°F-27.6°C 1% 4.3 mph SSE6.9 kmh SSE 8.6 mph13.8 kmh 29.61 in1002.7 mb 0.00 in0.0 mm 0.00 in0.0 mm 0.55 in14.0 mm
12:59 PM 75.6°F24.2°C -17.8°F-27.7°C 1% 3.3 mph S5.3 kmh S 8.6 mph13.8 kmh 29.61 in1002.7 mb 0.00 in0.0 mm 0.00 in0.0 mm 0.55 in14.0 mm
12:58 PM 75.5°F24.2°C -17.9°F-27.7°C 1% 1.8 mph S2.9 kmh S 8.6 mph13.8 kmh 29.61 in1002.7 mb 0.00 in0.0 mm 0.00 in0.0 mm 0.55 in14.0 mm
12:57 PM 75.5°F24.2°C -17.9°F-27.7°C 1% 1.6 mph SSE2.6 kmh SSE 8.6 mph13.8 kmh 29.61 in1002.7 mb 0.00 in0.0 mm 0.00 in0.0 mm 0.55 in14.0 mm
12:56 PM 75.5°F24.2°C -17.9°F-27.7°C 1% 1.5 mph SSE2.4 kmh SSE 8.6 mph13.8 kmh 29.61 in1002.7 mb 0.00 in0.0 mm 0.00 in0.0 mm 0.55 in14.0 mm
12:55 PM 75.3°F24.1°C -18.0°F-27.8°C 1% 2.5 mph SSE4.0 kmh SSE 8.6 mph13.8 kmh 29.61 in1002.7 mb 0.00 in0.0 mm 0.00 in0.0 mm 0.55 in14.0 mm
12:54 PM 75.5°F24.2°C -17.9°F-27.7°C 1% 3.4 mph SSE5.5 kmh SSE 8.6 mph13.8 kmh 29.61 in1002.7 mb 0.00 in0.0 mm 0.00 in0.0 mm 0.55 in14.0 mm
12:53 PM 75.3°F24.1°C -18.0°F-27.8°C 1% 3.1 mph SSE5.0 kmh SSE 8.6 mph13.8 kmh 29.61 in1002.7 mb 0.00 in0.0 mm 0.00 in0.0 mm 0.55 in14.0 mm
12:52 PM 75.1°F23.9°C -18.1°F-27.8°C 1% 3.8 mph S6.1 kmh S 8.6 mph13.8 kmh 29.61 in1002.7 mb 0.00 in0.0 mm 0.00 in0.0 mm 0.55 in14.0 mm
12:51 PM 75.1°F23.9°C -18.1°F-27.8°C 1% 4.3 mph SSE6.9 kmh SSE 8.6 mph13.8 kmh 29.61 in1002.7 mb 0.00 in0.0 mm 0.00 in0.0 mm 0.55 in14.0 mm
12:50 PM 74.9°F23.8°C -18.2°F-27.9°C 1% 3.7 mph SSE6.0 kmh SSE 8.6 mph13.8 kmh 29.61 in1002.7 mb 0.00 in0.0 mm 0.00 in0.0 mm 0.55 in14.0 mm
12:49 PM 74.9°F23.8°C -18.2°F-27.9°C 1% 3.4 mph S5.5 kmh S 7.0 mph11.3 kmh 29.61 in1002.7 mb 0.00 in0.0 mm 0.00 in0.0 mm 0.55 in14.0 mm
12:48 PM 74.9°F23.8°C -18.2°F-27.9°C 1% 3.9 mph S6.3 kmh S 11.0 mph17.7 kmh 29.61 in1002.7 mb 0.00 in0.0 mm 0.00 in0.0 mm 0.55 in14.0 mm
12:47 PM 74.4°F23.6°C -18.5°F-28.1°C 1% 3.8 mph SSE6.1 kmh SSE 11.0 mph17.7 kmh 29.61 in1002.7 mb 0.00 in0.0 mm 0.00 in0.0 mm 0.55 in14.0 mm
12:46 PM 74.2°F23.4°C -18.7°F-28.2°C 1% 3.5 mph S5.6 kmh S 11.0 mph17.7 kmh 29.61 in1002.7 mb 0.00 in0.0 mm 0.00 in0.0 mm 0.55 in14.0 mm
12:45 PM 74.2°F23.4°C -18.7°F-28.2°C 1% 4.1 mph S6.6 kmh S 11.0 mph17.7 kmh 29.61 in1002.7 mb 0.00 in0.0 mm 0.00 in0.0 mm 0.55 in14.0 mm
12:44 PM 74.0°F23.3°C -18.8°F-28.2°C 1% 3.8 mph SSE6.1 kmh SSE 11.0 mph17.7 kmh 29.61 in1002.7 mb 0.00 in0.0 mm 0.00 in0.0 mm 0.55 in14.0 mm
12:43 PM 74.0°F23.3°C -18.8°F-28.2°C 1% 3.2 mph S5.1 kmh S 11.0 mph17.7 kmh 29.61 in1002.7 mb 0.00 in0.0 mm 0.00 in0.0 mm 0.55 in14.0 mm
12:42 PM 74.0°F23.3°C -18.8°F-28.2°C 1% 4.2 mph SE6.8 kmh SE 11.0 mph17.7 kmh 29.61 in1002.7 mb 0.00 in0.0 mm 0.00 in0.0 mm 0.55 in14.0 mm
12:41 PM 74.0°F23.3°C -18.8°F-28.2°C 1% 4.9 mph SE7.9 kmh SE 11.0 mph17.7 kmh 29.61 in1002.7 mb 0.00 in0.0 mm 0.00 in0.0 mm 0.55 in14.0 mm
12:40 PM 73.8°F23.2°C -18.9°F-28.3°C 1% 5.1 mph SE8.2 kmh SE 11.0 mph17.7 kmh 29.61 in1002.7 mb 0.00 in0.0 mm 0.00 in0.0 mm 0.55 in14.0 mm
12:39 PM 73.8°F23.2°C -18.9°F-28.3°C 1% 5.5 mph SE8.9 kmh SE 11.0 mph17.7 kmh 29.61 in1002.7 mb 0.00 in0.0 mm 0.00 in0.0 mm 0.55 in14.0 mm
12:38 PM 73.8°F23.2°C -18.9°F-28.3°C 1% 5.7 mph SE9.2 kmh SE 11.0 mph17.7 kmh 29.61 in1002.7 mb 0.00 in0.0 mm 0.00 in0.0 mm 0.55 in14.0 mm
12:37 PM 73.8°F23.2°C -18.9°F-28.3°C 1% 5.3 mph SE8.5 kmh SE 11.0 mph17.7 kmh 29.61 in1002.7 mb 0.00 in0.0 mm 0.00 in0.0 mm 0.55 in14.0 mm
12:36 PM 73.7°F23.2°C -19.0°F-28.3°C 1% 5.1 mph SSE8.2 kmh SSE 8.2 mph13.2 kmh 29.61 in1002.7 mb 0.00 in0.0 mm 0.00 in0.0 mm 0.55 in14.0 mm
12:35 PM 73.5°F23.1°C -19.1°F-28.4°C 1% 3.6 mph SSE5.8 kmh SSE 9.4 mph15.1 kmh 29.61 in1002.7 mb 0.00 in0.0 mm 0.00 in0.0 mm 0.55 in14.0 mm
12:34 PM 73.5°F23.1°C -19.1°F-28.4°C 1% 3.1 mph SSE5.0 kmh SSE 9.4 mph15.1 kmh 29.61 in1002.7 mb 0.00 in0.0 mm 0.00 in0.0 mm 0.55 in14.0 mm
12:33 PM 73.5°F23.1°C -19.1°F-28.4°C 1% 4.0 mph SE6.4 kmh SE 9.4 mph15.1 kmh 29.61 in1002.7 mb 0.00 in0.0 mm 0.00 in0.0 mm 0.55 in14.0 mm
12:32 PM 73.3°F22.9°C -19.2°F-28.4°C 1% 4.8 mph SE7.7 kmh SE 9.4 mph15.1 kmh 29.61 in1002.7 mb 0.00 in0.0 mm 0.00 in0.0 mm 0.55 in14.0 mm
12:31 PM 73.1°F22.8°C -19.3°F-28.5°C 1% 4.8 mph SSE7.7 kmh SSE 9.4 mph15.1 kmh 29.61 in1002.7 mb 0.00 in0.0 mm 0.00 in0.0 mm 0.55 in14.0 mm
12:30 PM 72.9°F22.7°C -19.5°F-28.6°C 1% 4.4 mph S7.1 kmh S 9.4 mph15.1 kmh 29.61 in1002.7 mb 0.00 in0.0 mm 0.00 in0.0 mm 0.55 in14.0 mm
12:29 PM 72.9°F22.7°C -19.5°F-28.6°C 1% 4.8 mph S7.7 kmh S 9.4 mph15.1 kmh 29.61 in1002.7 mb 0.00 in0.0 mm 0.00 in0.0 mm 0.55 in14.0 mm
12:28 PM 72.9°F22.7°C -19.5°F-28.6°C 1% 4.9 mph S7.9 kmh S 9.4 mph15.1 kmh 29.61 in1002.7 mb 0.00 in0.0 mm 0.00 in0.0 mm 0.55 in14.0 mm
12:27 PM 72.9°F22.7°C -19.5°F-28.6°C 1% 5.4 mph S8.7 kmh S 9.4 mph15.1 kmh 29.61 in1002.7 mb 0.00 in0.0 mm 0.00 in0.0 mm 0.55 in14.0 mm
12:26 PM 72.9°F22.7°C -19.5°F-28.6°C 1% 5.5 mph S8.9 kmh S 9.4 mph15.1 kmh 29.61 in1002.7 mb 0.00 in0.0 mm 0.00 in0.0 mm 0.55 in14.0 mm
12:25 PM 72.8°F22.7°C -19.5°F-28.6°C 1% 4.9 mph SSE7.9 kmh SSE 9.4 mph15.1 kmh 29.61 in1002.7 mb 0.00 in0.0 mm 0.00 in0.0 mm 0.55 in14.0 mm
12:24 PM 72.7°F22.6°C -19.7°F-28.7°C 1% 3.9 mph SSE6.3 kmh SSE 7.5 mph12.1 kmh 29.61 in1002.7 mb 0.00 in0.0 mm 0.00 in0.0 mm 0.55 in14.0 mm
12:23 PM 72.3°F22.4°C -19.9°F-28.8°C 1% 3.5 mph SSE5.6 kmh SSE 7.5 mph12.1 kmh 29.61 in1002.7 mb 0.00 in0.0 mm 0.00 in0.0 mm 0.55 in14.0 mm
12:22 PM 72.1°F22.3°C -20.0°F-28.9°C 1% 4.0 mph SSE6.4 kmh SSE 7.5 mph12.1 kmh 29.61 in1002.7 mb 0.00 in0.0 mm 0.00 in0.0 mm 0.55 in14.0 mm
12:21 PM 72.0°F22.2°C -20.1°F-28.9°C 1% 3.3 mph SSE5.3 kmh SSE 7.5 mph12.1 kmh 29.61 in1002.7 mb 0.00 in0.0 mm 0.00 in0.0 mm 0.55 in14.0 mm
12:20 PM 71.8°F22.1°C -20.2°F-29.0°C 1% 2.2 mph S3.5 kmh S 6.3 mph10.1 kmh 29.61 in1002.7 mb 0.00 in0.0 mm 0.00 in0.0 mm 0.55 in14.0 mm
12:19 PM 71.8°F22.1°C -20.2°F-29.0°C 1% 2.3 mph S3.7 kmh S 6.3 mph10.1 kmh 29.61 in1002.7 mb 0.00 in0.0 mm 0.00 in0.0 mm 0.55 in14.0 mm
12:18 PM 71.6°F22.0°C -20.3°F-29.1°C 1% 2.4 mph SE3.9 kmh SE 6.7 mph10.8 kmh 29.61 in1002.7 mb 0.00 in0.0 mm 0.00 in0.0 mm 0.55 in14.0 mm
12:17 PM 71.4°F21.9°C -20.5°F-29.2°C 1% 2.2 mph SE3.5 kmh SE 6.7 mph10.8 kmh 29.61 in1002.7 mb 0.00 in0.0 mm 0.00 in0.0 mm 0.55 in14.0 mm
12:16 PM 71.4°F21.9°C -20.5°F-29.2°C 1% 3.0 mph S4.8 kmh S 6.7 mph10.8 kmh 29.61 in1002.7 mb 0.00 in0.0 mm 0.00 in0.0 mm 0.55 in14.0 mm
12:15 PM 71.4°F21.9°C -20.5°F-29.2°C 1% 2.9 mph S4.7 kmh S 6.7 mph10.8 kmh 29.61 in1002.7 mb 0.00 in0.0 mm 0.00 in0.0 mm 0.55 in14.0 mm
12:14 PM 71.4°F21.9°C -20.5°F-29.2°C 1% 2.1 mph S3.4 kmh S 6.7 mph10.8 kmh 29.61 in1002.7 mb 0.00 in0.0 mm 0.00 in0.0 mm 0.55 in14.0 mm
12:13 PM 71.4°F21.9°C -20.5°F-29.2°C 1% 2.4 mph S3.9 kmh S 6.7 mph10.8 kmh 29.61 in1002.7 mb 0.00 in0.0 mm 0.00 in0.0 mm 0.55 in14.0 mm
12:12 PM 71.2°F21.8°C -20.6°F-29.2°C 1% 3.7 mph S6.0 kmh S 6.7 mph10.8 kmh 29.61 in1002.7 mb 0.00 in0.0 mm 0.00 in0.0 mm 0.55 in14.0 mm
12:11 PM 71.2°F21.8°C -20.6°F-29.2°C 1% 4.0 mph SSE6.4 kmh SSE 6.7 mph10.8 kmh 29.61 in1002.7 mb 0.00 in0.0 mm 0.00 in0.0 mm 0.55 in14.0 mm
12:10 PM 71.2°F21.8°C -20.6°F-29.2°C 1% 3.3 mph SSE5.3 kmh SSE 6.7 mph10.8 kmh 29.61 in1002.7 mb 0.00 in0.0 mm 0.00 in0.0 mm 0.55 in14.0 mm
12:09 PM 71.1°F21.7°C -20.7°F-29.3°C 1% 2.8 mph SSE4.5 kmh SSE 6.7 mph10.8 kmh 29.61 in1002.7 mb 0.00 in0.0 mm 0.00 in0.0 mm 0.55 in14.0 mm
12:08 PM 71.2°F21.8°C -20.6°F-29.2°C 1% 2.1 mph S3.4 kmh S 6.0 mph9.7 kmh 29.61 in1002.7 mb 0.00 in0.0 mm 0.00 in0.0 mm 0.55 in14.0 mm
12:07 PM 71.1°F21.7°C -20.7°F-29.3°C 1% 2.3 mph SSE3.7 kmh SSE 6.7 mph10.8 kmh 29.61 in1002.7 mb 0.00 in0.0 mm 0.00 in0.0 mm 0.55 in14.0 mm
12:06 PM 70.9°F21.6°C -20.8°F-29.3°C 1% 2.8 mph SE4.5 kmh SE 6.7 mph10.8 kmh 29.62 in1003.0 mb 0.00 in0.0 mm 0.00 in0.0 mm 0.55 in14.0 mm
12:05 PM 70.9°F21.6°C -20.8°F-29.3°C 1% 2.8 mph SE4.5 kmh SE 6.7 mph10.8 kmh 29.62 in1003.0 mb 0.00 in0.0 mm 0.00 in0.0 mm 0.55 in14.0 mm
12:04 PM 70.9°F21.6°C -20.8°F-29.3°C 1% 2.4 mph SE3.9 kmh SE 6.7 mph10.8 kmh 29.62 in1003.0 mb 0.00 in0.0 mm 0.00 in0.0 mm 0.55 in14.0 mm
12:03 PM 70.7°F21.5°C -20.9°F-29.4°C 1% 2.0 mph SSE3.2 kmh SSE 6.7 mph10.8 kmh 29.62 in1003.0 mb 0.00 in0.0 mm 0.00 in0.0 mm 0.55 in14.0 mm
12:02 PM 70.5°F21.4°C -21.0°F-29.4°C 1% 2.2 mph SSE3.5 kmh SSE 7.0 mph11.3 kmh 29.62 in1003.0 mb 0.00 in0.0 mm 0.00 in0.0 mm 0.55 in14.0 mm
12:01 PM 70.7°F21.5°C -20.9°F-29.4°C 1% 2.7 mph SSE4.3 kmh SSE 7.0 mph11.3 kmh 29.62 in1003.0 mb 0.00 in0.0 mm 0.00 in0.0 mm 0.55 in14.0 mm
12:00 PM 70.7°F21.5°C -20.9°F-29.4°C 1% 3.4 mph SE5.5 kmh SE 7.0 mph11.3 kmh 29.62 in1003.0 mb 0.00 in0.0 mm 0.00 in0.0 mm 0.55 in14.0 mm
11:59 AM 70.7°F21.5°C -20.9°F-29.4°C 1% 4.2 mph SE6.8 kmh SE 7.0 mph11.3 kmh 29.62 in1003.0 mb 0.00 in0.0 mm 0.00 in0.0 mm 0.55 in14.0 mm
11:58 AM 70.7°F21.5°C -20.9°F-29.4°C 1% 3.6 mph SE5.8 kmh SE 7.0 mph11.3 kmh 29.62 in1003.0 mb 0.00 in0.0 mm 0.00 in0.0 mm 0.55 in14.0 mm
11:57 AM 70.9°F21.6°C -20.8°F-29.3°C 1% 2.5 mph SSE4.0 kmh SSE 7.0 mph11.3 kmh 29.62 in1003.0 mb 0.00 in0.0 mm 0.00 in0.0 mm 0.55 in14.0 mm
11:56 AM 70.7°F21.5°C -20.9°F-29.4°C 1% 2.7 mph SSE4.3 kmh SSE 7.0 mph11.3 kmh 29.62 in1003.0 mb 0.00 in0.0 mm 0.00 in0.0 mm 0.55 in14.0 mm
11:55 AM 70.9°F21.6°C -20.8°F-29.3°C 1% 2.8 mph S4.5 kmh S 7.0 mph11.3 kmh 29.61 in1002.7 mb 0.00 in0.0 mm 0.00 in0.0 mm 0.55 in14.0 mm
11:54 AM 70.9°F21.6°C -20.8°F-29.3°C 1% 2.7 mph S4.3 kmh S 7.0 mph11.3 kmh 29.62 in1003.0 mb 0.00 in0.0 mm 0.00 in0.0 mm 0.55 in14.0 mm
11:53 AM 70.9°F21.6°C -20.8°F-29.3°C 1% 3.6 mph SSE5.8 kmh SSE 7.0 mph11.3 kmh 29.62 in1003.0 mb 0.00 in0.0 mm 0.00 in0.0 mm 0.55 in14.0 mm
11:52 AM 70.9°F21.6°C -20.8°F-29.3°C 1% 3.5 mph SE5.6 kmh SE 7.0 mph11.3 kmh 29.62 in1003.0 mb 0.00 in0.0 mm 0.00 in0.0 mm 0.55 in14.0 mm
11:51 AM 70.9°F21.6°C -20.8°F-29.3°C 1% 3.3 mph SE5.3 kmh SE 7.0 mph11.3 kmh 29.62 in1003.0 mb 0.00 in0.0 mm 0.00 in0.0 mm 0.55 in14.0 mm
11:50 AM 70.9°F21.6°C -20.8°F-29.3°C 1% 3.7 mph SSE6.0 kmh SSE 7.0 mph11.3 kmh 29.62 in1003.0 mb 0.00 in0.0 mm 0.00 in0.0 mm 0.55 in14.0 mm
11:49 AM 71.1°F21.7°C -20.7°F-29.3°C 1% 2.9 mph SSE4.7 kmh SSE 6.7 mph10.8 kmh 29.62 in1003.0 mb 0.00 in0.0 mm 0.00 in0.0 mm 0.55 in14.0 mm
11:48 AM 70.9°F21.6°C -20.8°F-29.3°C 1% 2.4 mph SSE3.9 kmh SSE 6.7 mph10.8 kmh 29.62 in1003.0 mb 0.00 in0.0 mm 0.00 in0.0 mm 0.55 in14.0 mm
11:47 AM 70.9°F21.6°C -20.8°F-29.3°C 1% 2.4 mph SSE3.9 kmh SSE 6.7 mph10.8 kmh 29.62 in1003.0 mb 0.00 in0.0 mm 0.00 in0.0 mm 0.55 in14.0 mm
11:46 AM 70.9°F21.6°C -20.8°F-29.3°C 1% 3.0 mph S4.8 kmh S 6.7 mph10.8 kmh 29.62 in1003.0 mb 0.00 in0.0 mm 0.00 in0.0 mm 0.55 in14.0 mm
11:45 AM 71.1°F21.7°C -20.7°F-29.3°C 1% 3.1 mph S5.0 kmh S 7.0 mph11.3 kmh 29.62 in1003.0 mb 0.00 in0.0 mm 0.00 in0.0 mm 0.55 in14.0 mm
11:44 AM 70.9°F21.6°C -20.8°F-29.3°C 1% 2.5 mph S4.0 kmh S 9.4 mph15.1 kmh 29.62 in1003.0 mb 0.00 in0.0 mm 0.00 in0.0 mm 0.55 in14.0 mm
11:43 AM 70.7°F21.5°C -20.9°F-29.4°C 1% 3.2 mph SSE5.1 kmh SSE 9.4 mph15.1 kmh 29.62 in1003.0 mb 0.00 in0.0 mm 0.00 in0.0 mm 0.55 in14.0 mm
11:42 AM 70.7°F21.5°C -20.9°F-29.4°C 1% 4.1 mph SSE6.6 kmh SSE 9.4 mph15.1 kmh 29.62 in1003.0 mb 0.00 in0.0 mm 0.00 in0.0 mm 0.55 in14.0 mm
11:41 AM 70.5°F21.4°C -21.0°F-29.4°C 1% 3.9 mph SE6.3 kmh SE 9.4 mph15.1 kmh 29.62 in1003.0 mb 0.00 in0.0 mm 0.00 in0.0 mm 0.55 in14.0 mm
11:40 AM 70.5°F21.4°C -21.0°F-29.4°C 1% 2.8 mph SE4.5 kmh SE 9.4 mph15.1 kmh 29.62 in1003.0 mb 0.00 in0.0 mm 0.00 in0.0 mm 0.55 in14.0 mm
11:39 AM 70.3°F21.3°C -21.2°F-29.6°C 1% 3.1 mph SSE5.0 kmh SSE 9.4 mph15.1 kmh 29.62 in1003.0 mb 0.00 in0.0 mm 0.00 in0.0 mm 0.55 in14.0 mm
11:38 AM 70.3°F21.3°C -21.2°F-29.6°C 1% 3.3 mph SE5.3 kmh SE 9.4 mph15.1 kmh 29.62 in1003.0 mb 0.00 in0.0 mm 0.00 in0.0 mm 0.55 in14.0 mm
11:37 AM 70.2°F21.2°C -21.2°F-29.6°C 1% 3.8 mph SSE6.1 kmh SSE 9.4 mph15.1 kmh 29.62 in1003.0 mb 0.00 in0.0 mm 0.00 in0.0 mm 0.55 in14.0 mm
11:36 AM 70.3°F21.3°C -21.2°F-29.6°C 1% 5.6 mph SSE9.0 kmh SSE 9.4 mph15.1 kmh 29.62 in1003.0 mb 0.00 in0.0 mm 0.00 in0.0 mm 0.55 in14.0 mm
11:35 AM 70.3°F21.3°C -21.2°F-29.6°C 1% 5.9 mph SE9.5 kmh SE 9.4 mph15.1 kmh 29.62 in1003.0 mb 0.00 in0.0 mm 0.00 in0.0 mm 0.55 in14.0 mm
11:34 AM 70.2°F21.2°C -21.2°F-29.6°C 1% 5.3 mph SE8.5 kmh SE 9.4 mph15.1 kmh 29.62 in1003.0 mb 0.00 in0.0 mm 0.00 in0.0 mm 0.55 in14.0 mm
11:33 AM 70.2°F21.2°C -21.2°F-29.6°C 1% 2.5 mph SE4.0 kmh SE 7.5 mph12.1 kmh 29.62 in1003.0 mb 0.00 in0.0 mm 0.00 in0.0 mm 0.55 in14.0 mm
11:32 AM 70.0°F21.1°C -21.3°F-29.6°C 1% 1.2 mph SE1.9 kmh SE 4.4 mph7.1 kmh 29.62 in1003.0 mb 0.00 in0.0 mm 0.00 in0.0 mm 0.55 in14.0 mm
11:31 AM 69.8°F21.0°C -21.5°F-29.7°C 1% 0.4 mph SSE0.6 kmh SSE 4.4 mph7.1 kmh 29.62 in1003.0 mb 0.00 in0.0 mm 0.00 in0.0 mm 0.55 in14.0 mm
11:30 AM 69.8°F21.0°C -21.5°F-29.7°C 1% 0.9 mph SSE1.4 kmh SSE 4.4 mph7.1 kmh 29.62 in1003.0 mb 0.00 in0.0 mm 0.00 in0.0 mm 0.55 in14.0 mm
11:29 AM 69.6°F20.9°C -21.6°F-29.8°C 1% 2.0 mph S3.2 kmh S 4.4 mph7.1 kmh 29.62 in1003.0 mb 0.00 in0.0 mm 0.00 in0.0 mm 0.55 in14.0 mm
11:28 AM 69.8°F21.0°C -21.5°F-29.7°C 1% 2.8 mph S4.5 kmh S 4.4 mph7.1 kmh 29.62 in1003.0 mb 0.00 in0.0 mm 0.00 in0.0 mm 0.55 in14.0 mm
11:27 AM 69.6°F20.9°C -21.6°F-29.8°C 1% 2.8 mph S4.5 kmh S 4.4 mph7.1 kmh 29.62 in1003.0 mb 0.00 in0.0 mm 0.00 in0.0 mm 0.55 in14.0 mm
11:26 AM 69.6°F20.9°C -21.6°F-29.8°C 1% 2.1 mph SSE3.4 kmh SSE 5.1 mph8.2 kmh 29.62 in1003.0 mb 0.00 in0.0 mm 0.00 in0.0 mm 0.55 in14.0 mm
11:25 AM 69.5°F20.8°C -21.7°F-29.8°C 1% 1.7 mph SSE2.7 kmh SSE 6.0 mph9.7 kmh 29.62 in1003.0 mb 0.00 in0.0 mm 0.00 in0.0 mm 0.55 in14.0 mm
11:24 AM 69.5°F20.8°C -21.7°F-29.8°C 1% 1.6 mph SSE2.6 kmh SSE 6.0 mph9.7 kmh 29.62 in1003.0 mb 0.00 in0.0 mm 0.00 in0.0 mm 0.55 in14.0 mm
11:23 AM 69.5°F20.8°C -21.7°F-29.8°C 1% 1.4 mph S2.3 kmh S 6.0 mph9.7 kmh 29.62 in1003.0 mb 0.00 in0.0 mm 0.00 in0.0 mm 0.55 in14.0 mm
11:22 AM 69.5°F20.8°C -21.7°F-29.8°C 1% 1.2 mph SSE1.9 kmh SSE 6.0 mph9.7 kmh 29.62 in1003.0 mb 0.00 in0.0 mm 0.00 in0.0 mm 0.55 in14.0 mm
11:21 AM 69.5°F20.8°C -21.7°F-29.8°C 1% 1.1 mph SE1.8 kmh SE 6.0 mph9.7 kmh 29.62 in1003.0 mb 0.00 in0.0 mm 0.00 in0.0 mm 0.55 in14.0 mm
11:20 AM 69.5°F20.8°C -21.7°F-29.8°C 1% 0.9 mph SW1.4 kmh SW 6.0 mph9.7 kmh 29.62 in1003.0 mb 0.00 in0.0 mm 0.00 in0.0 mm 0.55 in14.0 mm
11:19 AM 69.5°F20.8°C -21.7°F-29.8°C 1% 0.6 mph SW1.0 kmh SW 6.0 mph9.7 kmh 29.62 in1003.0 mb 0.00 in0.0 mm 0.00 in0.0 mm 0.55 in14.0 mm
11:18 AM 69.5°F20.8°C -21.7°F-29.8°C 1% 0.7 mph SW1.1 kmh SW 6.0 mph9.7 kmh 29.62 in1003.0 mb 0.00 in0.0 mm 0.00 in0.0 mm 0.55 in14.0 mm
11:17 AM 69.6°F20.9°C -21.6°F-29.8°C 1% 2.7 mph SSE4.3 kmh SSE 6.0 mph9.7 kmh 29.62 in1003.0 mb 0.00 in0.0 mm 0.00 in0.0 mm 0.55 in14.0 mm
11:16 AM 69.6°F20.9°C -21.6°F-29.8°C 1% 2.9 mph SSE4.7 kmh SSE 6.0 mph9.7 kmh 29.62 in1003.0 mb 0.00 in0.0 mm 0.00 in0.0 mm 0.55 in14.0 mm
11:15 AM 69.6°F20.9°C -21.6°F-29.8°C 1% 2.4 mph S3.9 kmh S 6.0 mph9.7 kmh 29.62 in1003.0 mb 0.00 in0.0 mm 0.00 in0.0 mm 0.55 in14.0 mm
11:14 AM 69.5°F20.8°C -21.7°F-29.8°C 1% 3.7 mph SSE6.0 kmh SSE 6.0 mph9.7 kmh 29.62 in1003.0 mb 0.00 in0.0 mm 0.00 in0.0 mm 0.55 in14.0 mm
11:13 AM 69.5°F20.8°C -21.7°F-29.8°C 1% 4.2 mph SSE6.8 kmh SSE 6.0 mph9.7 kmh 29.62 in1003.0 mb 0.00 in0.0 mm 0.00 in0.0 mm 0.55 in14.0 mm
11:12 AM 69.5°F20.8°C -21.7°F-29.8°C 1% 3.5 mph SE5.6 kmh SE 5.4 mph8.7 kmh 29.62 in1003.0 mb 0.00 in0.0 mm 0.00 in0.0 mm 0.55 in14.0 mm
11:11 AM 69.5°F20.8°C -21.7°F-29.8°C 1% 2.9 mph SSE4.7 kmh SSE 5.4 mph8.7 kmh 29.62 in1003.0 mb 0.00 in0.0 mm 0.00 in0.0 mm 0.55 in14.0 mm
11:10 AM 69.5°F20.8°C -21.7°F-29.8°C 1% 2.4 mph S3.9 kmh S 5.4 mph8.7 kmh 29.62 in1003.0 mb 0.00 in0.0 mm 0.00 in0.0 mm 0.55 in14.0 mm
11:09 AM 69.5°F20.8°C -21.7°F-29.8°C 1% 2.4 mph SSE3.9 kmh SSE 5.4 mph8.7 kmh 29.62 in1003.0 mb 0.00 in0.0 mm 0.00 in0.0 mm 0.55 in14.0 mm
11:08 AM 69.5°F20.8°C -21.7°F-29.8°C 1% 2.4 mph SE3.9 kmh SE 5.4 mph8.7 kmh 29.62 in1003.0 mb 0.00 in0.0 mm 0.00 in0.0 mm 0.55 in14.0 mm
11:07 AM 69.5°F20.8°C -21.7°F-29.8°C 1% 1.9 mph SSE3.1 kmh SSE 5.4 mph8.7 kmh 29.62 in1003.0 mb 0.00 in0.0 mm 0.00 in0.0 mm 0.55 in14.0 mm
11:06 AM 69.5°F20.8°C -21.7°F-29.8°C 1% 2.2 mph SE3.5 kmh SE 4.7 mph7.6 kmh 29.62 in1003.0 mb 0.00 in0.0 mm 0.00 in0.0 mm 0.55 in14.0 mm
11:05 AM 69.4°F20.8°C -21.8°F-29.9°C 1% 2.7 mph SE4.3 kmh SE 4.7 mph7.6 kmh 29.62 in1003.0 mb 0.00 in0.0 mm 0.00 in0.0 mm 0.55 in14.0 mm
11:04 AM 69.5°F20.8°C -21.7°F-29.8°C 1% 1.4 mph S2.3 kmh S 4.4 mph7.1 kmh 29.62 in1003.0 mb 0.00 in0.0 mm 0.00 in0.0 mm 0.55 in14.0 mm
11:03 AM 69.5°F20.8°C -21.7°F-29.8°C 1% 0.9 mph S1.4 kmh S 4.4 mph7.1 kmh 29.62 in1003.0 mb 0.00 in0.0 mm 0.00 in0.0 mm 0.55 in14.0 mm
11:02 AM 69.4°F20.8°C -21.8°F-29.9°C 1% 1.3 mph SSE2.1 kmh SSE 4.4 mph7.1 kmh 29.62 in1003.0 mb 0.00 in0.0 mm 0.00 in0.0 mm 0.55 in14.0 mm
11:01 AM 69.4°F20.8°C -21.8°F-29.9°C 1% 1.5 mph S2.4 kmh S 4.4 mph7.1 kmh 29.62 in1003.0 mb 0.00 in0.0 mm 0.00 in0.0 mm 0.55 in14.0 mm
11:00 AM 69.5°F20.8°C -21.7°F-29.8°C 1% 1.2 mph WSW1.9 kmh WSW 4.4 mph7.1 kmh 29.62 in1003.0 mb 0.00 in0.0 mm 0.00 in0.0 mm 0.55 in14.0 mm
10:59 AM 69.5°F20.8°C -21.7°F-29.8°C 1% 1.5 mph SW2.4 kmh SW 4.7 mph7.6 kmh 29.62 in1003.0 mb 0.00 in0.0 mm 0.00 in0.0 mm 0.55 in14.0 mm
10:58 AM 69.4°F20.8°C -21.8°F-29.9°C 1% 2.3 mph WSW3.7 kmh WSW 4.7 mph7.6 kmh 29.62 in1003.0 mb 0.00 in0.0 mm 0.00 in0.0 mm 0.55 in14.0 mm
10:57 AM 69.5°F20.8°C -21.7°F-29.8°C 1% 2.7 mph SW4.3 kmh SW 4.7 mph7.6 kmh 29.62 in1003.0 mb 0.00 in0.0 mm 0.00 in0.0 mm 0.55 in14.0 mm
10:56 AM 69.4°F20.8°C -21.8°F-29.9°C 1% 2.5 mph S4.0 kmh S 4.7 mph7.6 kmh 29.62 in1003.0 mb 0.00 in0.0 mm 0.00 in0.0 mm 0.55 in14.0 mm
10:55 AM 69.5°F20.8°C -21.7°F-29.8°C 1% 1.8 mph SSE2.9 kmh SSE 4.7 mph7.6 kmh 29.62 in1003.0 mb 0.00 in0.0 mm 0.00 in0.0 mm 0.55 in14.0 mm
10:54 AM 69.5°F20.8°C -21.7°F-29.8°C 1% 2.3 mph SSE3.7 kmh SSE 4.7 mph7.6 kmh 29.62 in1003.0 mb 0.00 in0.0 mm 0.00 in0.0 mm 0.55 in14.0 mm
10:53 AM 69.5°F20.8°C -21.7°F-29.8°C 1% 3.0 mph SE4.8 kmh SE 4.7 mph7.6 kmh 29.62 in1003.0 mb 0.00 in0.0 mm 0.00 in0.0 mm 0.55 in14.0 mm
10:52 AM 69.5°F20.8°C -21.7°F-29.8°C 1% 3.0 mph SE4.8 kmh SE 4.7 mph7.6 kmh 29.62 in1003.0 mb 0.00 in0.0 mm 0.00 in0.0 mm 0.55 in14.0 mm
10:51 AM 69.6°F20.9°C -21.6°F-29.8°C 1% 3.3 mph SE5.3 kmh SE 5.4 mph8.7 kmh 29.62 in1003.0 mb 0.00 in0.0 mm 0.00 in0.0 mm 0.55 in14.0 mm
10:50 AM 69.6°F20.9°C -21.6°F-29.8°C 1% 3.5 mph SE5.6 kmh SE 5.4 mph8.7 kmh 29.62 in1003.0 mb 0.00 in0.0 mm 0.00 in0.0 mm 0.55 in14.0 mm
10:49 AM 69.8°F21.0°C -21.5°F-29.7°C 1% 2.4 mph SSE3.9 kmh SSE 5.4 mph8.7 kmh 29.61 in1002.7 mb 0.00 in0.0 mm 0.00 in0.0 mm 0.55 in14.0 mm
10:48 AM 69.8°F21.0°C -21.5°F-29.7°C 1% 1.6 mph S2.6 kmh S 5.4 mph8.7 kmh 29.61 in1002.7 mb 0.00 in0.0 mm 0.00 in0.0 mm 0.55 in14.0 mm
10:47 AM 69.8°F21.0°C -21.5°F-29.7°C 1% 2.0 mph S3.2 kmh S 5.4 mph8.7 kmh 29.61 in1002.7 mb 0.00 in0.0 mm 0.00 in0.0 mm 0.55 in14.0 mm
10:46 AM 69.8°F21.0°C -21.5°F-29.7°C 1% 3.1 mph SE5.0 kmh SE 5.4 mph8.7 kmh 29.61 in1002.7 mb 0.00 in0.0 mm 0.00 in0.0 mm 0.55 in14.0 mm
10:45 AM 69.8°F21.0°C -21.5°F-29.7°C 1% 3.4 mph SE5.5 kmh SE 5.4 mph8.7 kmh 29.61 in1002.7 mb 0.00 in0.0 mm 0.00 in0.0 mm 0.55 in14.0 mm
10:44 AM 70.0°F21.1°C -21.3°F-29.6°C 1% 2.5 mph SE4.0 kmh SE 5.4 mph8.7 kmh 29.61 in1002.7 mb 0.00 in0.0 mm 0.00 in0.0 mm 0.55 in14.0 mm
10:43 AM 70.0°F21.1°C -21.3°F-29.6°C 1% 2.4 mph S3.9 kmh S 6.0 mph9.7 kmh 29.62 in1003.0 mb 0.00 in0.0 mm 0.00 in0.0 mm 0.55 in14.0 mm
10:42 AM 70.0°F21.1°C -21.3°F-29.6°C 1% 2.1 mph SSE3.4 kmh SSE 6.0 mph9.7 kmh 29.61 in1002.7 mb 0.00 in0.0 mm 0.00 in0.0 mm 0.55 in14.0 mm
10:41 AM 70.0°F21.1°C -21.3°F-29.6°C 1% 1.5 mph SE2.4 kmh SE 6.0 mph9.7 kmh 29.61 in1002.7 mb 0.00 in0.0 mm 0.00 in0.0 mm 0.55 in14.0 mm
10:40 AM 70.0°F21.1°C -21.3°F-29.6°C 1% 1.0 mph SE1.6 kmh SE 6.0 mph9.7 kmh 29.61 in1002.7 mb 0.00 in0.0 mm 0.00 in0.0 mm 0.55 in14.0 mm
10:39 AM 70.0°F21.1°C -21.3°F-29.6°C 1% 1.5 mph SE2.4 kmh SE 6.0 mph9.7 kmh 29.61 in1002.7 mb 0.00 in0.0 mm 0.00 in0.0 mm 0.55 in14.0 mm
10:38 AM 70.0°F21.1°C -21.3°F-29.6°C 1% 2.5 mph S4.0 kmh S 6.0 mph9.7 kmh 29.61 in1002.7 mb 0.00 in0.0 mm 0.00 in0.0 mm 0.55 in14.0 mm
10:37 AM 70.2°F21.2°C -21.2°F-29.6°C 1% 2.4 mph S3.9 kmh S 6.0 mph9.7 kmh 29.61 in1002.7 mb 0.00 in0.0 mm 0.00 in0.0 mm 0.55 in14.0 mm
10:36 AM 70.0°F21.1°C -21.3°F-29.6°C 1% 1.8 mph S2.9 kmh S 7.5 mph12.1 kmh 29.61 in1002.7 mb 0.00 in0.0 mm 0.00 in0.0 mm 0.55 in14.0 mm
10:35 AM 70.2°F21.2°C -21.2°F-29.6°C 1% 2.5 mph S4.0 kmh S 7.5 mph12.1 kmh 29.61 in1002.7 mb 0.00 in0.0 mm 0.00 in0.0 mm 0.55 in14.0 mm
10:34 AM 70.2°F21.2°C -21.2°F-29.6°C 1% 3.1 mph S5.0 kmh S 7.5 mph12.1 kmh 29.61 in1002.7 mb 0.00 in0.0 mm 0.00 in0.0 mm 0.55 in14.0 mm
10:33 AM 70.2°F21.2°C -21.2°F-29.6°C 1% 2.3 mph S3.7 kmh S 7.5 mph12.1 kmh 29.61 in1002.7 mb 0.00 in0.0 mm 0.00 in0.0 mm 0.55 in14.0 mm
10:32 AM 69.8°F21.0°C -21.5°F-29.7°C 1% 1.7 mph S2.7 kmh S 7.5 mph12.1 kmh 29.61 in1002.7 mb 0.00 in0.0 mm 0.00 in0.0 mm 0.55 in14.0 mm
10:31 AM 69.8°F21.0°C -21.5°F-29.7°C 1% 1.4 mph SE2.3 kmh SE 7.5 mph12.1 kmh 29.61 in1002.7 mb 0.00 in0.0 mm 0.00 in0.0 mm 0.55 in14.0 mm
10:30 AM 69.6°F20.9°C -21.6°F-29.8°C 1% 1.8 mph S2.9 kmh S 7.5 mph12.1 kmh 29.61 in1002.7 mb 0.00 in0.0 mm 0.00 in0.0 mm 0.55 in14.0 mm
10:29 AM 69.4°F20.8°C -21.8°F-29.9°C 1% 2.4 mph SSE3.9 kmh SSE 7.5 mph12.1 kmh 29.61 in1002.7 mb 0.00 in0.0 mm 0.00 in0.0 mm 0.55 in14.0 mm
10:28 AM 69.2°F20.7°C -21.9°F-29.9°C 1% 3.5 mph SE5.6 kmh SE 7.5 mph12.1 kmh 29.61 in1002.7 mb 0.00 in0.0 mm 0.00 in0.0 mm 0.55 in14.0 mm
10:27 AM 69.2°F20.7°C -21.9°F-29.9°C 1% 4.2 mph SE6.8 kmh SE 7.5 mph12.1 kmh 29.61 in1002.7 mb 0.00 in0.0 mm 0.00 in0.0 mm 0.55 in14.0 mm
10:26 AM 69.0°F20.6°C -22.0°F-30.0°C 1% 3.0 mph SE4.8 kmh SE 6.3 mph10.1 kmh 29.61 in1002.7 mb 0.00 in0.0 mm 0.00 in0.0 mm 0.55 in14.0 mm
10:25 AM 69.0°F20.6°C -22.0°F-30.0°C 1% 1.9 mph SE3.1 kmh SE 7.5 mph12.1 kmh 29.61 in1002.7 mb 0.00 in0.0 mm 0.00 in0.0 mm 0.55 in14.0 mm
10:24 AM 69.0°F20.6°C -22.0°F-30.0°C 1% 1.7 mph SE2.7 kmh SE 7.5 mph12.1 kmh 29.61 in1002.7 mb 0.00 in0.0 mm 0.00 in0.0 mm 0.55 in14.0 mm
10:23 AM 68.8°F20.4°C -22.2°F-30.1°C 1% 1.9 mph SE3.1 kmh SE 7.5 mph12.1 kmh 29.61 in1002.7 mb 0.00 in0.0 mm 0.00 in0.0 mm 0.55 in14.0 mm
10:22 AM 68.8°F20.4°C -22.2°F-30.1°C 1% 2.8 mph SE4.5 kmh SE 7.5 mph12.1 kmh 29.62 in1003.0 mb 0.00 in0.0 mm 0.00 in0.0 mm 0.55 in14.0 mm
10:21 AM 68.8°F20.4°C -22.2°F-30.1°C 1% 3.1 mph SE5.0 kmh SE 7.5 mph12.1 kmh 29.62 in1003.0 mb 0.00 in0.0 mm 0.00 in0.0 mm 0.55 in14.0 mm
10:20 AM 68.8°F20.4°C -22.2°F-30.1°C 1% 2.2 mph SSW3.5 kmh SSW 7.5 mph12.1 kmh 29.62 in1003.0 mb 0.00 in0.0 mm 0.00 in0.0 mm 0.55 in14.0 mm
10:19 AM 68.8°F20.4°C -22.2°F-30.1°C 1% 3.6 mph SSW5.8 kmh SSW 7.5 mph12.1 kmh 29.62 in1003.0 mb 0.00 in0.0 mm 0.00 in0.0 mm 0.55 in14.0 mm
10:18 AM 67.9°F19.9°C -22.7°F-30.4°C 1% 2.8 mph S4.5 kmh S 7.5 mph12.1 kmh 29.62 in1003.0 mb 0.00 in0.0 mm 0.00 in0.0 mm 0.55 in14.0 mm
10:17 AM 68.1°F20.1°C -22.6°F-30.3°C 1% 2.7 mph S4.3 kmh S 7.5 mph12.1 kmh 29.62 in1003.0 mb 0.00 in0.0 mm 0.00 in0.0 mm 0.55 in14.0 mm
10:16 AM 67.7°F19.8°C -22.8°F-30.4°C 1% 3.4 mph S5.5 kmh S 7.5 mph12.1 kmh 29.62 in1003.0 mb 0.00 in0.0 mm 0.00 in0.0 mm 0.55 in14.0 mm
10:15 AM 67.9°F19.9°C -22.7°F-30.4°C 1% 3.7 mph SSE6.0 kmh SSE 7.5 mph12.1 kmh 29.62 in1003.0 mb 0.00 in0.0 mm 0.00 in0.0 mm 0.55 in14.0 mm
10:14 AM 68.5°F20.3°C -22.3°F-30.2°C 1% 3.8 mph SSE6.1 kmh SSE 6.7 mph10.8 kmh 29.62 in1003.0 mb 0.00 in0.0 mm 0.00 in0.0 mm 0.55 in14.0 mm
10:13 AM 68.5°F20.3°C -22.3°F-30.2°C 1% 3.2 mph SSE5.1 kmh SSE 6.7 mph10.8 kmh 29.62 in1003.0 mb 0.00 in0.0 mm 0.00 in0.0 mm 0.55 in14.0 mm
10:12 AM 68.5°F20.3°C -22.3°F-30.2°C 1% 2.4 mph SE3.9 kmh SE 6.3 mph10.1 kmh 29.62 in1003.0 mb 0.00 in0.0 mm 0.00 in0.0 mm 0.55 in14.0 mm
10:11 AM 68.3°F20.2°C -22.5°F-30.3°C 1% 3.1 mph SE5.0 kmh SE 6.3 mph10.1 kmh 29.62 in1003.0 mb 0.00 in0.0 mm 0.00 in0.0 mm 0.55 in14.0 mm
10:10 AM 68.3°F20.2°C -22.5°F-30.3°C 1% 2.6 mph SE4.2 kmh SE 6.3 mph10.1 kmh 29.62 in1003.0 mb 0.00 in0.0 mm 0.00 in0.0 mm 0.55 in14.0 mm
10:09 AM 68.1°F20.1°C -22.6°F-30.3°C 1% 2.1 mph S3.4 kmh S 7.0 mph11.3 kmh 29.63 in1003.4 mb 0.00 in0.0 mm 0.00 in0.0 mm 0.55 in14.0 mm
10:08 AM 67.9°F19.9°C -22.7°F-30.4°C 1% 2.6 mph S4.2 kmh S 7.0 mph11.3 kmh 29.62 in1003.0 mb 0.00 in0.0 mm 0.00 in0.0 mm 0.55 in14.0 mm
10:07 AM 68.3°F20.2°C -22.5°F-30.3°C 1% 2.5 mph SSE4.0 kmh SSE 8.2 mph13.2 kmh 29.62 in1003.0 mb 0.00 in0.0 mm 0.00 in0.0 mm 0.55 in14.0 mm
10:06 AM 68.3°F20.2°C -22.5°F-30.3°C 1% 2.3 mph SE3.7 kmh SE 8.2 mph13.2 kmh 29.62 in1003.0 mb 0.00 in0.0 mm 0.00 in0.0 mm 0.55 in14.0 mm
10:05 AM 68.3°F20.2°C -22.5°F-30.3°C 1% 2.8 mph SSE4.5 kmh SSE 8.2 mph13.2 kmh 29.62 in1003.0 mb 0.00 in0.0 mm 0.00 in0.0 mm 0.55 in14.0 mm
10:04 AM 68.1°F20.1°C -22.6°F-30.3°C 1% 3.3 mph SE5.3 kmh SE 8.2 mph13.2 kmh 29.62 in1003.0 mb 0.00 in0.0 mm 0.00 in0.0 mm 0.55 in14.0 mm
10:03 AM 68.1°F20.1°C -22.6°F-30.3°C 1% 4.0 mph SE6.4 kmh SE 8.2 mph13.2 kmh 29.62 in1003.0 mb 0.00 in0.0 mm 0.00 in0.0 mm 0.55 in14.0 mm
10:02 AM 68.5°F20.3°C -22.3°F-30.2°C 1% 4.2 mph SE6.8 kmh SE 8.2 mph13.2 kmh 29.62 in1003.0 mb 0.00 in0.0 mm 0.00 in0.0 mm 0.55 in14.0 mm
10:01 AM 68.3°F20.2°C -22.5°F-30.3°C 1% 3.8 mph SSE6.1 kmh SSE 8.2 mph13.2 kmh 29.62 in1003.0 mb 0.00 in0.0 mm 0.00 in0.0 mm 0.55 in14.0 mm
10:00 AM 68.8°F20.4°C -22.2°F-30.1°C 1% 3.4 mph SSE5.5 kmh SSE 8.2 mph13.2 kmh 29.62 in1003.0 mb 0.00 in0.0 mm 0.00 in0.0 mm 0.55 in14.0 mm
09:59 AM 68.8°F20.4°C -22.2°F-30.1°C 1% 3.5 mph SE5.6 kmh SE 8.2 mph13.2 kmh 29.62 in1003.0 mb 0.00 in0.0 mm 0.00 in0.0 mm 0.55 in14.0 mm
09:58 AM 68.6°F20.3°C -22.3°F-30.2°C 1% 4.6 mph SE7.4 kmh SE 8.2 mph13.2 kmh 29.62 in1003.0 mb 0.00 in0.0 mm 0.00 in0.0 mm 0.55 in14.0 mm
09:57 AM 68.5°F20.3°C -22.3°F-30.2°C 1% 3.6 mph SSE5.8 kmh SSE 8.2 mph13.2 kmh 29.62 in1003.0 mb 0.00 in0.0 mm 0.00 in0.0 mm 0.55 in14.0 mm
09:56 AM 68.3°F20.2°C -22.5°F-30.3°C 1% 2.4 mph SSE3.9 kmh SSE 6.0 mph9.7 kmh 29.62 in1003.0 mb 0.00 in0.0 mm 0.00 in0.0 mm 0.55 in14.0 mm
09:55 AM 68.1°F20.1°C -22.6°F-30.3°C 1% 2.4 mph S3.9 kmh S 6.0 mph9.7 kmh 29.62 in1003.0 mb 0.00 in0.0 mm 0.00 in0.0 mm 0.55 in14.0 mm
09:54 AM 68.1°F20.1°C -22.6°F-30.3°C 1% 2.1 mph SE3.4 kmh SE 6.0 mph9.7 kmh 29.62 in1003.0 mb 0.00 in0.0 mm 0.00 in0.0 mm 0.55 in14.0 mm
09:53 AM 68.1°F20.1°C -22.6°F-30.3°C 1% 1.9 mph SE3.1 kmh SE 6.0 mph9.7 kmh 29.62 in1003.0 mb 0.00 in0.0 mm 0.00 in0.0 mm 0.55 in14.0 mm
09:52 AM 67.9°F19.9°C -22.7°F-30.4°C 1% 1.6 mph ESE2.6 kmh ESE 6.0 mph9.7 kmh 29.62 in1003.0 mb 0.00 in0.0 mm 0.00 in0.0 mm 0.55 in14.0 mm
09:51 AM 67.9°F19.9°C -22.7°F-30.4°C 1% 1.8 mph SSE2.9 kmh SSE 6.0 mph9.7 kmh 29.62 in1003.0 mb 0.00 in0.0 mm 0.00 in0.0 mm 0.55 in14.0 mm
09:50 AM 67.7°F19.8°C -22.8°F-30.4°C 1% 2.5 mph SSE4.0 kmh SSE 6.0 mph9.7 kmh 29.62 in1003.0 mb 0.00 in0.0 mm 0.00 in0.0 mm 0.55 in14.0 mm
09:49 AM 67.7°F19.8°C -22.8°F-30.4°C 1% 2.9 mph SE4.7 kmh SE 6.0 mph9.7 kmh 29.63 in1003.4 mb 0.00 in0.0 mm 0.00 in0.0 mm 0.55 in14.0 mm
09:48 AM 67.4°F19.7°C -23.0°F-30.6°C 1% 2.4 mph ESE3.9 kmh ESE 5.1 mph8.2 kmh 29.63 in1003.4 mb 0.00 in0.0 mm 0.00 in0.0 mm 0.55 in14.0 mm
09:47 AM 67.6°F19.8°C -22.9°F-30.5°C 1% 2.7 mph E4.3 kmh E 5.1 mph8.2 kmh 29.63 in1003.4 mb 0.00 in0.0 mm 0.00 in0.0 mm 0.55 in14.0 mm
09:46 AM 67.4°F19.7°C -23.0°F-30.6°C 1% 3.0 mph E4.8 kmh E 5.1 mph8.2 kmh 29.63 in1003.4 mb 0.00 in0.0 mm 0.00 in0.0 mm 0.55 in14.0 mm
09:45 AM 67.4°F19.7°C -23.0°F-30.6°C 1% 2.2 mph SE3.5 kmh SE 5.1 mph8.2 kmh 29.63 in1003.4 mb 0.00 in0.0 mm 0.00 in0.0 mm 0.55 in14.0 mm
09:44 AM 67.2°F19.6°C -23.2°F-30.7°C 1% 1.9 mph SSE3.1 kmh SSE 5.1 mph8.2 kmh 29.63 in1003.4 mb 0.00 in0.0 mm 0.00 in0.0 mm 0.55 in14.0 mm
09:43 AM 67.2°F19.6°C -23.2°F-30.7°C 1% 2.8 mph SE4.5 kmh SE 5.1 mph8.2 kmh 29.63 in1003.4 mb 0.00 in0.0 mm 0.00 in0.0 mm 0.55 in14.0 mm
09:42 AM 67.0°F19.4°C -23.3°F-30.7°C 1% 3.5 mph SE5.6 kmh SE 5.1 mph8.2 kmh 29.63 in1003.4 mb 0.00 in0.0 mm 0.00 in0.0 mm 0.55 in14.0 mm
09:41 AM 67.0°F19.4°C -23.3°F-30.7°C 1% 3.1 mph SSE5.0 kmh SSE 4.4 mph7.1 kmh 29.63 in1003.4 mb 0.00 in0.0 mm 0.00 in0.0 mm 0.55 in14.0 mm
09:40 AM 67.0°F19.4°C -23.3°F-30.7°C 1% 2.5 mph SE4.0 kmh SE 4.4 mph7.1 kmh 29.63 in1003.4 mb 0.00 in0.0 mm 0.00 in0.0 mm 0.55 in14.0 mm
09:39 AM 67.0°F19.4°C -23.3°F-30.7°C 1% 2.4 mph SE3.9 kmh SE 4.4 mph7.1 kmh 29.63 in1003.4 mb 0.00 in0.0 mm 0.00 in0.0 mm 0.55 in14.0 mm
09:38 AM 67.0°F19.4°C -23.3°F-30.7°C 1% 2.5 mph SE4.0 kmh SE 5.1 mph8.2 kmh 29.63 in1003.4 mb 0.00 in0.0 mm 0.00 in0.0 mm 0.55 in14.0 mm
09:37 AM 67.0°F19.4°C -23.3°F-30.7°C 1% 2.7 mph SSE4.3 kmh SSE 5.1 mph8.2 kmh 29.63 in1003.4 mb 0.00 in0.0 mm 0.00 in0.0 mm 0.55 in14.0 mm
09:36 AM 66.8°F19.3°C -23.4°F-30.8°C 1% 2.9 mph SE4.7 kmh SE 5.1 mph8.2 kmh 29.63 in1003.4 mb 0.00 in0.0 mm 0.00 in0.0 mm 0.55 in14.0 mm
09:35 AM 66.7°F19.3°C -23.5°F-30.8°C 1% 2.5 mph ESE4.0 kmh ESE 5.1 mph8.2 kmh 29.63 in1003.4 mb 0.00 in0.0 mm 0.00 in0.0 mm 0.55 in14.0 mm
09:34 AM 66.7°F19.3°C -23.5°F-30.8°C 1% 2.1 mph E3.4 kmh E 5.1 mph8.2 kmh 29.63 in1003.4 mb 0.00 in0.0 mm 0.00 in0.0 mm 0.55 in14.0 mm
09:33 AM 66.7°F19.3°C -23.5°F-30.8°C 1% 1.5 mph ESE2.4 kmh ESE 5.1 mph8.2 kmh 29.63 in1003.4 mb 0.00 in0.0 mm 0.00 in0.0 mm 0.55 in14.0 mm
09:32 AM 66.5°F19.2°C -23.6°F-30.9°C 1% 0.9 mph SE1.4 kmh SE 5.1 mph8.2 kmh 29.63 in1003.4 mb 0.00 in0.0 mm 0.00 in0.0 mm 0.55 in14.0 mm
09:31 AM 66.3°F19.1°C -23.7°F-30.9°C 1% 0.8 mph ESE1.3 kmh ESE 5.1 mph8.2 kmh 29.63 in1003.4 mb 0.00 in0.0 mm 0.00 in0.0 mm 0.55 in14.0 mm
09:30 AM 66.3°F19.1°C -23.7°F-30.9°C 1% 1.2 mph SE1.9 kmh SE 5.1 mph8.2 kmh 29.63 in1003.4 mb 0.00 in0.0 mm 0.00 in0.0 mm 0.55 in14.0 mm
09:29 AM 66.2°F19.0°C -23.8°F-31.0°C 1% 2.1 mph SE3.4 kmh SE 5.1 mph8.2 kmh 29.64 in1003.7 mb 0.00 in0.0 mm 0.00 in0.0 mm 0.55 in14.0 mm
09:28 AM 66.0°F18.9°C -24.0°F-31.1°C 1% 2.1 mph SE3.4 kmh SE 5.1 mph8.2 kmh 29.63 in1003.4 mb 0.00 in0.0 mm 0.00 in0.0 mm 0.55 in14.0 mm
09:27 AM 66.0°F18.9°C -24.0°F-31.1°C 1% 2.1 mph ESE3.4 kmh ESE 4.7 mph7.6 kmh 29.64 in1003.7 mb 0.00 in0.0 mm 0.00 in0.0 mm 0.55 in14.0 mm
09:26 AM 65.9°F18.8°C -24.0°F-31.1°C 1% 1.6 mph ESE2.6 kmh ESE 4.7 mph7.6 kmh 29.63 in1003.4 mb 0.00 in0.0 mm 0.00 in0.0 mm 0.55 in14.0 mm
09:25 AM 65.7°F18.7°C -24.2°F-31.2°C 1% 0.6 mph SE1.0 kmh SE 4.7 mph7.6 kmh 29.64 in1003.7 mb 0.00 in0.0 mm 0.00 in0.0 mm 0.55 in14.0 mm
09:24 AM 65.7°F18.7°C -24.2°F-31.2°C 1% 0.8 mph SE1.3 kmh SE 4.7 mph7.6 kmh 29.63 in1003.4 mb 0.00 in0.0 mm 0.00 in0.0 mm 0.55 in14.0 mm
09:23 AM 65.5°F18.6°C -24.3°F-31.3°C 1% 1.1 mph SE1.8 kmh SE 4.7 mph7.6 kmh 29.64 in1003.7 mb 0.00 in0.0 mm 0.00 in0.0 mm 0.55 in14.0 mm
09:22 AM 65.3°F18.5°C -24.4°F-31.3°C 1% 1.2 mph SE1.9 kmh SE 5.1 mph8.2 kmh 29.64 in1003.7 mb 0.00 in0.0 mm 0.00 in0.0 mm 0.55 in14.0 mm
09:21 AM 65.3°F18.5°C -24.4°F-31.3°C 1% 1.6 mph SE2.6 kmh SE 5.1 mph8.2 kmh 29.64 in1003.7 mb 0.00 in0.0 mm 0.00 in0.0 mm 0.55 in14.0 mm
09:20 AM 65.1°F18.4°C -24.5°F-31.4°C 1% 2.0 mph ESE3.2 kmh ESE 5.1 mph8.2 kmh 29.64 in1003.7 mb 0.00 in0.0 mm 0.00 in0.0 mm 0.55 in14.0 mm
09:19 AM 65.0°F18.3°C -24.6°F-31.4°C 1% 1.5 mph ESE2.4 kmh ESE 5.1 mph8.2 kmh 29.64 in1003.7 mb 0.00 in0.0 mm 0.00 in0.0 mm 0.55 in14.0 mm
09:18 AM 65.0°F18.3°C -24.6°F-31.4°C 1% 1.5 mph SE2.4 kmh SE 5.1 mph8.2 kmh 29.64 in1003.7 mb 0.00 in0.0 mm 0.00 in0.0 mm 0.55 in14.0 mm
09:17 AM 64.8°F18.2°C -24.7°F-31.5°C 1% 1.4 mph SE2.3 kmh SE 5.1 mph8.2 kmh 29.64 in1003.7 mb 0.00 in0.0 mm 0.00 in0.0 mm 0.55 in14.0 mm
09:16 AM 64.8°F18.2°C -24.7°F-31.5°C 1% 1.5 mph SE2.4 kmh SE 5.1 mph8.2 kmh 29.64 in1003.7 mb 0.00 in0.0 mm 0.00 in0.0 mm 0.55 in14.0 mm
09:15 AM 64.6°F18.1°C -24.8°F-31.6°C 1% 0.9 mph SE1.4 kmh SE 5.1 mph8.2 kmh 29.64 in1003.7 mb 0.00 in0.0 mm 0.00 in0.0 mm 0.55 in14.0 mm
09:14 AM 64.4°F18.0°C -25.0°F-31.7°C 1% 1.5 mph ESE2.4 kmh ESE 5.1 mph8.2 kmh 29.64 in1003.7 mb 0.00 in0.0 mm 0.00 in0.0 mm 0.55 in14.0 mm
09:13 AM 64.4°F18.0°C -25.0°F-31.7°C 1% 2.7 mph SE4.3 kmh SE 5.1 mph8.2 kmh 29.64 in1003.7 mb 0.00 in0.0 mm 0.00 in0.0 mm 0.55 in14.0 mm
09:12 AM 64.4°F18.0°C -25.0°F-31.7°C 1% 2.4 mph SE3.9 kmh SE 5.1 mph8.2 kmh 29.64 in1003.7 mb 0.00 in0.0 mm 0.00 in0.0 mm 0.55 in14.0 mm
09:11 AM 64.2°F17.9°C -25.1°F-31.7°C 1% 1.3 mph E2.1 kmh E 4.7 mph7.6 kmh 29.64 in1003.7 mb 0.00 in0.0 mm 0.00 in0.0 mm 0.55 in14.0 mm
09:10 AM 64.2°F17.9°C -25.1°F-31.7°C 1% 1.4 mph SE2.3 kmh SE 4.7 mph7.6 kmh 29.64 in1003.7 mb 0.00 in0.0 mm 0.00 in0.0 mm 0.55 in14.0 mm
09:09 AM 64.2°F17.9°C -25.1°F-31.7°C 1% 1.8 mph SE2.9 kmh SE 4.7 mph7.6 kmh 29.64 in1003.7 mb 0.00 in0.0 mm 0.00 in0.0 mm 0.55 in14.0 mm
09:08 AM 64.2°F17.9°C -25.1°F-31.7°C 1% 2.3 mph SE3.7 kmh SE 4.7 mph7.6 kmh 29.64 in1003.7 mb 0.00 in0.0 mm 0.00 in0.0 mm 0.55 in14.0 mm
09:07 AM 64.1°F17.8°C -25.2°F-31.8°C 1% 2.6 mph SE4.2 kmh SE 4.7 mph7.6 kmh 29.64 in1003.7 mb 0.00 in0.0 mm 0.00 in0.0 mm 0.55 in14.0 mm
09:06 AM 64.1°F17.8°C -25.2°F-31.8°C 1% 2.1 mph SE3.4 kmh SE 4.4 mph7.1 kmh 29.64 in1003.7 mb 0.00 in0.0 mm 0.00 in0.0 mm 0.55 in14.0 mm
09:05 AM 64.1°F17.8°C -25.2°F-31.8°C 1% 1.2 mph SE1.9 kmh SE 4.4 mph7.1 kmh 29.64 in1003.7 mb 0.00 in0.0 mm 0.00 in0.0 mm 0.55 in14.0 mm
09:04 AM 63.9°F17.7°C -25.3°F-31.8°C 1% 0.6 mph SE1.0 kmh SE 4.4 mph7.1 kmh 29.64 in1003.7 mb 0.00 in0.0 mm 0.00 in0.0 mm 0.55 in14.0 mm
09:03 AM 63.9°F17.7°C -25.3°F-31.8°C 1% 0.6 mph ESE1.0 kmh ESE 4.4 mph7.1 kmh 29.64 in1003.7 mb 0.00 in0.0 mm 0.00 in0.0 mm 0.55 in14.0 mm
09:02 AM 63.9°F17.7°C -25.3°F-31.8°C 1% 1.4 mph ESE2.3 kmh ESE 4.4 mph7.1 kmh 29.64 in1003.7 mb 0.00 in0.0 mm 0.00 in0.0 mm 0.55 in14.0 mm
09:01 AM 63.7°F17.6°C -25.4°F-31.9°C 1% 2.1 mph SE3.4 kmh SE 4.4 mph7.1 kmh 29.64 in1003.7 mb 0.00 in0.0 mm 0.00 in0.0 mm 0.55 in14.0 mm
09:00 AM 63.7°F17.6°C -25.4°F-31.9°C 1% 1.2 mph SE1.9 kmh SE 4.4 mph7.1 kmh 29.64 in1003.7 mb 0.00 in0.0 mm 0.00 in0.0 mm 0.55 in14.0 mm
08:59 AM 63.5°F17.5°C -25.5°F-31.9°C 1% 1.3 mph E2.1 kmh E 4.4 mph7.1 kmh 29.64 in1003.7 mb 0.00 in0.0 mm 0.00 in0.0 mm 0.55 in14.0 mm
08:58 AM 63.5°F17.5°C -25.5°F-31.9°C 1% 2.2 mph E3.5 kmh E 4.4 mph7.1 kmh 29.64 in1003.7 mb 0.00 in0.0 mm 0.00 in0.0 mm 0.55 in14.0 mm
08:57 AM 63.5°F17.5°C -25.5°F-31.9°C 1% 2.6 mph E4.2 kmh E 4.4 mph7.1 kmh 29.64 in1003.7 mb 0.00 in0.0 mm 0.00 in0.0 mm 0.55 in14.0 mm
08:56 AM 63.5°F17.5°C -25.5°F-31.9°C 1% 1.5 mph E2.4 kmh E 4.4 mph7.1 kmh 29.64 in1003.7 mb 0.00 in0.0 mm 0.00 in0.0 mm 0.55 in14.0 mm
08:55 AM 63.3°F17.4°C -25.7°F-32.1°C 1% 0.9 mph E1.4 kmh E 4.4 mph7.1 kmh 29.64 in1003.7 mb 0.00 in0.0 mm 0.00 in0.0 mm 0.55 in14.0 mm
08:54 AM 63.5°F17.5°C -25.5°F-31.9°C 1% 2.0 mph E3.2 kmh E 4.4 mph7.1 kmh 29.64 in1003.7 mb 0.00 in0.0 mm 0.00 in0.0 mm 0.55 in14.0 mm
08:53 AM 63.3°F17.4°C -25.7°F-32.1°C 1% 2.3 mph ENE3.7 kmh ENE 4.4 mph7.1 kmh 29.64 in1003.7 mb 0.00 in0.0 mm 0.00 in0.0 mm 0.55 in14.0 mm
08:52 AM 63.3°F17.4°C -25.7°F-32.1°C 1% 1.7 mph E2.7 kmh E 4.4 mph7.1 kmh 29.64 in1003.7 mb 0.00 in0.0 mm 0.00 in0.0 mm 0.55 in14.0 mm
08:51 AM 63.2°F17.3°C -25.7°F-32.1°C 1% 1.0 mph ESE1.6 kmh ESE 3.1 mph5.0 kmh 29.64 in1003.7 mb 0.00 in0.0 mm 0.00 in0.0 mm 0.55 in14.0 mm
08:50 AM 63.2°F17.3°C -25.7°F-32.1°C 1% 0.9 mph SE1.4 kmh SE 3.1 mph5.0 kmh 29.64 in1003.7 mb 0.00 in0.0 mm 0.00 in0.0 mm 0.55 in14.0 mm
08:49 AM 63.2°F17.3°C -25.7°F-32.1°C 1% 1.2 mph ESE1.9 kmh ESE 3.1 mph5.0 kmh 29.64 in1003.7 mb 0.00 in0.0 mm 0.00 in0.0 mm 0.55 in14.0 mm
08:48 AM 63.2°F17.3°C -25.7°F-32.1°C 1% 0.9 mph ENE1.4 kmh ENE 2.8 mph4.5 kmh 29.64 in1003.7 mb 0.00 in0.0 mm 0.00 in0.0 mm 0.55 in14.0 mm
08:47 AM 63.2°F17.3°C -25.7°F-32.1°C 1% 1.3 mph E2.1 kmh E 2.8 mph4.5 kmh 29.65 in1004.1 mb 0.00 in0.0 mm 0.00 in0.0 mm 0.55 in14.0 mm
08:46 AM 63.2°F17.3°C -25.7°F-32.1°C 1% 1.2 mph E1.9 kmh E 2.8 mph4.5 kmh 29.65 in1004.1 mb 0.00 in0.0 mm 0.00 in0.0 mm 0.55 in14.0 mm
08:45 AM 63.2°F17.3°C -25.7°F-32.1°C 1% 0.8 mph E1.3 kmh E 1.9 mph3.1 kmh 29.64 in1003.7 mb 0.00 in0.0 mm 0.00 in0.0 mm 0.55 in14.0 mm
08:44 AM 63.0°F17.2°C -25.8°F-32.1°C 1% 0.7 mph E1.1 kmh E 3.1 mph5.0 kmh 29.65 in1004.1 mb 0.00 in0.0 mm 0.00 in0.0 mm 0.55 in14.0 mm
08:43 AM 63.0°F17.2°C -25.8°F-32.1°C 1% 0.4 mph E0.6 kmh E 6.3 mph10.1 kmh 29.65 in1004.1 mb 0.00 in0.0 mm 0.00 in0.0 mm 0.55 in14.0 mm
08:42 AM 63.0°F17.2°C -25.8°F-32.1°C 1% 0.5 mph E0.8 kmh E 6.3 mph10.1 kmh 29.65 in1004.1 mb 0.00 in0.0 mm 0.00 in0.0 mm 0.55 in14.0 mm
08:41 AM 63.0°F17.2°C -25.8°F-32.1°C 1% 0.7 mph E1.1 kmh E 6.3 mph10.1 kmh 29.65 in1004.1 mb 0.00 in0.0 mm 0.00 in0.0 mm 0.55 in14.0 mm
08:40 AM 62.9°F17.2°C -26.0°F-32.2°C 1% 1.0 mph E1.6 kmh E 6.3 mph10.1 kmh 29.65 in1004.1 mb 0.00 in0.0 mm 0.00 in0.0 mm 0.55 in14.0 mm
08:39 AM 62.9°F17.2°C -26.0°F-32.2°C 1% 1.0 mph E1.6 kmh E 6.3 mph10.1 kmh 29.65 in1004.1 mb 0.00 in0.0 mm 0.00 in0.0 mm 0.55 in14.0 mm
08:38 AM 62.9°F17.2°C -26.0°F-32.2°C 1% 1.2 mph E1.9 kmh E 6.3 mph10.1 kmh 29.65 in1004.1 mb 0.00 in0.0 mm 0.00 in0.0 mm 0.55 in14.0 mm
08:37 AM 62.7°F17.1°C -26.1°F-32.3°C 1% 1.2 mph ESE1.9 kmh ESE 6.3 mph10.1 kmh 29.65 in1004.1 mb 0.00 in0.0 mm 0.00 in0.0 mm 0.55 in14.0 mm
08:36 AM 62.5°F16.9°C -26.2°F-32.3°C 1% 1.3 mph E2.1 kmh E 6.3 mph10.1 kmh 29.65 in1004.1 mb 0.00 in0.0 mm 0.00 in0.0 mm 0.55 in14.0 mm
08:35 AM 62.7°F17.1°C -26.1°F-32.3°C 1% 2.7 mph ENE4.3 kmh ENE 7.0 mph11.3 kmh 29.65 in1004.1 mb 0.00 in0.0 mm 0.00 in0.0 mm 0.55 in14.0 mm
08:34 AM 62.5°F16.9°C -26.2°F-32.3°C 1% 2.4 mph ENE3.9 kmh ENE 7.0 mph11.3 kmh 29.65 in1004.1 mb 0.00 in0.0 mm 0.00 in0.0 mm 0.55 in14.0 mm
08:33 AM 62.5°F16.9°C -26.2°F-32.3°C 1% 1.5 mph E2.4 kmh E 7.0 mph11.3 kmh 29.65 in1004.1 mb 0.00 in0.0 mm 0.00 in0.0 mm 0.55 in14.0 mm
08:32 AM 62.5°F16.9°C -26.2°F-32.3°C 1% 1.2 mph E1.9 kmh E 7.0 mph11.3 kmh 29.65 in1004.1 mb 0.00 in0.0 mm 0.00 in0.0 mm 0.55 in14.0 mm
08:31 AM 62.5°F16.9°C -26.2°F-32.3°C 1% 1.4 mph E2.3 kmh E 7.0 mph11.3 kmh 29.65 in1004.1 mb 0.00 in0.0 mm 0.00 in0.0 mm 0.55 in14.0 mm
08:30 AM 62.5°F16.9°C -26.2°F-32.3°C 1% 1.6 mph E2.6 kmh E 7.0 mph11.3 kmh 29.65 in1004.1 mb 0.00 in0.0 mm 0.00 in0.0 mm 0.55 in14.0 mm
08:29 AM 62.5°F16.9°C -26.2°F-32.3°C 1% 1.0 mph E1.6 kmh E 7.0 mph11.3 kmh 29.65 in1004.1 mb 0.00 in0.0 mm 0.00 in0.0 mm 0.55 in14.0 mm
08:28 AM 62.5°F16.9°C -26.2°F-32.3°C 1% 1.0 mph E1.6 kmh E 7.0 mph11.3 kmh 29.65 in1004.1 mb 0.00 in0.0 mm 0.00 in0.0 mm 0.55 in14.0 mm
08:27 AM 62.4°F16.9°C -26.3°F-32.4°C 1% 1.8 mph E2.9 kmh E 7.0 mph11.3 kmh 29.66 in1004.4 mb 0.00 in0.0 mm 0.00 in0.0 mm 0.55 in14.0 mm
08:26 AM 62.4°F16.9°C -26.3°F-32.4°C 1% 3.5 mph E5.6 kmh E 7.0 mph11.3 kmh 29.66 in1004.4 mb 0.00 in0.0 mm 0.00 in0.0 mm 0.55 in14.0 mm
08:25 AM 62.5°F16.9°C -26.2°F-32.3°C 1% 4.0 mph E6.4 kmh E 7.0 mph11.3 kmh 29.66 in1004.4 mb 0.00 in0.0 mm 0.00 in0.0 mm 0.55 in14.0 mm
08:24 AM 62.5°F16.9°C -26.2°F-32.3°C 1% 2.9 mph E4.7 kmh E 5.1 mph8.2 kmh 29.66 in1004.4 mb 0.00 in0.0 mm 0.00 in0.0 mm 0.55 in14.0 mm
08:23 AM 62.4°F16.9°C -26.3°F-32.4°C 1% 1.9 mph E3.1 kmh E 5.1 mph8.2 kmh 29.66 in1004.4 mb 0.00 in0.0 mm 0.00 in0.0 mm 0.55 in14.0 mm
08:22 AM 62.4°F16.9°C -26.3°F-32.4°C 1% 1.7 mph E2.7 kmh E 5.1 mph8.2 kmh 29.66 in1004.4 mb 0.00 in0.0 mm 0.00 in0.0 mm 0.55 in14.0 mm
08:21 AM 62.4°F16.9°C -26.3°F-32.4°C 1% 2.1 mph E3.4 kmh E 5.1 mph8.2 kmh 29.66 in1004.4 mb 0.00 in0.0 mm 0.00 in0.0 mm 0.55 in14.0 mm
08:20 AM 62.4°F16.9°C -26.3°F-32.4°C 1% 1.7 mph E2.7 kmh E 5.1 mph8.2 kmh 29.66 in1004.4 mb 0.00 in0.0 mm 0.00 in0.0 mm 0.55 in14.0 mm
08:19 AM 62.2°F16.8°C -26.4°F-32.4°C 1% 0.9 mph SE1.4 kmh SE 5.1 mph8.2 kmh 29.66 in1004.4 mb 0.00 in0.0 mm 0.00 in0.0 mm 0.55 in14.0 mm
08:18 AM 62.4°F16.9°C -26.3°F-32.4°C 1% 1.6 mph SE2.6 kmh SE 5.1 mph8.2 kmh 29.66 in1004.4 mb 0.00 in0.0 mm 0.00 in0.0 mm 0.55 in14.0 mm
08:17 AM 62.4°F16.9°C -26.3°F-32.4°C 1% 1.9 mph ESE3.1 kmh ESE 5.1 mph8.2 kmh 29.66 in1004.4 mb 0.00 in0.0 mm 0.00 in0.0 mm 0.55 in14.0 mm
08:16 AM 62.4°F16.9°C -26.3°F-32.4°C 1% 1.5 mph SE2.4 kmh SE 3.9 mph6.3 kmh 29.66 in1004.4 mb 0.00 in0.0 mm 0.00 in0.0 mm 0.55 in14.0 mm
08:15 AM 62.4°F16.9°C -26.3°F-32.4°C 1% 1.0 mph SE1.6 kmh SE 3.5 mph5.6 kmh 29.66 in1004.4 mb 0.00 in0.0 mm 0.00 in0.0 mm 0.55 in14.0 mm
08:14 AM 62.4°F16.9°C -26.3°F-32.4°C 1% 0.7 mph ESE1.1 kmh ESE 3.9 mph6.3 kmh 29.66 in1004.4 mb 0.00 in0.0 mm 0.00 in0.0 mm 0.55 in14.0 mm
08:13 AM 62.4°F16.9°C -26.3°F-32.4°C 1% 0.8 mph SE1.3 kmh SE 3.9 mph6.3 kmh 29.66 in1004.4 mb 0.00 in0.0 mm 0.00 in0.0 mm 0.55 in14.0 mm
08:12 AM 62.4°F16.9°C -26.3°F-32.4°C 1% 0.9 mph SE1.4 kmh SE 3.9 mph6.3 kmh 29.66 in1004.4 mb 0.00 in0.0 mm 0.00 in0.0 mm 0.55 in14.0 mm
08:11 AM 62.4°F16.9°C -26.3°F-32.4°C 1% 1.4 mph E2.3 kmh E 3.9 mph6.3 kmh 29.66 in1004.4 mb 0.00 in0.0 mm 0.00 in0.0 mm 0.55 in14.0 mm
08:10 AM 62.4°F16.9°C -26.3°F-32.4°C 1% 1.4 mph E2.3 kmh E 3.9 mph6.3 kmh 29.66 in1004.4 mb 0.00 in0.0 mm 0.00 in0.0 mm 0.55 in14.0 mm
08:09 AM 62.4°F16.9°C -26.3°F-32.4°C 1% 1.4 mph ESE2.3 kmh ESE 3.9 mph6.3 kmh 29.66 in1004.4 mb 0.00 in0.0 mm 0.00 in0.0 mm 0.55 in14.0 mm
08:08 AM 62.4°F16.9°C -26.3°F-32.4°C 1% 1.7 mph E2.7 kmh E 3.9 mph6.3 kmh 29.66 in1004.4 mb 0.00 in0.0 mm 0.00 in0.0 mm 0.55 in14.0 mm
08:07 AM 62.4°F16.9°C -26.3°F-32.4°C 1% 1.5 mph E2.4 kmh E 3.9 mph6.3 kmh 29.66 in1004.4 mb 0.00 in0.0 mm 0.00 in0.0 mm 0.55 in14.0 mm
08:06 AM 62.4°F16.9°C -26.3°F-32.4°C 1% 1.6 mph E2.6 kmh E 3.9 mph6.3 kmh 29.66 in1004.4 mb 0.00 in0.0 mm 0.00 in0.0 mm 0.55 in14.0 mm
08:05 AM 62.4°F16.9°C -26.3°F-32.4°C 1% 1.6 mph E2.6 kmh E 3.9 mph6.3 kmh 29.66 in1004.4 mb 0.00 in0.0 mm 0.00 in0.0 mm 0.55 in14.0 mm
08:04 AM 62.4°F16.9°C -26.3°F-32.4°C 1% 1.6 mph E2.6 kmh E 3.9 mph6.3 kmh 29.66 in1004.4 mb 0.00 in0.0 mm 0.00 in0.0 mm 0.55 in14.0 mm
08:03 AM 62.4°F16.9°C -26.3°F-32.4°C 1% 1.7 mph ESE2.7 kmh ESE 3.9 mph6.3 kmh 29.66 in1004.4 mb 0.00 in0.0 mm 0.00 in0.0 mm 0.55 in14.0 mm
08:02 AM 62.2°F16.8°C -26.4°F-32.4°C 1% 1.1 mph ESE1.8 kmh ESE 3.9 mph6.3 kmh 29.66 in1004.4 mb 0.00 in0.0 mm 0.00 in0.0 mm 0.55 in14.0 mm
08:01 AM 62.4°F16.9°C -26.3°F-32.4°C 1% 1.4 mph ESE2.3 kmh ESE 3.9 mph6.3 kmh 29.66 in1004.4 mb 0.00 in0.0 mm 0.00 in0.0 mm 0.55 in14.0 mm
08:00 AM 62.2°F16.8°C -26.4°F-32.4°C 1% 1.2 mph ESE1.9 kmh ESE 3.9 mph6.3 kmh 29.66 in1004.4 mb 0.00 in0.0 mm 0.00 in0.0 mm 0.55 in14.0 mm
07:59 AM 62.2°F16.8°C -26.4°F-32.4°C 1% 0.5 mph ESE0.8 kmh ESE 3.1 mph5.0 kmh 29.66 in1004.4 mb 0.00 in0.0 mm 0.00 in0.0 mm 0.55 in14.0 mm
07:58 AM 62.2°F16.8°C -26.4°F-32.4°C 1% 0.8 mph E1.3 kmh E 3.1 mph5.0 kmh 29.66 in1004.4 mb 0.00 in0.0 mm 0.00 in0.0 mm 0.55 in14.0 mm
07:57 AM 62.0°F16.7°C -26.5°F-32.5°C 1% 1.1 mph ENE1.8 kmh ENE 3.1 mph5.0 kmh 29.67 in1004.7 mb 0.00 in0.0 mm 0.00 in0.0 mm 0.55 in14.0 mm
07:56 AM 62.0°F16.7°C -26.5°F-32.5°C 1% 0.8 mph E1.3 kmh E 3.1 mph5.0 kmh 29.66 in1004.4 mb 0.00 in0.0 mm 0.00 in0.0 mm 0.55 in14.0 mm
07:55 AM 61.8°F16.6°C -26.7°F-32.6°C 1% 1.2 mph ESE1.9 kmh ESE 3.1 mph5.0 kmh 29.66 in1004.4 mb 0.00 in0.0 mm 0.00 in0.0 mm 0.55 in14.0 mm
07:54 AM 61.8°F16.6°C -26.7°F-32.6°C 1% 1.9 mph ESE3.1 kmh ESE 3.1 mph5.0 kmh 29.66 in1004.4 mb 0.00 in0.0 mm 0.00 in0.0 mm 0.55 in14.0 mm
07:53 AM 61.8°F16.6°C -26.7°F-32.6°C 1% 2.0 mph E3.2 kmh E 3.1 mph5.0 kmh 29.66 in1004.4 mb 0.00 in0.0 mm 0.00 in0.0 mm 0.55 in14.0 mm
07:52 AM 61.8°F16.6°C -26.7°F-32.6°C 1% 2.0 mph E3.2 kmh E 3.1 mph5.0 kmh 29.66 in1004.4 mb 0.00 in0.0 mm 0.00 in0.0 mm 0.55 in14.0 mm
07:51 AM 61.8°F16.6°C -26.7°F-32.6°C 1% 1.4 mph E2.3 kmh E 3.1 mph5.0 kmh 29.66 in1004.4 mb 0.00 in0.0 mm 0.00 in0.0 mm 0.55 in14.0 mm
07:50 AM 61.8°F16.6°C -26.7°F-32.6°C 1% 0.9 mph ESE1.4 kmh ESE 3.1 mph5.0 kmh 29.66 in1004.4 mb 0.00 in0.0 mm 0.00 in0.0 mm 0.55 in14.0 mm
07:49 AM 61.8°F16.6°C -26.7°F-32.6°C 1% 0.9 mph ESE1.4 kmh ESE 3.1 mph5.0 kmh 29.67 in1004.7 mb 0.00 in0.0 mm 0.00 in0.0 mm 0.55 in14.0 mm
07:48 AM 61.8°F16.6°C -26.7°F-32.6°C 1% 0.9 mph ESE1.4 kmh ESE 3.5 mph5.6 kmh 29.67 in1004.7 mb 0.00 in0.0 mm 0.00 in0.0 mm 0.55 in14.0 mm
07:47 AM 61.6°F16.4°C -26.8°F-32.7°C 1% 0.7 mph ESE1.1 kmh ESE 4.7 mph7.6 kmh 29.67 in1004.7 mb 0.00 in0.0 mm 0.00 in0.0 mm 0.55 in14.0 mm
07:46 AM 61.6°F16.4°C -26.8°F-32.7°C 1% 0.5 mph E0.8 kmh E 4.7 mph7.6 kmh 29.67 in1004.7 mb 0.00 in0.0 mm 0.00 in0.0 mm 0.55 in14.0 mm
07:45 AM 61.6°F16.4°C -26.8°F-32.7°C 1% 0.7 mph ESE1.1 kmh ESE 4.7 mph7.6 kmh 29.66 in1004.4 mb 0.00 in0.0 mm 0.00 in0.0 mm 0.55 in14.0 mm
07:44 AM 61.6°F16.4°C -26.8°F-32.7°C 1% 1.3 mph SE2.1 kmh SE 4.7 mph7.6 kmh 29.67 in1004.7 mb 0.00 in0.0 mm 0.00 in0.0 mm 0.55 in14.0 mm
07:43 AM 61.6°F16.4°C -26.8°F-32.7°C 1% 1.4 mph SE2.3 kmh SE 4.7 mph7.6 kmh 29.67 in1004.7 mb 0.00 in0.0 mm 0.00 in0.0 mm 0.55 in14.0 mm
07:42 AM 61.6°F16.4°C -26.8°F-32.7°C 1% 0.7 mph SE1.1 kmh SE 5.4 mph8.7 kmh 29.67 in1004.7 mb 0.00 in0.0 mm 0.00 in0.0 mm 0.55 in14.0 mm
07:41 AM 61.6°F16.4°C -26.8°F-32.7°C 1% 1.0 mph ESE1.6 kmh ESE 5.4 mph8.7 kmh 29.67 in1004.7 mb 0.00 in0.0 mm 0.00 in0.0 mm 0.55 in14.0 mm
07:40 AM 61.6°F16.4°C -26.8°F-32.7°C 1% 1.3 mph ESE2.1 kmh ESE 5.4 mph8.7 kmh 29.67 in1004.7 mb 0.00 in0.0 mm 0.00 in0.0 mm 0.55 in14.0 mm
07:39 AM 61.6°F16.4°C -26.8°F-32.7°C 1% 1.8 mph ESE2.9 kmh ESE 5.4 mph8.7 kmh 29.67 in1004.7 mb 0.00 in0.0 mm 0.00 in0.0 mm 0.55 in14.0 mm
07:38 AM 61.6°F16.4°C -26.8°F-32.7°C 1% 2.3 mph ESE3.7 kmh ESE 6.7 mph10.8 kmh 29.66 in1004.4 mb 0.00 in0.0 mm 0.00 in0.0 mm 0.55 in14.0 mm
07:37 AM 61.6°F16.4°C -26.8°F-32.7°C 1% 2.0 mph E3.2 kmh E 6.7 mph10.8 kmh 29.66 in1004.4 mb 0.00 in0.0 mm 0.00 in0.0 mm 0.55 in14.0 mm
07:36 AM 61.6°F16.4°C -26.8°F-32.7°C 1% 1.2 mph ENE1.9 kmh ENE 6.7 mph10.8 kmh 29.66 in1004.4 mb 0.00 in0.0 mm 0.00 in0.0 mm 0.55 in14.0 mm
07:35 AM 61.5°F16.4°C -26.8°F-32.7°C 1% 0.8 mph E1.3 kmh E 6.7 mph10.8 kmh 29.66 in1004.4 mb 0.00 in0.0 mm 0.00 in0.0 mm 0.55 in14.0 mm
07:34 AM 61.5°F16.4°C -26.8°F-32.7°C 1% 1.7 mph E2.7 kmh E 6.7 mph10.8 kmh 29.66 in1004.4 mb 0.00 in0.0 mm 0.00 in0.0 mm 0.55 in14.0 mm
07:33 AM 61.6°F16.4°C -26.8°F-32.7°C 1% 2.1 mph E3.4 kmh E 6.7 mph10.8 kmh 29.66 in1004.4 mb 0.00 in0.0 mm 0.00 in0.0 mm 0.55 in14.0 mm
07:32 AM 61.6°F16.4°C -26.8°F-32.7°C 1% 1.2 mph E1.9 kmh E 6.7 mph10.8 kmh 29.66 in1004.4 mb 0.00 in0.0 mm 0.00 in0.0 mm 0.55 in14.0 mm
07:31 AM 61.5°F16.4°C -26.8°F-32.7°C 1% 1.2 mph SE1.9 kmh SE 6.7 mph10.8 kmh 29.66 in1004.4 mb 0.00 in0.0 mm 0.00 in0.0 mm 0.55 in14.0 mm
07:30 AM 61.5°F16.4°C -26.8°F-32.7°C 1% 2.0 mph SE3.2 kmh SE 6.7 mph10.8 kmh 29.66 in1004.4 mb 0.00 in0.0 mm 0.00 in0.0 mm 0.55 in14.0 mm
07:29 AM 61.5°F16.4°C -26.8°F-32.7°C 1% 2.6 mph ESE4.2 kmh ESE 6.7 mph10.8 kmh 29.66 in1004.4 mb 0.00 in0.0 mm 0.00 in0.0 mm 0.55 in14.0 mm
07:28 AM 61.5°F16.4°C -26.8°F-32.7°C 1% 2.4 mph SE3.9 kmh SE 6.7 mph10.8 kmh 29.66 in1004.4 mb 0.00 in0.0 mm 0.00 in0.0 mm 0.55 in14.0 mm
07:27 AM 61.5°F16.4°C -26.8°F-32.7°C 1% 1.5 mph SE2.4 kmh SE 5.1 mph8.2 kmh 29.66 in1004.4 mb 0.00 in0.0 mm 0.00 in0.0 mm 0.55 in14.0 mm
07:26 AM 61.5°F16.4°C -26.8°F-32.7°C 1% 1.7 mph SE2.7 kmh SE 5.1 mph8.2 kmh 29.66 in1004.4 mb 0.00 in0.0 mm 0.00 in0.0 mm 0.55 in14.0 mm
07:25 AM 61.5°F16.4°C -26.8°F-32.7°C 1% 1.7 mph ESE2.7 kmh ESE 5.1 mph8.2 kmh 29.66 in1004.4 mb 0.00 in0.0 mm 0.00 in0.0 mm 0.55 in14.0 mm
07:24 AM 61.5°F16.4°C -26.8°F-32.7°C 1% 1.1 mph E1.8 kmh E 5.1 mph8.2 kmh 29.66 in1004.4 mb 0.00 in0.0 mm 0.00 in0.0 mm 0.55 in14.0 mm
07:23 AM 61.3°F16.3°C -27.0°F-32.8°C 1% 1.0 mph E1.6 kmh E 6.3 mph10.1 kmh 29.66 in1004.4 mb 0.00 in0.0 mm 0.00 in0.0 mm 0.55 in14.0 mm
07:22 AM 61.3°F16.3°C -27.0°F-32.8°C 1% 1.5 mph SE2.4 kmh SE 8.9 mph14.3 kmh 29.66 in1004.4 mb 0.00 in0.0 mm 0.00 in0.0 mm 0.55 in14.0 mm
07:21 AM 61.3°F16.3°C -27.0°F-32.8°C 1% 3.1 mph ESE5.0 kmh ESE 8.9 mph14.3 kmh 29.66 in1004.4 mb 0.00 in0.0 mm 0.00 in0.0 mm 0.55 in14.0 mm
07:20 AM 61.3°F16.3°C -27.0°F-32.8°C 1% 3.6 mph ESE5.8 kmh ESE 8.9 mph14.3 kmh 29.66 in1004.4 mb 0.00 in0.0 mm 0.00 in0.0 mm 0.55 in14.0 mm
07:19 AM 61.3°F16.3°C -27.0°F-32.8°C 1% 1.7 mph E2.7 kmh E 8.9 mph14.3 kmh 29.66 in1004.4 mb 0.00 in0.0 mm 0.00 in0.0 mm 0.55 in14.0 mm
07:18 AM 61.1°F16.2°C -27.1°F-32.8°C 1% 1.5 mph E2.4 kmh E 8.9 mph14.3 kmh 29.66 in1004.4 mb 0.00 in0.0 mm 0.00 in0.0 mm 0.55 in14.0 mm
07:17 AM 61.1°F16.2°C -27.1°F-32.8°C 1% 1.7 mph E2.7 kmh E 8.9 mph14.3 kmh 29.66 in1004.4 mb 0.00 in0.0 mm 0.00 in0.0 mm 0.55 in14.0 mm
07:16 AM 61.1°F16.2°C -27.1°F-32.8°C 1% 1.7 mph E2.7 kmh E 8.9 mph14.3 kmh 29.66 in1004.4 mb 0.00 in0.0 mm 0.00 in0.0 mm 0.55 in14.0 mm
07:15 AM 61.1°F16.2°C -27.1°F-32.8°C 1% 2.6 mph ESE4.2 kmh ESE 8.9 mph14.3 kmh 29.65 in1004.1 mb 0.00 in0.0 mm 0.00 in0.0 mm 0.55 in14.0 mm
07:14 AM 61.1°F16.2°C -27.1°F-32.8°C 1% 4.1 mph ESE6.6 kmh ESE 8.9 mph14.3 kmh 29.65 in1004.1 mb 0.00 in0.0 mm 0.00 in0.0 mm 0.55 in14.0 mm
07:13 AM 61.1°F16.2°C -27.1°F-32.8°C 1% 3.3 mph ESE5.3 kmh ESE 8.9 mph14.3 kmh 29.65 in1004.1 mb 0.00 in0.0 mm 0.00 in0.0 mm 0.55 in14.0 mm
07:12 AM 61.1°F16.2°C -27.1°F-32.8°C 1% 2.7 mph ENE4.3 kmh ENE 7.0 mph11.3 kmh 29.65 in1004.1 mb 0.00 in0.0 mm 0.00 in0.0 mm 0.55 in14.0 mm
07:11 AM 60.9°F16.1°C -27.2°F-32.9°C 1% 3.0 mph ENE4.8 kmh ENE 7.0 mph11.3 kmh 29.65 in1004.1 mb 0.00 in0.0 mm 0.00 in0.0 mm 0.55 in14.0 mm
07:10 AM 60.9°F16.1°C -27.2°F-32.9°C 1% 1.5 mph E2.4 kmh E 4.7 mph7.6 kmh 29.65 in1004.1 mb 0.00 in0.0 mm 0.00 in0.0 mm 0.55 in14.0 mm
07:09 AM 60.9°F16.1°C -27.2°F-32.9°C 1% 1.2 mph E1.9 kmh E 4.7 mph7.6 kmh 29.65 in1004.1 mb 0.00 in0.0 mm 0.00 in0.0 mm 0.55 in14.0 mm
07:08 AM 60.9°F16.1°C -27.2°F-32.9°C 1% 1.4 mph E2.3 kmh E 4.7 mph7.6 kmh 29.65 in1004.1 mb 0.00 in0.0 mm 0.00 in0.0 mm 0.55 in14.0 mm
07:07 AM 60.7°F15.9°C -27.3°F-32.9°C 1% 1.7 mph ENE2.7 kmh ENE 4.7 mph7.6 kmh 29.65 in1004.1 mb 0.00 in0.0 mm 0.00 in0.0 mm 0.55 in14.0 mm
07:06 AM 60.7°F15.9°C -27.3°F-32.9°C 1% 1.8 mph E2.9 kmh E 4.7 mph7.6 kmh 29.65 in1004.1 mb 0.00 in0.0 mm 0.00 in0.0 mm 0.55 in14.0 mm
07:05 AM 60.7°F15.9°C -27.3°F-32.9°C 1% 2.3 mph E3.7 kmh E 4.7 mph7.6 kmh 29.65 in1004.1 mb 0.00 in0.0 mm 0.00 in0.0 mm 0.55 in14.0 mm
07:04 AM 60.7°F15.9°C -27.3°F-32.9°C 1% 2.4 mph E3.9 kmh E 4.7 mph7.6 kmh 29.65 in1004.1 mb 0.00 in0.0 mm 0.00 in0.0 mm 0.55 in14.0 mm
07:03 AM 60.7°F15.9°C -27.3°F-32.9°C 1% 1.5 mph E2.4 kmh E 4.7 mph7.6 kmh 29.65 in1004.1 mb 0.00 in0.0 mm 0.00 in0.0 mm 0.55 in14.0 mm
07:02 AM 60.7°F15.9°C -27.3°F-32.9°C 1% 1.0 mph NE1.6 kmh NE 3.5 mph5.6 kmh 29.65 in1004.1 mb 0.00 in0.0 mm 0.00 in0.0 mm 0.55 in14.0 mm
07:01 AM 60.7°F15.9°C -27.3°F-32.9°C 1% 1.6 mph NNE2.6 kmh NNE 3.5 mph5.6 kmh 29.65 in1004.1 mb 0.00 in0.0 mm 0.00 in0.0 mm 0.55 in14.0 mm
07:00 AM 60.7°F15.9°C -27.3°F-32.9°C 1% 2.2 mph NNE3.5 kmh NNE 3.5 mph5.6 kmh 29.65 in1004.1 mb 0.00 in0.0 mm 0.00 in0.0 mm 0.55 in14.0 mm
06:59 AM 60.7°F15.9°C -27.3°F-32.9°C 1% 1.6 mph NNE2.6 kmh NNE 3.5 mph5.6 kmh 29.65 in1004.1 mb 0.00 in0.0 mm 0.00 in0.0 mm 0.55 in14.0 mm
06:58 AM 60.7°F15.9°C -27.3°F-32.9°C 1% 1.0 mph ENE1.6 kmh ENE 2.8 mph4.5 kmh 29.65 in1004.1 mb 0.00 in0.0 mm 0.00 in0.0 mm 0.55 in14.0 mm
06:57 AM 60.7°F15.9°C -27.3°F-32.9°C 1% 1.0 mph NE1.6 kmh NE 2.8 mph4.5 kmh 29.65 in1004.1 mb 0.00 in0.0 mm 0.00 in0.0 mm 0.55 in14.0 mm
06:56 AM 60.7°F15.9°C -27.3°F-32.9°C 1% 1.0 mph ENE1.6 kmh ENE 1.9 mph3.1 kmh 29.65 in1004.1 mb 0.00 in0.0 mm 0.00 in0.0 mm 0.55 in14.0 mm
06:55 AM 60.7°F15.9°C -27.3°F-32.9°C 1% 1.0 mph E1.6 kmh E 1.9 mph3.1 kmh 29.65 in1004.1 mb 0.00 in0.0 mm 0.00 in0.0 mm 0.55 in14.0 mm
06:54 AM 60.6°F15.9°C -27.4°F-33.0°C 1% 0.9 mph E1.4 kmh E 1.9 mph3.1 kmh 29.65 in1004.1 mb 0.00 in0.0 mm 0.00 in0.0 mm 0.55 in14.0 mm
06:53 AM 60.6°F15.9°C -27.4°F-33.0°C 1% 1.0 mph SW1.6 kmh SW 1.9 mph3.1 kmh 29.65 in1004.1 mb 0.00 in0.0 mm 0.00 in0.0 mm 0.55 in14.0 mm
06:52 AM 60.6°F15.9°C -27.4°F-33.0°C 1% 0.7 mph ESE1.1 kmh ESE 1.9 mph3.1 kmh 29.65 in1004.1 mb 0.00 in0.0 mm 0.00 in0.0 mm 0.55 in14.0 mm
06:51 AM 60.6°F15.9°C -27.4°F-33.0°C 1% 0.5 mph SE0.8 kmh SE 1.9 mph3.1 kmh 29.65 in1004.1 mb 0.00 in0.0 mm 0.00 in0.0 mm 0.55 in14.0 mm
06:50 AM 60.6°F15.9°C -27.4°F-33.0°C 1% 0.3 mph ESE0.5 kmh ESE 2.3 mph3.7 kmh 29.65 in1004.1 mb 0.00 in0.0 mm 0.00 in0.0 mm 0.55 in14.0 mm
06:49 AM 60.6°F15.9°C -27.4°F-33.0°C 1% 0.6 mph E1.0 kmh E 2.3 mph3.7 kmh 29.65 in1004.1 mb 0.00 in0.0 mm 0.00 in0.0 mm 0.55 in14.0 mm
06:48 AM 60.6°F15.9°C -27.4°F-33.0°C 1% 0.7 mph E1.1 kmh E 2.3 mph3.7 kmh 29.65 in1004.1 mb 0.00 in0.0 mm 0.00 in0.0 mm 0.55 in14.0 mm
06:47 AM 60.6°F15.9°C -27.4°F-33.0°C 1% 0.5 mph NE0.8 kmh NE 2.3 mph3.7 kmh 29.65 in1004.1 mb 0.00 in0.0 mm 0.00 in0.0 mm 0.55 in14.0 mm
06:46 AM 60.6°F15.9°C -27.4°F-33.0°C 1% 0.4 mph NNW0.6 kmh NNW 2.3 mph3.7 kmh 29.66 in1004.4 mb 0.00 in0.0 mm 0.00 in0.0 mm 0.55 in14.0 mm
06:45 AM 60.6°F15.9°C -27.4°F-33.0°C 1% 0.6 mph N1.0 kmh N 5.4 mph8.7 kmh 29.65 in1004.1 mb 0.00 in0.0 mm 0.00 in0.0 mm 0.55 in14.0 mm
06:44 AM 60.4°F15.8°C -27.5°F-33.1°C 1% 0.6 mph NE1.0 kmh NE 5.4 mph8.7 kmh 29.65 in1004.1 mb 0.00 in0.0 mm 0.00 in0.0 mm 0.55 in14.0 mm
06:43 AM 60.4°F15.8°C -27.5°F-33.1°C 1% 0.4 mph N0.6 kmh N 5.4 mph8.7 kmh 29.65 in1004.1 mb 0.00 in0.0 mm 0.00 in0.0 mm 0.55 in14.0 mm
06:42 AM 60.4°F15.8°C -27.5°F-33.1°C 1% 1.0 mph NE1.6 kmh NE 5.4 mph8.7 kmh 29.65 in1004.1 mb 0.00 in0.0 mm 0.00 in0.0 mm 0.55 in14.0 mm
06:41 AM 60.4°F15.8°C -27.5°F-33.1°C 1% 1.3 mph ENE2.1 kmh ENE 5.4 mph8.7 kmh 29.65 in1004.1 mb 0.00 in0.0 mm 0.00 in0.0 mm 0.55 in14.0 mm
06:40 AM 60.4°F15.8°C -27.5°F-33.1°C 1% 1.1 mph SE1.8 kmh SE 5.4 mph8.7 kmh 29.65 in1004.1 mb 0.00 in0.0 mm 0.00 in0.0 mm 0.55 in14.0 mm
06:39 AM 60.4°F15.8°C -27.5°F-33.1°C 1% 0.7 mph SE1.1 kmh SE 5.4 mph8.7 kmh 29.65 in1004.1 mb 0.00 in0.0 mm 0.00 in0.0 mm 0.55 in14.0 mm
06:38 AM 60.2°F15.7°C -27.7°F-33.2°C 1% 0.6 mph ESE1.0 kmh ESE 5.4 mph8.7 kmh 29.65 in1004.1 mb 0.00 in0.0 mm 0.00 in0.0 mm 0.55 in14.0 mm
06:37 AM 60.0°F15.6°C -27.8°F-33.2°C 1% 1.0 mph NE1.6 kmh NE 5.4 mph8.7 kmh 29.65 in1004.1 mb 0.00 in0.0 mm 0.00 in0.0 mm 0.55 in14.0 mm
06:36 AM 60.0°F15.6°C -27.8°F-33.2°C 1% 1.6 mph NE2.6 kmh NE 5.4 mph8.7 kmh 29.65 in1004.1 mb 0.00 in0.0 mm 0.00 in0.0 mm 0.55 in14.0 mm
06:35 AM 60.0°F15.6°C -27.8°F-33.2°C 1% 1.5 mph NE2.4 kmh NE 3.9 mph6.3 kmh 29.65 in1004.1 mb 0.00 in0.0 mm 0.00 in0.0 mm 0.55 in14.0 mm
06:34 AM 60.0°F15.6°C -27.8°F-33.2°C 1% 1.0 mph NE1.6 kmh NE 3.9 mph6.3 kmh 29.65 in1004.1 mb 0.00 in0.0 mm 0.00 in0.0 mm 0.55 in14.0 mm
06:33 AM 60.0°F15.6°C -27.8°F-33.2°C 1% 0.6 mph NE1.0 kmh NE 2.8 mph4.5 kmh 29.65 in1004.1 mb 0.00 in0.0 mm 0.00 in0.0 mm 0.55 in14.0 mm
06:32 AM 60.0°F15.6°C -27.8°F-33.2°C 1% 1.0 mph E1.6 kmh E 2.8 mph4.5 kmh 29.65 in1004.1 mb 0.00 in0.0 mm 0.00 in0.0 mm 0.55 in14.0 mm
06:31 AM 60.0°F15.6°C -27.8°F-33.2°C 1% 0.9 mph E1.4 kmh E 2.8 mph4.5 kmh 29.65 in1004.1 mb 0.00 in0.0 mm 0.00 in0.0 mm 0.55 in14.0 mm
06:30 AM 60.0°F15.6°C -27.8°F-33.2°C 1% 0.5 mph NE0.8 kmh NE 2.8 mph4.5 kmh 29.65 in1004.1 mb 0.00 in0.0 mm 0.00 in0.0 mm 0.55 in14.0 mm
06:29 AM 60.0°F15.6°C -27.8°F-33.2°C 1% 0.5 mph NE0.8 kmh NE 1.9 mph3.1 kmh 29.65 in1004.1 mb 0.00 in0.0 mm 0.00 in0.0 mm 0.55 in14.0 mm
06:28 AM 59.8°F15.4°C -27.9°F-33.3°C 1% 0.4 mph ENE0.6 kmh ENE 1.9 mph3.1 kmh 29.65 in1004.1 mb 0.00 in0.0 mm 0.00 in0.0 mm 0.55 in14.0 mm
06:27 AM 59.8°F15.4°C -27.9°F-33.3°C 1% 0.6 mph ENE1.0 kmh ENE 1.9 mph3.1 kmh 29.65 in1004.1 mb 0.00 in0.0 mm 0.00 in0.0 mm 0.55 in14.0 mm
06:26 AM 59.8°F15.4°C -27.9°F-33.3°C 1% 0.3 mph NNE0.5 kmh NNE 1.9 mph3.1 kmh 29.65 in1004.1 mb 0.00 in0.0 mm 0.00 in0.0 mm 0.55 in14.0 mm
06:25 AM 60.0°F15.6°C -27.8°F-33.2°C 1% 0.3 mph NNE0.5 kmh NNE 1.9 mph3.1 kmh 29.64 in1003.7 mb 0.00 in0.0 mm 0.00 in0.0 mm 0.55 in14.0 mm
06:24 AM 60.0°F15.6°C -27.8°F-33.2°C 1% 0.3 mph NNE0.5 kmh NNE 1.9 mph3.1 kmh 29.64 in1003.7 mb 0.00 in0.0 mm 0.00 in0.0 mm 0.55 in14.0 mm
06:23 AM 60.0°F15.6°C -27.8°F-33.2°C 1% 0.7 mph NE1.1 kmh NE 1.9 mph3.1 kmh 29.64 in1003.7 mb 0.00 in0.0 mm 0.00 in0.0 mm 0.55 in14.0 mm
06:22 AM 60.0°F15.6°C -27.8°F-33.2°C 1% 1.1 mph NE1.8 kmh NE 1.9 mph3.1 kmh 29.64 in1003.7 mb 0.00 in0.0 mm 0.00 in0.0 mm 0.55 in14.0 mm
06:21 AM 59.8°F15.4°C -27.9°F-33.3°C 1% 1.0 mph N1.6 kmh N 1.9 mph3.1 kmh 29.64 in1003.7 mb 0.00 in0.0 mm 0.00 in0.0 mm 0.55 in14.0 mm
06:20 AM 59.8°F15.4°C -27.9°F-33.3°C 1% 0.6 mph SW1.0 kmh SW 1.9 mph3.1 kmh 29.64 in1003.7 mb 0.00 in0.0 mm 0.00 in0.0 mm 0.55 in14.0 mm
06:19 AM 59.8°F15.4°C -27.9°F-33.3°C 1% 0.6 mph N1.0 kmh N 1.9 mph3.1 kmh 29.64 in1003.7 mb 0.00 in0.0 mm 0.00 in0.0 mm 0.55 in14.0 mm
06:18 AM 59.8°F15.4°C -27.9°F-33.3°C 1% 0.9 mph N1.4 kmh N 1.9 mph3.1 kmh 29.64 in1003.7 mb 0.00 in0.0 mm 0.00 in0.0 mm 0.55 in14.0 mm
06:17 AM 59.8°F15.4°C -27.9°F-33.3°C 1% 0.7 mph N1.1 kmh N 1.9 mph3.1 kmh 29.64 in1003.7 mb 0.00 in0.0 mm 0.00 in0.0 mm 0.55 in14.0 mm
06:16 AM 59.8°F15.4°C -28.0°F-33.3°C 1% 0.5 mph NE0.8 kmh NE 1.6 mph2.6 kmh 29.64 in1003.7 mb 0.00 in0.0 mm 0.00 in0.0 mm 0.55 in14.0 mm
06:15 AM 59.8°F15.4°C -28.0°F-33.3°C 1% 0.4 mph E0.6 kmh E 1.6 mph2.6 kmh 29.64 in1003.7 mb 0.00 in0.0 mm 0.00 in0.0 mm 0.55 in14.0 mm
06:14 AM 59.8°F15.4°C -28.0°F-33.3°C 1% 0.6 mph ENE1.0 kmh ENE 1.9 mph3.1 kmh 29.64 in1003.7 mb 0.00 in0.0 mm 0.00 in0.0 mm 0.55 in14.0 mm
06:13 AM 59.8°F15.4°C -28.0°F-33.3°C 1% 0.9 mph NE1.4 kmh NE 1.9 mph3.1 kmh 29.64 in1003.7 mb 0.00 in0.0 mm 0.00 in0.0 mm 0.55 in14.0 mm
06:12 AM 59.8°F15.4°C -28.0°F-33.3°C 1% 1.0 mph NE1.6 kmh NE 1.9 mph3.1 kmh 29.64 in1003.7 mb 0.00 in0.0 mm 0.00 in0.0 mm 0.55 in14.0 mm
06:11 AM 59.8°F15.4°C -28.0°F-33.3°C 1% 0.9 mph NE1.4 kmh NE 1.9 mph3.1 kmh 29.64 in1003.7 mb 0.00 in0.0 mm 0.00 in0.0 mm 0.55 in14.0 mm
06:09 AM 59.6°F15.3°C -28.1°F-33.4°C 1% 0.6 mph NNE1.0 kmh NNE 1.9 mph3.1 kmh 29.64 in1003.7 mb 0.00 in0.0 mm 0.00 in0.0 mm 0.55 in14.0 mm
06:08 AM 59.6°F15.3°C -28.1°F-33.4°C 1% 0.9 mph NE1.4 kmh NE 1.9 mph3.1 kmh 29.64 in1003.7 mb 0.00 in0.0 mm 0.00 in0.0 mm 0.55 in14.0 mm
06:07 AM 59.6°F15.3°C -28.1°F-33.4°C 1% 0.7 mph NE1.1 kmh NE 1.9 mph3.1 kmh 29.64 in1003.7 mb 0.00 in0.0 mm 0.00 in0.0 mm 0.55 in14.0 mm
06:06 AM 59.6°F15.3°C -28.1°F-33.4°C 1% 1.0 mph NE1.6 kmh NE 1.9 mph3.1 kmh 29.64 in1003.7 mb 0.00 in0.0 mm 0.00 in0.0 mm 0.55 in14.0 mm
06:05 AM 59.6°F15.3°C -28.1°F-33.4°C 1% 1.0 mph NE1.6 kmh NE 1.9 mph3.1 kmh 29.64 in1003.7 mb 0.00 in0.0 mm 0.00 in0.0 mm 0.55 in14.0 mm
06:04 AM 59.6°F15.3°C -28.1°F-33.4°C 1% 0.7 mph NE1.1 kmh NE 1.9 mph3.1 kmh 29.64 in1003.7 mb 0.00 in0.0 mm 0.00 in0.0 mm 0.55 in14.0 mm
06:03 AM 59.4°F15.2°C -28.2°F-33.4°C 1% 0.7 mph NE1.1 kmh NE 1.9 mph3.1 kmh 29.64 in1003.7 mb 0.00 in0.0 mm 0.00 in0.0 mm 0.55 in14.0 mm
06:02 AM 59.4°F15.2°C -28.2°F-33.4°C 1% 0.4 mph ENE0.6 kmh ENE 1.9 mph3.1 kmh 29.64 in1003.7 mb 0.00 in0.0 mm 0.00 in0.0 mm 0.55 in14.0 mm
06:01 AM 59.4°F15.2°C -28.2°F-33.4°C 1% 0.8 mph NE1.3 kmh NE 1.9 mph3.1 kmh 29.64 in1003.7 mb 0.00 in0.0 mm 0.00 in0.0 mm 0.55 in14.0 mm
06:00 AM 59.6°F15.3°C -28.1°F-33.4°C 1% 1.2 mph NE1.9 kmh NE 1.9 mph3.1 kmh 29.64 in1003.7 mb 0.00 in0.0 mm 0.00 in0.0 mm 0.55 in14.0 mm
05:59 AM 59.4°F15.2°C -28.2°F-33.4°C 1% 1.3 mph NE2.1 kmh NE 1.9 mph3.1 kmh 29.64 in1003.7 mb 0.00 in0.0 mm 0.00 in0.0 mm 0.55 in14.0 mm
05:58 AM 59.4°F15.2°C -28.2°F-33.4°C 1% 0.9 mph NE1.4 kmh NE 1.9 mph3.1 kmh 29.64 in1003.7 mb 0.00 in0.0 mm 0.00 in0.0 mm 0.55 in14.0 mm
05:57 AM 59.4°F15.2°C -28.2°F-33.4°C 1% 0.9 mph NE1.4 kmh NE 1.9 mph3.1 kmh 29.64 in1003.7 mb 0.00 in0.0 mm 0.00 in0.0 mm 0.55 in14.0 mm
05:56 AM 59.4°F15.2°C -28.2°F-33.4°C 1% 1.0 mph NE1.6 kmh NE 1.9 mph3.1 kmh 29.64 in1003.7 mb 0.00 in0.0 mm 0.00 in0.0 mm 0.55 in14.0 mm
05:55 AM 59.4°F15.2°C -28.2°F-33.4°C 1% 1.0 mph NE1.6 kmh NE 1.9 mph3.1 kmh 29.64 in1003.7 mb 0.00 in0.0 mm 0.00 in0.0 mm 0.55 in14.0 mm
05:54 AM 59.4°F15.2°C -28.2°F-33.4°C 1% 1.2 mph NNE1.9 kmh NNE 1.9 mph3.1 kmh 29.64 in1003.7 mb 0.00 in0.0 mm 0.00 in0.0 mm 0.55 in14.0 mm
05:53 AM 59.2°F15.1°C -28.3°F-33.5°C 1% 0.9 mph NNE1.4 kmh NNE 1.9 mph3.1 kmh 29.64 in1003.7 mb 0.00 in0.0 mm 0.00 in0.0 mm 0.55 in14.0 mm
05:52 AM 59.2°F15.1°C -28.3°F-33.5°C 1% 0.5 mph NE0.8 kmh NE 1.9 mph3.1 kmh 29.64 in1003.7 mb 0.00 in0.0 mm 0.00 in0.0 mm 0.55 in14.0 mm
05:51 AM 59.2°F15.1°C -28.3°F-33.5°C 1% 0.4 mph ENE0.6 kmh ENE 6.3 mph10.1 kmh 29.64 in1003.7 mb 0.00 in0.0 mm 0.00 in0.0 mm 0.55 in14.0 mm
05:50 AM 59.2°F15.1°C -28.3°F-33.5°C 1% 0.8 mph E1.3 kmh E 6.3 mph10.1 kmh 29.64 in1003.7 mb 0.00 in0.0 mm 0.00 in0.0 mm 0.55 in14.0 mm
05:49 AM 59.2°F15.1°C -28.3°F-33.5°C 1% 0.9 mph E1.4 kmh E 6.3 mph10.1 kmh 29.64 in1003.7 mb 0.00 in0.0 mm 0.00 in0.0 mm 0.55 in14.0 mm
05:48 AM 59.2°F15.1°C -28.3°F-33.5°C 1% 0.6 mph E1.0 kmh E 6.3 mph10.1 kmh 29.64 in1003.7 mb 0.00 in0.0 mm 0.00 in0.0 mm 0.55 in14.0 mm
05:47 AM 59.2°F15.1°C -28.3°F-33.5°C 1% 0.7 mph E1.1 kmh E 6.3 mph10.1 kmh 29.64 in1003.7 mb 0.00 in0.0 mm 0.00 in0.0 mm 0.55 in14.0 mm
05:46 AM 59.2°F15.1°C -28.3°F-33.5°C 1% 0.5 mph E0.8 kmh E 6.3 mph10.1 kmh 29.63 in1003.4 mb 0.00 in0.0 mm 0.00 in0.0 mm 0.55 in14.0 mm
05:45 AM 59.0°F15.0°C -28.5°F-33.6°C 1% 0.7 mph NE1.1 kmh NE 6.3 mph10.1 kmh 29.63 in1003.4 mb 0.00 in0.0 mm 0.00 in0.0 mm 0.55 in14.0 mm
05:44 AM 59.0°F15.0°C -28.5°F-33.6°C 1% 0.9 mph NE1.4 kmh NE 6.3 mph10.1 kmh 29.63 in1003.4 mb 0.02 in0.5 mm 0.00 in0.0 mm 0.55 in14.0 mm
05:43 AM 59.0°F15.0°C -28.5°F-33.6°C 1% 2.0 mph NE3.2 kmh NE 6.3 mph10.1 kmh 29.63 in1003.4 mb 0.02 in0.5 mm 0.00 in0.0 mm 0.55 in14.0 mm
05:42 AM 59.0°F15.0°C -28.5°F-33.6°C 1% 2.7 mph ENE4.3 kmh ENE 6.3 mph10.1 kmh 29.63 in1003.4 mb 0.02 in0.5 mm 0.00 in0.0 mm 0.55 in14.0 mm
05:41 AM 59.0°F15.0°C -28.5°F-33.6°C 1% 2.1 mph NE3.4 kmh NE 3.5 mph5.6 kmh 29.63 in1003.4 mb 0.02 in0.5 mm 0.00 in0.0 mm 0.55 in14.0 mm
05:40 AM 59.0°F15.0°C -28.5°F-33.6°C 1% 1.3 mph NNE2.1 kmh NNE 3.1 mph5.0 kmh 29.63 in1003.4 mb 0.02 in0.5 mm 0.00 in0.0 mm 0.55 in14.0 mm
05:39 AM 59.0°F15.0°C -28.5°F-33.6°C 1% 0.6 mph NE1.0 kmh NE 1.9 mph3.1 kmh 29.63 in1003.4 mb 0.02 in0.5 mm 0.00 in0.0 mm 0.55 in14.0 mm
05:38 AM 59.0°F15.0°C -28.5°F-33.6°C 1% 0.7 mph E1.1 kmh E 1.9 mph3.1 kmh 29.63 in1003.4 mb 0.02 in0.5 mm 0.00 in0.0 mm 0.55 in14.0 mm
05:37 AM 59.0°F15.0°C -28.5°F-33.6°C 1% 0.8 mph E1.3 kmh E 1.9 mph3.1 kmh 29.63 in1003.4 mb 0.02 in0.5 mm 0.00 in0.0 mm 0.55 in14.0 mm
05:36 AM 59.0°F15.0°C -28.5°F-33.6°C 1% 0.7 mph NE1.1 kmh NE 1.9 mph3.1 kmh 29.63 in1003.4 mb 0.02 in0.5 mm 0.00 in0.0 mm 0.55 in14.0 mm
05:35 AM 59.0°F15.0°C -28.5°F-33.6°C 1% 0.5 mph NE0.8 kmh NE 3.1 mph5.0 kmh 29.63 in1003.4 mb 0.02 in0.5 mm 0.00 in0.0 mm 0.55 in14.0 mm
05:34 AM 58.9°F14.9°C -28.5°F-33.6°C 1% 0.5 mph ENE0.8 kmh ENE 3.9 mph6.3 kmh 29.63 in1003.4 mb 0.02 in0.5 mm 0.00 in0.0 mm 0.55 in14.0 mm
05:33 AM 58.9°F14.9°C -28.5°F-33.6°C 1% 0.6 mph NNE1.0 kmh NNE 3.9 mph6.3 kmh 29.63 in1003.4 mb 0.02 in0.5 mm 0.00 in0.0 mm 0.55 in14.0 mm
05:32 AM 58.9°F14.9°C -28.5°F-33.6°C 1% 0.9 mph NNE1.4 kmh NNE 3.9 mph6.3 kmh 29.63 in1003.4 mb 0.02 in0.5 mm 0.00 in0.0 mm 0.55 in14.0 mm
05:31 AM 58.9°F14.9°C -28.5°F-33.6°C 1% 0.8 mph ENE1.3 kmh ENE 3.9 mph6.3 kmh 29.63 in1003.4 mb 0.02 in0.5 mm 0.00 in0.0 mm 0.55 in14.0 mm
05:30 AM 58.9°F14.9°C -28.5°F-33.6°C 1% 0.6 mph E1.0 kmh E 3.9 mph6.3 kmh 29.63 in1003.4 mb 0.02 in0.5 mm 0.00 in0.0 mm 0.55 in14.0 mm
05:29 AM 58.9°F14.9°C -28.5°F-33.6°C 1% 0.6 mph E1.0 kmh E 3.9 mph6.3 kmh 29.63 in1003.4 mb 0.02 in0.5 mm 0.00 in0.0 mm 0.55 in14.0 mm
05:28 AM 58.7°F14.8°C -28.7°F-33.7°C 1% 0.6 mph ENE1.0 kmh ENE 3.9 mph6.3 kmh 29.64 in1003.7 mb 0.02 in0.5 mm 0.00 in0.0 mm 0.55 in14.0 mm
05:27 AM 58.9°F14.9°C -28.5°F-33.6°C 1% 1.0 mph ENE1.6 kmh ENE 3.9 mph6.3 kmh 29.64 in1003.7 mb 0.02 in0.5 mm 0.00 in0.0 mm 0.55 in14.0 mm
05:26 AM 58.7°F14.8°C -28.7°F-33.7°C 1% 2.0 mph NE3.2 kmh NE 3.9 mph6.3 kmh 29.64 in1003.7 mb 0.02 in0.5 mm 0.00 in0.0 mm 0.55 in14.0 mm
05:25 AM 58.7°F14.8°C -28.7°F-33.7°C 1% 2.4 mph NNE3.9 kmh NNE 3.9 mph6.3 kmh 29.64 in1003.7 mb 0.02 in0.5 mm 0.00 in0.0 mm 0.55 in14.0 mm
05:24 AM 58.7°F14.8°C -28.7°F-33.7°C 1% 1.8 mph NNE2.9 kmh NNE 3.9 mph6.3 kmh 29.64 in1003.7 mb 0.02 in0.5 mm 0.00 in0.0 mm 0.55 in14.0 mm
05:23 AM 58.7°F14.8°C -28.7°F-33.7°C 1% 0.8 mph NNE1.3 kmh NNE 3.1 mph5.0 kmh 29.64 in1003.7 mb 0.02 in0.5 mm 0.00 in0.0 mm 0.55 in14.0 mm
05:22 AM 58.7°F14.8°C -28.7°F-33.7°C 1% 0.5 mph NE0.8 kmh NE 3.1 mph5.0 kmh 29.64 in1003.7 mb 0.02 in0.5 mm 0.00 in0.0 mm 0.55 in14.0 mm
05:21 AM 58.7°F14.8°C -28.7°F-33.7°C 1% 0.4 mph NE0.6 kmh NE 3.1 mph5.0 kmh 29.64 in1003.7 mb 0.02 in0.5 mm 0.00 in0.0 mm 0.55 in14.0 mm
05:20 AM 58.7°F14.8°C -28.7°F-33.7°C 1% 0.5 mph NE0.8 kmh NE 3.1 mph5.0 kmh 29.64 in1003.7 mb 0.02 in0.5 mm 0.00 in0.0 mm 0.55 in14.0 mm
05:19 AM 58.9°F14.9°C -28.5°F-33.6°C 1% 0.5 mph NE0.8 kmh NE 3.1 mph5.0 kmh 29.64 in1003.7 mb 0.02 in0.5 mm 0.00 in0.0 mm 0.55 in14.0 mm
05:18 AM 58.7°F14.8°C -28.7°F-33.7°C 1% 0.4 mph NE0.6 kmh NE 3.1 mph5.0 kmh 29.64 in1003.7 mb 0.02 in0.5 mm 0.00 in0.0 mm 0.55 in14.0 mm
05:17 AM 58.7°F14.8°C -28.7°F-33.7°C 1% 0.7 mph ENE1.1 kmh ENE 3.1 mph5.0 kmh 29.64 in1003.7 mb 0.02 in0.5 mm 0.00 in0.0 mm 0.55 in14.0 mm
05:16 AM 58.7°F14.8°C -28.7°F-33.7°C 1% 0.7 mph E1.1 kmh E 6.0 mph9.7 kmh 29.64 in1003.7 mb 0.02 in0.5 mm 0.00 in0.0 mm 0.55 in14.0 mm
05:15 AM 58.7°F14.8°C -28.7°F-33.7°C 1% 0.6 mph ESE1.0 kmh ESE 6.0 mph9.7 kmh 29.64 in1003.7 mb 0.02 in0.5 mm 0.00 in0.0 mm 0.55 in14.0 mm
05:14 AM 58.9°F14.9°C -28.5°F-33.6°C 1% 1.2 mph ENE1.9 kmh ENE 6.0 mph9.7 kmh 29.64 in1003.7 mb 0.02 in0.5 mm 0.00 in0.0 mm 0.55 in14.0 mm
05:13 AM 58.7°F14.8°C -28.7°F-33.7°C 1% 1.9 mph ENE3.1 kmh ENE 6.0 mph9.7 kmh 29.64 in1003.7 mb 0.02 in0.5 mm 0.00 in0.0 mm 0.55 in14.0 mm
05:12 AM 58.9°F14.9°C -28.5°F-33.6°C 1% 1.0 mph E1.6 kmh E 6.0 mph9.7 kmh 29.64 in1003.7 mb 0.02 in0.5 mm 0.00 in0.0 mm 0.55 in14.0 mm
05:11 AM 58.9°F14.9°C -28.5°F-33.6°C 1% 0.5 mph ENE0.8 kmh ENE 6.0 mph9.7 kmh 29.64 in1003.7 mb 0.02 in0.5 mm 0.00 in0.0 mm 0.55 in14.0 mm
05:10 AM 58.7°F14.8°C -28.7°F-33.7°C 1% 1.1 mph ENE1.8 kmh ENE 6.0 mph9.7 kmh 29.64 in1003.7 mb 0.02 in0.5 mm 0.00 in0.0 mm 0.55 in14.0 mm
05:09 AM 58.7°F14.8°C -28.7°F-33.7°C 1% 1.1 mph E1.8 kmh E 6.0 mph9.7 kmh 29.64 in1003.7 mb 0.02 in0.5 mm 0.00 in0.0 mm 0.55 in14.0 mm
05:08 AM 58.7°F14.8°C -28.7°F-33.7°C 1% 0.8 mph ESE1.3 kmh ESE 6.0 mph9.7 kmh 29.64 in1003.7 mb 0.02 in0.5 mm 0.00 in0.0 mm 0.55 in14.0 mm
05:07 AM 58.9°F14.9°C -28.5°F-33.6°C 1% 1.9 mph ESE3.1 kmh ESE 6.0 mph9.7 kmh 29.64 in1003.7 mb 0.02 in0.5 mm 0.00 in0.0 mm 0.55 in14.0 mm
05:06 AM 58.9°F14.9°C -28.5°F-33.6°C 1% 2.1 mph SE3.4 kmh SE 6.0 mph9.7 kmh 29.64 in1003.7 mb 0.02 in0.5 mm 0.00 in0.0 mm 0.55 in14.0 mm
05:05 AM 58.7°F14.8°C -28.7°F-33.7°C 1% 0.8 mph SSE1.3 kmh SSE 4.7 mph7.6 kmh 29.64 in1003.7 mb 0.02 in0.5 mm 0.00 in0.0 mm 0.55 in14.0 mm
05:04 AM 58.7°F14.8°C -28.7°F-33.7°C 1% 1.1 mph N1.8 kmh N 4.7 mph7.6 kmh 29.64 in1003.7 mb 0.02 in0.5 mm 0.00 in0.0 mm 0.55 in14.0 mm
05:03 AM 58.7°F14.8°C -28.7°F-33.7°C 1% 1.9 mph NE3.1 kmh NE 4.7 mph7.6 kmh 29.64 in1003.7 mb 0.02 in0.5 mm 0.00 in0.0 mm 0.55 in14.0 mm
05:02 AM 58.5°F14.7°C -28.8°F-33.8°C 1% 2.4 mph E3.9 kmh E 4.7 mph7.6 kmh 29.64 in1003.7 mb 0.02 in0.5 mm 0.00 in0.0 mm 0.55 in14.0 mm
05:01 AM 58.5°F14.7°C -28.8°F-33.8°C 1% 2.4 mph ESE3.9 kmh ESE 4.7 mph7.6 kmh 29.64 in1003.7 mb 0.02 in0.5 mm 0.00 in0.0 mm 0.55 in14.0 mm
05:00 AM 58.3°F14.6°C -28.9°F-33.8°C 1% 1.7 mph ESE2.7 kmh ESE 4.7 mph7.6 kmh 29.64 in1003.7 mb 0.02 in0.5 mm 0.00 in0.0 mm 0.55 in14.0 mm
04:59 AM 58.5°F14.7°C -28.8°F-33.8°C 1% 1.0 mph SE1.6 kmh SE 4.7 mph7.6 kmh 29.64 in1003.7 mb 0.02 in0.5 mm 0.00 in0.0 mm 0.55 in14.0 mm
04:58 AM 58.5°F14.7°C -28.8°F-33.8°C 1% 2.5 mph ESE4.0 kmh ESE 4.7 mph7.6 kmh 29.64 in1003.7 mb 0.02 in0.5 mm 0.00 in0.0 mm 0.55 in14.0 mm
04:57 AM 58.5°F14.7°C -28.8°F-33.8°C 1% 3.1 mph E5.0 kmh E 4.7 mph7.6 kmh 29.64 in1003.7 mb 0.02 in0.5 mm 0.00 in0.0 mm 0.55 in14.0 mm
04:56 AM 58.5°F14.7°C -28.8°F-33.8°C 1% 2.3 mph E3.7 kmh E 4.4 mph7.1 kmh 29.64 in1003.7 mb 0.02 in0.5 mm 0.00 in0.0 mm 0.55 in14.0 mm
04:55 AM 58.5°F14.7°C -28.8°F-33.8°C 1% 1.3 mph E2.1 kmh E 3.9 mph6.3 kmh 29.64 in1003.7 mb 0.02 in0.5 mm 0.00 in0.0 mm 0.55 in14.0 mm
04:54 AM 58.5°F14.7°C -28.8°F-33.8°C 1% 0.7 mph NE1.1 kmh NE 3.5 mph5.6 kmh 29.64 in1003.7 mb 0.02 in0.5 mm 0.00 in0.0 mm 0.55 in14.0 mm
04:53 AM 58.5°F14.7°C -28.8°F-33.8°C 1% 0.4 mph ENE0.6 kmh ENE 3.5 mph5.6 kmh 29.64 in1003.7 mb 0.02 in0.5 mm 0.00 in0.0 mm 0.55 in14.0 mm
04:52 AM 58.3°F14.6°C -28.9°F-33.8°C 1% 0.8 mph NE1.3 kmh NE 3.5 mph5.6 kmh 29.64 in1003.7 mb 0.02 in0.5 mm 0.00 in0.0 mm 0.55 in14.0 mm
04:51 AM 58.3°F14.6°C -28.9°F-33.8°C 1% 1.0 mph NE1.6 kmh NE 3.5 mph5.6 kmh 29.64 in1003.7 mb 0.02 in0.5 mm 0.00 in0.0 mm 0.55 in14.0 mm
04:50 AM 58.3°F14.6°C -28.9°F-33.8°C 1% 1.0 mph E1.6 kmh E 3.5 mph5.6 kmh 29.64 in1003.7 mb 0.02 in0.5 mm 0.00 in0.0 mm 0.55 in14.0 mm
04:49 AM 58.3°F14.6°C -28.9°F-33.8°C 1% 1.1 mph ESE1.8 kmh ESE 3.5 mph5.6 kmh 29.64 in1003.7 mb 0.02 in0.5 mm 0.00 in0.0 mm 0.55 in14.0 mm
04:48 AM 58.3°F14.6°C -28.9°F-33.8°C 1% 1.2 mph ESE1.9 kmh ESE 3.5 mph5.6 kmh 29.64 in1003.7 mb 0.02 in0.5 mm 0.00 in0.0 mm 0.55 in14.0 mm
04:47 AM 58.3°F14.6°C -28.9°F-33.8°C 1% 1.6 mph SE2.6 kmh SE 3.5 mph5.6 kmh 29.64 in1003.7 mb 0.02 in0.5 mm 0.00 in0.0 mm 0.55 in14.0 mm
04:46 AM 58.3°F14.6°C -28.9°F-33.8°C 1% 1.5 mph SE2.4 kmh SE 3.5 mph5.6 kmh 29.64 in1003.7 mb 0.02 in0.5 mm 0.00 in0.0 mm 0.55 in14.0 mm
04:45 AM 58.3°F14.6°C -28.9°F-33.8°C 1% 1.1 mph ESE1.8 kmh ESE 3.1 mph5.0 kmh 29.64 in1003.7 mb 0.02 in0.5 mm 1.20 in30.5 mm 0.55 in14.0 mm
04:44 AM 58.3°F14.6°C -28.9°F-33.8°C 1% 0.9 mph E1.4 kmh E 3.9 mph6.3 kmh 29.64 in1003.7 mb 0.00 in0.0 mm 0.00 in0.0 mm 0.52 in13.2 mm
04:43 AM 58.3°F14.6°C -28.9°F-33.8°C 1% 0.6 mph ESE1.0 kmh ESE 3.9 mph6.3 kmh 29.65 in1004.1 mb 0.00 in0.0 mm 0.00 in0.0 mm 0.52 in13.2 mm
04:42 AM 58.3°F14.6°C -28.9°F-33.8°C 1% 0.8 mph ENE1.3 kmh ENE 3.9 mph6.3 kmh 29.65 in1004.1 mb 0.00 in0.0 mm 0.00 in0.0 mm 0.52 in13.2 mm
04:41 AM 58.3°F14.6°C -28.9°F-33.8°C 1% 0.9 mph ENE1.4 kmh ENE 3.9 mph6.3 kmh 29.65 in1004.1 mb 0.00 in0.0 mm 0.00 in0.0 mm 0.52 in13.2 mm
04:40 AM 58.3°F14.6°C -28.9°F-33.8°C 1% 0.9 mph ESE1.4 kmh ESE 3.9 mph6.3 kmh 29.64 in1003.7 mb 0.00 in0.0 mm 0.00 in0.0 mm 0.52 in13.2 mm
04:39 AM 58.1°F14.5°C -29.0°F-33.9°C 1% 1.4 mph SE2.3 kmh SE 6.0 mph9.7 kmh 29.64 in1003.7 mb 0.00 in0.0 mm 0.00 in0.0 mm 0.52 in13.2 mm
04:38 AM 58.3°F14.6°C -28.9°F-33.8°C 1% 1.5 mph ESE2.4 kmh ESE 6.0 mph9.7 kmh 29.64 in1003.7 mb 0.00 in0.0 mm 0.00 in0.0 mm 0.52 in13.2 mm
04:37 AM 58.3°F14.6°C -28.9°F-33.8°C 1% 1.6 mph E2.6 kmh E 6.0 mph9.7 kmh 29.64 in1003.7 mb 0.00 in0.0 mm 0.00 in0.0 mm 0.52 in13.2 mm
04:36 AM 58.1°F14.5°C -29.0°F-33.9°C 1% 1.9 mph E3.1 kmh E 6.0 mph9.7 kmh 29.64 in1003.7 mb 0.00 in0.0 mm 0.00 in0.0 mm 0.52 in13.2 mm
04:35 AM 58.1°F14.5°C -29.0°F-33.9°C 1% 2.1 mph E3.4 kmh E 6.0 mph9.7 kmh 29.64 in1003.7 mb 0.00 in0.0 mm 0.00 in0.0 mm 0.52 in13.2 mm
04:34 AM 58.3°F14.6°C -28.9°F-33.8°C 1% 2.2 mph E3.5 kmh E 6.0 mph9.7 kmh 29.64 in1003.7 mb 0.00 in0.0 mm 0.00 in0.0 mm 0.52 in13.2 mm
04:33 AM 58.3°F14.6°C -28.9°F-33.8°C 1% 2.5 mph E4.0 kmh E 6.0 mph9.7 kmh 29.64 in1003.7 mb 0.00 in0.0 mm 0.00 in0.0 mm 0.52 in13.2 mm
04:32 AM 58.1°F14.5°C -29.0°F-33.9°C 1% 2.5 mph E4.0 kmh E 6.0 mph9.7 kmh 29.64 in1003.7 mb 0.00 in0.0 mm 0.00 in0.0 mm 0.52 in13.2 mm
04:31 AM 58.1°F14.5°C -29.0°F-33.9°C 1% 2.8 mph E4.5 kmh E 6.0 mph9.7 kmh 29.64 in1003.7 mb 0.00 in0.0 mm 0.00 in0.0 mm 0.52 in13.2 mm
04:30 AM 58.1°F14.5°C -29.0°F-33.9°C 1% 3.1 mph E5.0 kmh E 6.0 mph9.7 kmh 29.64 in1003.7 mb 0.00 in0.0 mm 0.00 in0.0 mm 0.52 in13.2 mm
04:29 AM 58.1°F14.5°C -29.0°F-33.9°C 1% 2.6 mph E4.2 kmh E 6.0 mph9.7 kmh 29.64 in1003.7 mb 0.00 in0.0 mm 0.00 in0.0 mm 0.52 in13.2 mm
04:28 AM 58.0°F14.4°C -29.1°F-33.9°C 1% 2.0 mph ENE3.2 kmh ENE 5.1 mph8.2 kmh 29.65 in1004.1 mb 0.00 in0.0 mm 0.00 in0.0 mm 0.52 in13.2 mm
04:27 AM 58.0°F14.4°C -29.1°F-33.9°C 1% 2.5 mph E4.0 kmh E 5.1 mph8.2 kmh 29.65 in1004.1 mb 0.00 in0.0 mm 0.00 in0.0 mm 0.52 in13.2 mm
04:26 AM 58.0°F14.4°C -29.1°F-33.9°C 1% 2.8 mph E4.5 kmh E 5.1 mph8.2 kmh 29.65 in1004.1 mb 0.00 in0.0 mm 0.00 in0.0 mm 0.52 in13.2 mm
04:25 AM 58.0°F14.4°C -29.1°F-33.9°C 1% 2.1 mph E3.4 kmh E 4.4 mph7.1 kmh 29.65 in1004.1 mb 0.00 in0.0 mm 0.00 in0.0 mm 0.52 in13.2 mm
04:24 AM 58.0°F14.4°C -29.1°F-33.9°C 1% 1.3 mph E2.1 kmh E 4.4 mph7.1 kmh 29.65 in1004.1 mb 0.00 in0.0 mm 0.00 in0.0 mm 0.52 in13.2 mm
04:23 AM 58.0°F14.4°C -29.1°F-33.9°C 1% 0.9 mph ENE1.4 kmh ENE 4.4 mph7.1 kmh 29.65 in1004.1 mb 0.00 in0.0 mm 0.00 in0.0 mm 0.52 in13.2 mm
04:22 AM 58.0°F14.4°C -29.1°F-33.9°C 1% 0.8 mph E1.3 kmh E 4.4 mph7.1 kmh 29.65 in1004.1 mb 0.00 in0.0 mm 0.00 in0.0 mm 0.52 in13.2 mm
04:21 AM 57.8°F14.3°C -29.2°F-34.0°C 1% 1.2 mph E1.9 kmh E 4.4 mph7.1 kmh 29.65 in1004.1 mb 0.00 in0.0 mm 0.00 in0.0 mm 0.52 in13.2 mm
04:20 AM 57.8°F14.3°C -29.2°F-34.0°C 1% 2.0 mph E3.2 kmh E 4.4 mph7.1 kmh 29.65 in1004.1 mb 0.00 in0.0 mm 0.00 in0.0 mm 0.52 in13.2 mm
04:19 AM 57.8°F14.3°C -29.2°F-34.0°C 1% 2.4 mph E3.9 kmh E 4.4 mph7.1 kmh 29.64 in1003.7 mb 0.00 in0.0 mm 0.00 in0.0 mm 0.52 in13.2 mm
04:18 AM 57.8°F14.3°C -29.2°F-34.0°C 1% 2.3 mph E3.7 kmh E 4.4 mph7.1 kmh 29.64 in1003.7 mb 0.00 in0.0 mm 0.00 in0.0 mm 0.52 in13.2 mm
04:17 AM 58.0°F14.4°C -29.1°F-33.9°C 1% 1.2 mph E1.9 kmh E 4.4 mph7.1 kmh 29.65 in1004.1 mb 0.00 in0.0 mm 0.00 in0.0 mm 0.52 in13.2 mm
04:16 AM 57.8°F14.3°C -29.2°F-34.0°C 1% 0.6 mph ESE1.0 kmh ESE 4.4 mph7.1 kmh 29.65 in1004.1 mb 0.00 in0.0 mm 0.00 in0.0 mm 0.52 in13.2 mm
04:15 AM 57.8°F14.3°C -29.2°F-34.0°C 1% 0.6 mph E1.0 kmh E 4.4 mph7.1 kmh 29.65 in1004.1 mb 0.00 in0.0 mm 0.00 in0.0 mm 0.52 in13.2 mm
04:14 AM 57.8°F14.3°C -29.2°F-34.0°C 1% 0.8 mph E1.3 kmh E 4.4 mph7.1 kmh 29.65 in1004.1 mb 0.00 in0.0 mm 0.00 in0.0 mm 0.52 in13.2 mm
04:13 AM 57.8°F14.3°C -29.2°F-34.0°C 1% 1.8 mph ENE2.9 kmh ENE 4.4 mph7.1 kmh 29.65 in1004.1 mb 0.00 in0.0 mm 0.00 in0.0 mm 0.52 in13.2 mm
04:12 AM 57.8°F14.3°C -29.2°F-34.0°C 1% 2.2 mph E3.5 kmh E 4.4 mph7.1 kmh 29.65 in1004.1 mb 0.00 in0.0 mm 0.00 in0.0 mm 0.52 in13.2 mm
04:11 AM 57.8°F14.3°C -29.2°F-34.0°C 1% 1.3 mph E2.1 kmh E 4.4 mph7.1 kmh 29.65 in1004.1 mb 0.00 in0.0 mm 0.00 in0.0 mm 0.52 in13.2 mm
04:10 AM 57.8°F14.3°C -29.2°F-34.0°C 1% 0.6 mph ENE1.0 kmh ENE 4.4 mph7.1 kmh 29.65 in1004.1 mb 0.00 in0.0 mm 0.00 in0.0 mm 0.52 in13.2 mm
04:09 AM 57.8°F14.3°C -29.2°F-34.0°C 1% 0.7 mph E1.1 kmh E 4.4 mph7.1 kmh 29.65 in1004.1 mb 0.00 in0.0 mm 0.00 in0.0 mm 0.52 in13.2 mm
04:08 AM 57.8°F14.3°C -29.2°F-34.0°C 1% 1.3 mph E2.1 kmh E 4.4 mph7.1 kmh 29.65 in1004.1 mb 0.00 in0.0 mm 0.00 in0.0 mm 0.52 in13.2 mm
04:07 AM 57.6°F14.2°C -29.4°F-34.1°C 1% 1.3 mph E2.1 kmh E 4.4 mph7.1 kmh 29.65 in1004.1 mb 0.00 in0.0 mm 0.00 in0.0 mm 0.52 in13.2 mm
04:06 AM 57.8°F14.3°C -29.2°F-34.0°C 1% 0.7 mph E1.1 kmh E 3.1 mph5.0 kmh 29.65 in1004.1 mb 0.00 in0.0 mm 0.00 in0.0 mm 0.52 in13.2 mm
04:05 AM 57.8°F14.3°C -29.2°F-34.0°C 1% 0.8 mph E1.3 kmh E 3.1 mph5.0 kmh 29.65 in1004.1 mb 0.00 in0.0 mm 0.00 in0.0 mm 0.52 in13.2 mm
04:04 AM 57.8°F14.3°C -29.2°F-34.0°C 1% 1.6 mph E2.6 kmh E 3.5 mph5.6 kmh 29.65 in1004.1 mb 0.00 in0.0 mm 0.00 in0.0 mm 0.52 in13.2 mm
04:03 AM 57.8°F14.3°C -29.2°F-34.0°C 1% 1.5 mph E2.4 kmh E 3.5 mph5.6 kmh 29.65 in1004.1 mb 0.00 in0.0 mm 0.00 in0.0 mm 0.52 in13.2 mm
04:02 AM 57.8°F14.3°C -29.2°F-34.0°C 1% 1.1 mph E1.8 kmh E 3.5 mph5.6 kmh 29.65 in1004.1 mb 0.00 in0.0 mm 0.00 in0.0 mm 0.52 in13.2 mm
04:01 AM 57.8°F14.3°C -29.2°F-34.0°C 1% 1.1 mph E1.8 kmh E 3.5 mph5.6 kmh 29.65 in1004.1 mb 0.00 in0.0 mm 0.00 in0.0 mm 0.52 in13.2 mm
04:00 AM 57.8°F14.3°C -29.2°F-34.0°C 1% 1.1 mph E1.8 kmh E 3.5 mph5.6 kmh 29.65 in1004.1 mb 0.00 in0.0 mm 0.00 in0.0 mm 0.52 in13.2 mm
03:59 AM 57.8°F14.3°C -29.2°F-34.0°C 1% 0.8 mph E1.3 kmh E 3.9 mph6.3 kmh 29.65 in1004.1 mb 0.00 in0.0 mm 0.00 in0.0 mm 0.52 in13.2 mm
03:58 AM 58.0°F14.4°C -29.1°F-33.9°C 1% 0.4 mph E0.6 kmh E 5.4 mph8.7 kmh 29.65 in1004.1 mb 0.00 in0.0 mm 0.00 in0.0 mm 0.52 in13.2 mm
03:57 AM 58.0°F14.4°C -29.1°F-33.9°C 1% 0.5 mph ENE0.8 kmh ENE 5.4 mph8.7 kmh 29.65 in1004.1 mb 0.00 in0.0 mm 0.00 in0.0 mm 0.52 in13.2 mm
03:56 AM 57.8°F14.3°C -29.2°F-34.0°C 1% 0.8 mph E1.3 kmh E 5.4 mph8.7 kmh 29.65 in1004.1 mb 0.00 in0.0 mm 0.00 in0.0 mm 0.52 in13.2 mm
03:55 AM 57.8°F14.3°C -29.2°F-34.0°C 1% 1.0 mph E1.6 kmh E 5.4 mph8.7 kmh 29.65 in1004.1 mb 0.00 in0.0 mm 0.00 in0.0 mm 0.52 in13.2 mm
03:54 AM 57.8°F14.3°C -29.2°F-34.0°C 1% 0.8 mph ENE1.3 kmh ENE 5.4 mph8.7 kmh 29.65 in1004.1 mb 0.00 in0.0 mm 0.00 in0.0 mm 0.52 in13.2 mm
03:53 AM 57.8°F14.3°C -29.2°F-34.0°C 1% 1.1 mph ENE1.8 kmh ENE 5.4 mph8.7 kmh 29.65 in1004.1 mb 0.00 in0.0 mm 0.00 in0.0 mm 0.52 in13.2 mm
03:52 AM 57.8°F14.3°C -29.2°F-34.0°C 1% 1.6 mph E2.6 kmh E 5.4 mph8.7 kmh 29.65 in1004.1 mb 0.00 in0.0 mm 0.00 in0.0 mm 0.52 in13.2 mm
03:51 AM 57.8°F14.3°C -29.2°F-34.0°C 1% 2.1 mph ENE3.4 kmh ENE 5.4 mph8.7 kmh 29.65 in1004.1 mb 0.00 in0.0 mm 0.00 in0.0 mm 0.52 in13.2 mm
03:50 AM 57.8°F14.3°C -29.2°F-34.0°C 1% 2.5 mph ENE4.0 kmh ENE 5.4 mph8.7 kmh 29.65 in1004.1 mb 0.00 in0.0 mm 0.00 in0.0 mm 0.52 in13.2 mm
03:49 AM 57.8°F14.3°C -29.2°F-34.0°C 1% 2.1 mph E3.4 kmh E 5.4 mph8.7 kmh 29.65 in1004.1 mb 0.00 in0.0 mm 0.00 in0.0 mm 0.52 in13.2 mm
03:48 AM 57.8°F14.3°C -29.2°F-34.0°C 1% 2.9 mph E4.7 kmh E 5.4 mph8.7 kmh 29.65 in1004.1 mb 0.00 in0.0 mm 0.00 in0.0 mm 0.52 in13.2 mm
03:47 AM 57.8°F14.3°C -29.2°F-34.0°C 1% 2.7 mph ENE4.3 kmh ENE 5.4 mph8.7 kmh 29.65 in1004.1 mb 0.00 in0.0 mm 0.00 in0.0 mm 0.52 in13.2 mm
03:46 AM 57.8°F14.3°C -29.2°F-34.0°C 1% 1.3 mph E2.1 kmh E 6.0 mph9.7 kmh 29.65 in1004.1 mb 0.00 in0.0 mm 0.00 in0.0 mm 0.52 in13.2 mm
03:45 AM 57.8°F14.3°C -29.2°F-34.0°C 1% 1.6 mph ENE2.6 kmh ENE 6.0 mph9.7 kmh 29.65 in1004.1 mb 0.00 in0.0 mm 0.00 in0.0 mm 0.52 in13.2 mm
03:44 AM 57.8°F14.3°C -29.2°F-34.0°C 1% 2.5 mph ENE4.0 kmh ENE 6.0 mph9.7 kmh 29.65 in1004.1 mb 0.00 in0.0 mm 0.00 in0.0 mm 0.52 in13.2 mm
03:43 AM 57.8°F14.3°C -29.2°F-34.0°C 1% 2.0 mph ENE3.2 kmh ENE 6.0 mph9.7 kmh 29.65 in1004.1 mb 0.00 in0.0 mm 0.00 in0.0 mm 0.52 in13.2 mm
03:42 AM 58.0°F14.4°C -29.1°F-33.9°C 1% 1.2 mph E1.9 kmh E 6.0 mph9.7 kmh 29.65 in1004.1 mb 0.00 in0.0 mm 0.00 in0.0 mm 0.52 in13.2 mm
03:41 AM 57.8°F14.3°C -29.2°F-34.0°C 1% 1.3 mph ESE2.1 kmh ESE 6.0 mph9.7 kmh 29.65 in1004.1 mb 0.00 in0.0 mm 0.00 in0.0 mm 0.52 in13.2 mm
03:40 AM 58.0°F14.4°C -29.1°F-33.9°C 1% 1.7 mph E2.7 kmh E 6.0 mph9.7 kmh 29.65 in1004.1 mb 0.00 in0.0 mm 0.00 in0.0 mm 0.52 in13.2 mm
03:39 AM 58.0°F14.4°C -29.1°F-33.9°C 1% 1.8 mph E2.9 kmh E 6.0 mph9.7 kmh 29.66 in1004.4 mb 0.00 in0.0 mm 0.00 in0.0 mm 0.52 in13.2 mm
03:38 AM 57.8°F14.3°C -29.2°F-34.0°C 1% 2.4 mph E3.9 kmh E 6.0 mph9.7 kmh 29.66 in1004.4 mb 0.00 in0.0 mm 0.00 in0.0 mm 0.52 in13.2 mm
03:37 AM 57.8°F14.3°C -29.2°F-34.0°C 1% 2.3 mph E3.7 kmh E 6.0 mph9.7 kmh 29.66 in1004.4 mb 0.00 in0.0 mm 0.00 in0.0 mm 0.52 in13.2 mm
03:36 AM 57.8°F14.3°C -29.2°F-34.0°C 1% 0.8 mph E1.3 kmh E 2.8 mph4.5 kmh 29.66 in1004.4 mb 0.00 in0.0 mm 0.00 in0.0 mm 0.52 in13.2 mm
03:35 AM 57.6°F14.2°C -29.4°F-34.1°C 1% 0.5 mph E0.8 kmh E 2.8 mph4.5 kmh 29.66 in1004.4 mb 0.00 in0.0 mm 0.00 in0.0 mm 0.52 in13.2 mm
03:34 AM 57.8°F14.3°C -29.2°F-34.0°C 1% 0.6 mph E1.0 kmh E 2.8 mph4.5 kmh 29.66 in1004.4 mb 0.00 in0.0 mm 0.00 in0.0 mm 0.52 in13.2 mm
03:33 AM 57.8°F14.3°C -29.2°F-34.0°C 1% 0.8 mph E1.3 kmh E 2.8 mph4.5 kmh 29.66 in1004.4 mb 0.00 in0.0 mm 0.00 in0.0 mm 0.52 in13.2 mm
03:32 AM 57.8°F14.3°C -29.2°F-34.0°C 1% 1.6 mph E2.6 kmh E 2.8 mph4.5 kmh 29.66 in1004.4 mb 0.00 in0.0 mm 0.00 in0.0 mm 0.52 in13.2 mm
03:31 AM 57.8°F14.3°C -29.2°F-34.0°C 1% 1.3 mph E2.1 kmh E 3.1 mph5.0 kmh 29.66 in1004.4 mb 0.00 in0.0 mm 0.00 in0.0 mm 0.52 in13.2 mm
03:30 AM 57.8°F14.3°C -29.2°F-34.0°C 1% 0.5 mph E0.8 kmh E 3.1 mph5.0 kmh 29.66 in1004.4 mb 0.00 in0.0 mm 0.00 in0.0 mm 0.52 in13.2 mm
03:29 AM 57.8°F14.3°C -29.2°F-34.0°C 1% 0.4 mph ESE0.6 kmh ESE 3.1 mph5.0 kmh 29.66 in1004.4 mb 0.00 in0.0 mm 0.00 in0.0 mm 0.52 in13.2 mm
03:28 AM 57.8°F14.3°C -29.2°F-34.0°C 1% 0.3 mph NNE0.5 kmh NNE 3.1 mph5.0 kmh 29.66 in1004.4 mb 0.00 in0.0 mm 0.00 in0.0 mm 0.52 in13.2 mm
03:27 AM 57.8°F14.3°C -29.2°F-34.0°C 1% 0.3 mph NE0.5 kmh NE 3.1 mph5.0 kmh 29.66 in1004.4 mb 0.00 in0.0 mm 0.00 in0.0 mm 0.52 in13.2 mm
03:26 AM 57.8°F14.3°C -29.2°F-34.0°C 1% 0.7 mph E1.1 kmh E 3.1 mph5.0 kmh 29.66 in1004.4 mb 0.00 in0.0 mm 0.00 in0.0 mm 0.52 in13.2 mm
03:25 AM 57.8°F14.3°C -29.2°F-34.0°C 1% 1.0 mph E1.6 kmh E 3.1 mph5.0 kmh 29.66 in1004.4 mb 0.00 in0.0 mm 0.00 in0.0 mm 0.52 in13.2 mm
03:24 AM 57.6°F14.2°C -29.4°F-34.1°C 1% 1.3 mph E2.1 kmh E 3.5 mph5.6 kmh 29.66 in1004.4 mb 0.00 in0.0 mm 0.00 in0.0 mm 0.52 in13.2 mm
03:23 AM 57.8°F14.3°C -29.2°F-34.0°C 1% 1.5 mph E2.4 kmh E 3.5 mph5.6 kmh 29.66 in1004.4 mb 0.00 in0.0 mm 0.00 in0.0 mm 0.52 in13.2 mm
03:22 AM 57.8°F14.3°C -29.2°F-34.0°C 1% 0.9 mph E1.4 kmh E 3.5 mph5.6 kmh 29.65 in1004.1 mb 0.00 in0.0 mm 0.00 in0.0 mm 0.52 in13.2 mm
03:21 AM 57.8°F14.3°C -29.2°F-34.0°C 1% 0.6 mph E1.0 kmh E 3.5 mph5.6 kmh 29.65 in1004.1 mb 0.00 in0.0 mm 0.00 in0.0 mm 0.52 in13.2 mm
03:20 AM 57.8°F14.3°C -29.2°F-34.0°C 1% 0.6 mph S1.0 kmh S 3.5 mph5.6 kmh 29.65 in1004.1 mb 0.00 in0.0 mm 0.00 in0.0 mm 0.52 in13.2 mm
03:19 AM 57.8°F14.3°C -29.2°F-34.0°C 1% 0.6 mph S1.0 kmh S 3.5 mph5.6 kmh 29.66 in1004.4 mb 0.00 in0.0 mm 0.00 in0.0 mm 0.52 in13.2 mm
03:18 AM 57.8°F14.3°C -29.2°F-34.0°C 1% 0.7 mph ENE1.1 kmh ENE 3.5 mph5.6 kmh 29.66 in1004.4 mb 0.00 in0.0 mm 0.00 in0.0 mm 0.52 in13.2 mm
03:17 AM 57.8°F14.3°C -29.2°F-34.0°C 1% 1.1 mph ENE1.8 kmh ENE 3.5 mph5.6 kmh 29.66 in1004.4 mb 0.00 in0.0 mm 0.00 in0.0 mm 0.52 in13.2 mm
03:16 AM 57.8°F14.3°C -29.2°F-34.0°C 1% 1.1 mph ENE1.8 kmh ENE 3.5 mph5.6 kmh 29.66 in1004.4 mb 0.00 in0.0 mm 0.00 in0.0 mm 0.52 in13.2 mm
03:15 AM 57.8°F14.3°C -29.2°F-34.0°C 1% 1.1 mph ENE1.8 kmh ENE 3.5 mph5.6 kmh 29.66 in1004.4 mb 0.00 in0.0 mm 0.00 in0.0 mm 0.52 in13.2 mm
03:14 AM 57.8°F14.3°C -29.2°F-34.0°C 1% 0.9 mph NE1.4 kmh NE 3.5 mph5.6 kmh 29.66 in1004.4 mb 0.00 in0.0 mm 0.00 in0.0 mm 0.52 in13.2 mm
03:13 AM 57.8°F14.3°C -29.2°F-34.0°C 1% 0.5 mph N0.8 kmh N 3.5 mph5.6 kmh 29.66 in1004.4 mb 0.00 in0.0 mm 0.00 in0.0 mm 0.52 in13.2 mm
03:12 AM 57.8°F14.3°C -29.2°F-34.0°C 1% 1.2 mph NE1.9 kmh NE 3.5 mph5.6 kmh 29.66 in1004.4 mb 0.00 in0.0 mm 0.00 in0.0 mm 0.52 in13.2 mm
03:11 AM 57.6°F14.2°C -29.4°F-34.1°C 1% 1.2 mph ENE1.9 kmh ENE 3.5 mph5.6 kmh 29.66 in1004.4 mb 0.00 in0.0 mm 0.00 in0.0 mm 0.52 in13.2 mm
03:10 AM 57.6°F14.2°C -29.4°F-34.1°C 1% 0.6 mph E1.0 kmh E 1.6 mph2.6 kmh 29.66 in1004.4 mb 0.00 in0.0 mm 0.00 in0.0 mm 0.52 in13.2 mm
03:09 AM 57.6°F14.2°C -29.4°F-34.1°C 1% 0.8 mph E1.3 kmh E 3.1 mph5.0 kmh 29.66 in1004.4 mb 0.00 in0.0 mm 0.00 in0.0 mm 0.52 in13.2 mm
03:08 AM 57.8°F14.3°C -29.2°F-34.0°C 1% 0.8 mph NE1.3 kmh NE 3.1 mph5.0 kmh 29.66 in1004.4 mb 0.00 in0.0 mm 0.00 in0.0 mm 0.52 in13.2 mm
03:07 AM 57.8°F14.3°C -29.2°F-34.0°C 1% 0.6 mph NNE1.0 kmh NNE 3.1 mph5.0 kmh 29.66 in1004.4 mb 0.00 in0.0 mm 0.00 in0.0 mm 0.52 in13.2 mm
03:06 AM 57.6°F14.2°C -29.4°F-34.1°C 1% 0.5 mph NE0.8 kmh NE 3.1 mph5.0 kmh 29.66 in1004.4 mb 0.00 in0.0 mm 0.00 in0.0 mm 0.52 in13.2 mm
03:05 AM 57.6°F14.2°C -29.4°F-34.1°C 1% 0.7 mph NE1.1 kmh NE 3.1 mph5.0 kmh 29.66 in1004.4 mb 0.00 in0.0 mm 0.00 in0.0 mm 0.52 in13.2 mm
03:04 AM 57.6°F14.2°C -29.4°F-34.1°C 1% 0.7 mph NE1.1 kmh NE 3.1 mph5.0 kmh 29.66 in1004.4 mb 0.00 in0.0 mm 0.00 in0.0 mm 0.52 in13.2 mm
03:03 AM 57.6°F14.2°C -29.4°F-34.1°C 1% 0.6 mph NE1.0 kmh NE 3.1 mph5.0 kmh 29.66 in1004.4 mb 0.00 in0.0 mm 0.00 in0.0 mm 0.52 in13.2 mm
03:02 AM 57.6°F14.2°C -29.4°F-34.1°C 1% 0.3 mph NE0.5 kmh NE 3.1 mph5.0 kmh 29.66 in1004.4 mb 0.00 in0.0 mm 0.00 in0.0 mm 0.52 in13.2 mm
03:01 AM 57.6°F14.2°C -29.4°F-34.1°C 1% 1.3 mph ENE2.1 kmh ENE 3.1 mph5.0 kmh 29.66 in1004.4 mb 0.00 in0.0 mm 0.00 in0.0 mm 0.52 in13.2 mm
03:00 AM 57.6°F14.2°C -29.4°F-34.1°C 1% 1.4 mph E2.3 kmh E 3.1 mph5.0 kmh 29.66 in1004.4 mb 0.02 in0.5 mm 0.00 in0.0 mm 0.52 in13.2 mm
02:59 AM 57.6°F14.2°C -29.4°F-34.1°C 1% 0.9 mph ESE1.4 kmh ESE 4.4 mph7.1 kmh 29.66 in1004.4 mb 0.02 in0.5 mm 0.00 in0.0 mm 0.52 in13.2 mm
02:58 AM 57.6°F14.2°C -29.4°F-34.1°C 1% 0.6 mph E1.0 kmh E 4.4 mph7.1 kmh 29.66 in1004.4 mb 0.02 in0.5 mm 0.00 in0.0 mm 0.52 in13.2 mm
02:57 AM 57.6°F14.2°C -29.4°F-34.1°C 1% 0.5 mph E0.8 kmh E 4.4 mph7.1 kmh 29.66 in1004.4 mb 0.02 in0.5 mm 0.00 in0.0 mm 0.52 in13.2 mm
02:56 AM 57.6°F14.2°C -29.4°F-34.1°C 1% 0.5 mph ENE0.8 kmh ENE 4.4 mph7.1 kmh 29.66 in1004.4 mb 0.02 in0.5 mm 0.00 in0.0 mm 0.52 in13.2 mm
02:55 AM 57.8°F14.3°C -29.2°F-34.0°C 1% 0.6 mph N1.0 kmh N 4.4 mph7.1 kmh 29.66 in1004.4 mb 0.04 in1.0 mm 0.00 in0.0 mm 0.52 in13.2 mm
02:54 AM 57.6°F14.2°C -29.4°F-34.1°C 1% 0.6 mph NE1.0 kmh NE 4.4 mph7.1 kmh 29.66 in1004.4 mb 0.04 in1.0 mm 0.00 in0.0 mm 0.52 in13.2 mm
02:53 AM 57.8°F14.3°C -29.2°F-34.0°C 1% 0.9 mph ENE1.4 kmh ENE 4.4 mph7.1 kmh 29.66 in1004.4 mb 0.05 in1.3 mm 0.00 in0.0 mm 0.52 in13.2 mm
02:52 AM 57.6°F14.2°C -29.4°F-34.1°C 1% 1.4 mph E2.3 kmh E 4.4 mph7.1 kmh 29.66 in1004.4 mb 0.07 in1.8 mm 0.00 in0.0 mm 0.52 in13.2 mm
02:51 AM 57.8°F14.3°C -29.2°F-34.0°C 1% 1.8 mph ESE2.9 kmh ESE 4.4 mph7.1 kmh 29.66 in1004.4 mb 0.07 in1.8 mm 0.00 in0.0 mm 0.52 in13.2 mm
02:50 AM 57.8°F14.3°C -29.2°F-34.0°C 1% 1.4 mph ESE2.3 kmh ESE 4.4 mph7.1 kmh 29.66 in1004.4 mb 0.07 in1.8 mm 0.00 in0.0 mm 0.52 in13.2 mm
02:49 AM 57.6°F14.2°C -29.4°F-34.1°C 1% 0.9 mph NE1.4 kmh NE 1.9 mph3.1 kmh 29.66 in1004.4 mb 0.09 in2.3 mm 0.00 in0.0 mm 0.52 in13.2 mm
02:48 AM 57.6°F14.2°C -29.4°F-34.1°C 1% 0.8 mph E1.3 kmh E 1.9 mph3.1 kmh 29.66 in1004.4 mb 0.12 in3.0 mm 0.00 in0.0 mm 0.52 in13.2 mm
02:47 AM 57.6°F14.2°C -29.4°F-34.1°C 1% 0.7 mph NE1.1 kmh NE 1.9 mph3.1 kmh 29.66 in1004.4 mb 0.13 in3.3 mm 0.00 in0.0 mm 0.52 in13.2 mm
02:46 AM 57.8°F14.3°C -29.2°F-34.0°C 1% 0.6 mph N1.0 kmh N 1.9 mph3.1 kmh 29.66 in1004.4 mb 0.14 in3.6 mm 0.00 in0.0 mm 0.52 in13.2 mm
02:45 AM 57.8°F14.3°C -29.2°F-34.0°C 1% 0.4 mph W0.6 kmh W 1.6 mph2.6 kmh 29.66 in1004.4 mb 0.14 in3.6 mm 0.00 in0.0 mm 0.52 in13.2 mm
02:44 AM 57.8°F14.3°C -29.2°F-34.0°C 1% 0.4 mph W0.6 kmh W 2.3 mph3.7 kmh 29.66 in1004.4 mb 0.15 in3.8 mm 0.00 in0.0 mm 0.52 in13.2 mm
02:43 AM 57.6°F14.2°C -29.4°F-34.1°C 1% 0.4 mph E0.6 kmh E 2.8 mph4.5 kmh 29.66 in1004.4 mb 0.15 in3.8 mm 0.00 in0.0 mm 0.52 in13.2 mm
02:42 AM 57.8°F14.3°C -29.2°F-34.0°C 1% 0.4 mph SE0.6 kmh SE 2.8 mph4.5 kmh 29.67 in1004.7 mb 0.16 in4.1 mm 0.00 in0.0 mm 0.52 in13.2 mm
02:41 AM 57.6°F14.2°C -29.4°F-34.1°C 1% 0.5 mph SE0.8 kmh SE 2.8 mph4.5 kmh 29.66 in1004.4 mb 0.16 in4.1 mm 0.00 in0.0 mm 0.52 in13.2 mm
02:40 AM 57.6°F14.2°C -29.4°F-34.1°C 1% 0.6 mph ENE1.0 kmh ENE 2.8 mph4.5 kmh 29.66 in1004.4 mb 0.16 in4.1 mm 0.00 in0.0 mm 0.52 in13.2 mm
02:39 AM 57.6°F14.2°C -29.4°F-34.1°C 1% 0.6 mph NE1.0 kmh NE 2.8 mph4.5 kmh 29.66 in1004.4 mb 0.17 in4.3 mm 0.00 in0.0 mm 0.52 in13.2 mm
02:38 AM 57.8°F14.3°C -29.2°F-34.0°C 1% 0.7 mph NE1.1 kmh NE 2.8 mph4.5 kmh 29.66 in1004.4 mb 0.18 in4.6 mm 0.00 in0.0 mm 0.52 in13.2 mm
02:37 AM 57.8°F14.3°C -29.2°F-34.0°C 1% 0.8 mph E1.3 kmh E 2.8 mph4.5 kmh 29.67 in1004.7 mb 0.20 in5.1 mm 0.00 in0.0 mm 0.52 in13.2 mm
02:36 AM 57.6°F14.2°C -29.4°F-34.1°C 1% 0.9 mph E1.4 kmh E 2.8 mph4.5 kmh 29.67 in1004.7 mb 0.22 in5.6 mm 0.00 in0.0 mm 0.52 in13.2 mm
02:35 AM 57.8°F14.3°C -29.2°F-34.0°C 1% 1.1 mph ENE1.8 kmh ENE 2.8 mph4.5 kmh 29.67 in1004.7 mb 0.23 in5.8 mm 0.00 in0.0 mm 0.52 in13.2 mm
02:34 AM 57.6°F14.2°C -29.4°F-34.1°C 1% 1.0 mph E1.6 kmh E 2.8 mph4.5 kmh 29.67 in1004.7 mb 0.27 in6.9 mm 0.00 in0.0 mm 0.52 in13.2 mm
02:33 AM 57.6°F14.2°C -29.4°F-34.1°C 1% 0.9 mph ENE1.4 kmh ENE 2.8 mph4.5 kmh 29.67 in1004.7 mb 0.29 in7.4 mm 0.00 in0.0 mm 0.52 in13.2 mm
02:32 AM 57.6°F14.2°C -29.4°F-34.1°C 1% 0.8 mph E1.3 kmh E 2.3 mph3.7 kmh 29.67 in1004.7 mb 0.35 in8.9 mm 0.00 in0.0 mm 0.52 in13.2 mm
02:31 AM 57.6°F14.2°C -29.4°F-34.1°C 1% 1.1 mph E1.8 kmh E 2.3 mph3.7 kmh 29.67 in1004.7 mb 0.37 in9.4 mm 0.00 in0.0 mm 0.52 in13.2 mm
02:30 AM 57.6°F14.2°C -29.4°F-34.1°C 1% 1.2 mph NE1.9 kmh NE 2.3 mph3.7 kmh 29.67 in1004.7 mb 0.41 in10.4 mm 0.00 in0.0 mm 0.52 in13.2 mm
02:29 AM 57.6°F14.2°C -29.4°F-34.1°C 1% 1.0 mph NE1.6 kmh NE 1.9 mph3.1 kmh 29.67 in1004.7 mb 0.44 in11.2 mm 0.00 in0.0 mm 0.52 in13.2 mm
02:28 AM 57.6°F14.2°C -29.4°F-34.1°C 1% 1.0 mph NE1.6 kmh NE 4.4 mph7.1 kmh 29.67 in1004.7 mb 0.46 in11.7 mm 0.00 in0.0 mm 0.52 in13.2 mm
02:27 AM 57.6°F14.2°C -29.4°F-34.1°C 1% 0.7 mph NE1.1 kmh NE 4.4 mph7.1 kmh 29.68 in1005.1 mb 0.47 in11.9 mm 0.00 in0.0 mm 0.52 in13.2 mm
02:26 AM 57.6°F14.2°C -29.4°F-34.1°C 1% 0.5 mph ENE0.8 kmh ENE 4.4 mph7.1 kmh 29.68 in1005.1 mb 0.47 in11.9 mm 0.00 in0.0 mm 0.52 in13.2 mm
02:25 AM 57.6°F14.2°C -29.4°F-34.1°C 1% 0.5 mph ESE0.8 kmh ESE 4.4 mph7.1 kmh 29.68 in1005.1 mb 0.47 in11.9 mm 0.00 in0.0 mm 0.52 in13.2 mm
02:24 AM 57.6°F14.2°C -29.4°F-34.1°C 1% 0.6 mph ENE1.0 kmh ENE 4.4 mph7.1 kmh 29.68 in1005.1 mb 0.47 in11.9 mm 0.00 in0.0 mm 0.52 in13.2 mm
02:23 AM 57.6°F14.2°C -29.4°F-34.1°C 1% 0.5 mph E0.8 kmh E 4.4 mph7.1 kmh 29.68 in1005.1 mb 0.47 in11.9 mm 0.00 in0.0 mm 0.52 in13.2 mm
02:22 AM 57.6°F14.2°C -29.4°F-34.1°C 1% 0.5 mph ESE0.8 kmh ESE 4.4 mph7.1 kmh 29.68 in1005.1 mb 0.47 in11.9 mm 0.00 in0.0 mm 0.52 in13.2 mm
02:21 AM 57.6°F14.2°C -29.4°F-34.1°C 1% 0.9 mph NE1.4 kmh NE 4.4 mph7.1 kmh 29.68 in1005.1 mb 0.48 in12.2 mm 0.00 in0.0 mm 0.52 in13.2 mm
02:20 AM 57.6°F14.2°C -29.4°F-34.1°C 1% 1.7 mph ENE2.7 kmh ENE 4.4 mph7.1 kmh 29.68 in1005.1 mb 0.48 in12.2 mm 0.00 in0.0 mm 0.52 in13.2 mm
02:19 AM 57.6°F14.2°C -29.4°F-34.1°C 1% 1.4 mph E2.3 kmh E 4.4 mph7.1 kmh 29.68 in1005.1 mb 0.49 in12.4 mm 0.00 in0.0 mm 0.52 in13.2 mm
02:18 AM 57.6°F14.2°C -29.4°F-34.1°C 1% 1.0 mph ENE1.6 kmh ENE 2.8 mph4.5 kmh 29.68 in1005.1 mb 0.49 in12.4 mm 0.00 in0.0 mm 0.52 in13.2 mm
02:17 AM 57.6°F14.2°C -29.4°F-34.1°C 1% 0.9 mph ENE1.4 kmh ENE 2.8 mph4.5 kmh 29.68 in1005.1 mb 0.50 in12.7 mm 0.00 in0.0 mm 0.52 in13.2 mm
02:16 AM 57.6°F14.2°C -29.4°F-34.1°C 1% 0.9 mph ENE1.4 kmh ENE 3.5 mph5.6 kmh 29.67 in1004.7 mb 0.51 in13.0 mm 0.00 in0.0 mm 0.52 in13.2 mm
02:15 AM 57.6°F14.2°C -29.4°F-34.1°C 1% 1.1 mph NE1.8 kmh NE 3.5 mph5.6 kmh 29.68 in1005.1 mb 0.51 in13.0 mm 0.00 in0.0 mm 0.52 in13.2 mm
02:14 AM 57.6°F14.2°C -29.4°F-34.1°C 1% 0.8 mph NNE1.3 kmh NNE 3.5 mph5.6 kmh 29.67 in1004.7 mb 0.51 in13.0 mm 0.00 in0.0 mm 0.52 in13.2 mm
02:13 AM 57.6°F14.2°C -29.4°F-34.1°C 1% 0.8 mph NE1.3 kmh NE 3.5 mph5.6 kmh 29.67 in1004.7 mb 0.51 in13.0 mm 0.00 in0.0 mm 0.52 in13.2 mm
02:12 AM 57.6°F14.2°C -29.4°F-34.1°C 1% 1.2 mph N1.9 kmh N 3.5 mph5.6 kmh 29.68 in1005.1 mb 0.51 in13.0 mm 0.00 in0.0 mm 0.52 in13.2 mm
02:11 AM 57.6°F14.2°C -29.4°F-34.1°C 1% 1.1 mph NNE1.8 kmh NNE 3.5 mph5.6 kmh 29.68 in1005.1 mb 0.51 in13.0 mm 0.00 in0.0 mm 0.52 in13.2 mm
02:10 AM 57.6°F14.2°C -29.4°F-34.1°C 1% 1.0 mph NE1.6 kmh NE 3.5 mph5.6 kmh 29.68 in1005.1 mb 0.51 in13.0 mm 0.00 in0.0 mm 0.52 in13.2 mm
02:09 AM 57.6°F14.2°C -29.4°F-34.1°C 1% 1.3 mph NE2.1 kmh NE 6.3 mph10.1 kmh 29.67 in1004.7 mb 0.51 in13.0 mm 0.00 in0.0 mm 0.52 in13.2 mm
02:08 AM 57.6°F14.2°C -29.4°F-34.1°C 1% 1.3 mph NE2.1 kmh NE 7.0 mph11.3 kmh 29.68 in1005.1 mb 0.51 in13.0 mm 0.00 in0.0 mm 0.52 in13.2 mm
02:07 AM 57.6°F14.2°C -29.4°F-34.1°C 1% 1.2 mph NE1.9 kmh NE 7.0 mph11.3 kmh 29.67 in1004.7 mb 0.51 in13.0 mm 0.00 in0.0 mm 0.52 in13.2 mm
02:06 AM 57.6°F14.2°C -29.4°F-34.1°C 1% 1.4 mph NE2.3 kmh NE 7.0 mph11.3 kmh 29.67 in1004.7 mb 0.51 in13.0 mm 0.00 in0.0 mm 0.52 in13.2 mm
02:05 AM 57.6°F14.2°C -29.4°F-34.1°C 1% 1.9 mph NE3.1 kmh NE 7.0 mph11.3 kmh 29.68 in1005.1 mb 0.51 in13.0 mm 0.00 in0.0 mm 0.52 in13.2 mm
02:04 AM 57.6°F14.2°C -29.4°F-34.1°C 1% 1.3 mph NE2.1 kmh NE 7.0 mph11.3 kmh 29.68 in1005.1 mb 0.51 in13.0 mm 0.00 in0.0 mm 0.52 in13.2 mm
02:03 AM 57.6°F14.2°C -29.4°F-34.1°C 1% 0.8 mph NE1.3 kmh NE 7.0 mph11.3 kmh 29.68 in1005.1 mb 0.51 in13.0 mm 0.00 in0.0 mm 0.52 in13.2 mm
02:02 AM 57.8°F14.3°C -29.2°F-34.0°C 1% 0.8 mph E1.3 kmh E 7.0 mph11.3 kmh 29.68 in1005.1 mb 0.51 in13.0 mm 0.00 in0.0 mm 0.52 in13.2 mm
02:01 AM 57.8°F14.3°C -29.2°F-34.0°C 1% 2.4 mph E3.9 kmh E 7.0 mph11.3 kmh 29.68 in1005.1 mb 0.51 in13.0 mm 1.20 in30.5 mm 0.52 in13.2 mm
02:00 AM 57.8°F14.3°C -29.2°F-34.0°C 1% 4.4 mph NE7.1 kmh NE 7.0 mph11.3 kmh 29.68 in1005.1 mb 0.49 in12.4 mm 0.00 in0.0 mm 0.50 in12.7 mm
01:59 AM 57.8°F14.3°C -29.2°F-34.0°C 1% 3.9 mph NNE6.3 kmh NNE 7.0 mph11.3 kmh 29.68 in1005.1 mb 0.49 in12.4 mm 0.00 in0.0 mm 0.50 in12.7 mm
01:58 AM 57.8°F14.3°C -29.2°F-34.0°C 1% 2.3 mph NNE3.7 kmh NNE 4.7 mph7.6 kmh 29.68 in1005.1 mb 0.49 in12.4 mm 0.00 in0.0 mm 0.50 in12.7 mm
01:57 AM 57.8°F14.3°C -29.2°F-34.0°C 1% 1.5 mph NNE2.4 kmh NNE 4.7 mph7.6 kmh 29.68 in1005.1 mb 0.49 in12.4 mm 1.20 in30.5 mm 0.50 in12.7 mm
01:56 AM 58.0°F14.4°C -29.1°F-33.9°C 1% 2.1 mph NE3.4 kmh NE 4.7 mph7.6 kmh 29.68 in1005.1 mb 0.47 in11.9 mm 0.00 in0.0 mm 0.48 in12.2 mm
01:55 AM 58.0°F14.4°C -29.1°F-33.9°C 1% 2.3 mph NE3.7 kmh NE 4.7 mph7.6 kmh 29.68 in1005.1 mb 0.47 in11.9 mm 0.00 in0.0 mm 0.48 in12.2 mm
01:54 AM 58.0°F14.4°C -29.1°F-33.9°C 1% 1.6 mph NNE2.6 kmh NNE 3.1 mph5.0 kmh 29.68 in1005.1 mb 0.47 in11.9 mm 0.60 in15.2 mm 0.48 in12.2 mm
01:53 AM 58.0°F14.4°C -29.1°F-33.9°C 1% 1.2 mph NNE1.9 kmh NNE 1.9 mph3.1 kmh 29.68 in1005.1 mb 0.46 in11.7 mm 1.20 in30.5 mm 0.47 in11.9 mm
01:52 AM 58.0°F14.4°C -29.1°F-33.9°C 1% 1.1 mph N1.8 kmh N 1.9 mph3.1 kmh 29.69 in1005.4 mb 0.44 in11.2 mm 0.00 in0.0 mm 0.45 in11.4 mm
01:51 AM 58.1°F14.5°C -29.0°F-33.9°C 1% 0.8 mph NNE1.3 kmh NNE 1.9 mph3.1 kmh 29.69 in1005.4 mb 0.44 in11.2 mm 0.00 in0.0 mm 0.45 in11.4 mm
01:50 AM 58.1°F14.5°C -29.0°F-33.9°C 1% 0.7 mph ENE1.1 kmh ENE 1.9 mph3.1 kmh 29.69 in1005.4 mb 0.44 in11.2 mm 1.20 in30.5 mm 0.45 in11.4 mm
01:49 AM 58.1°F14.5°C -29.0°F-33.9°C 1% 0.7 mph ENE1.1 kmh ENE 1.9 mph3.1 kmh 29.69 in1005.4 mb 0.42 in10.7 mm 1.20 in30.5 mm 0.43 in10.9 mm
01:48 AM 58.3°F14.6°C -28.9°F-33.8°C 1% 0.7 mph ENE1.1 kmh ENE 1.9 mph3.1 kmh 29.69 in1005.4 mb 0.40 in10.2 mm 0.60 in15.2 mm 0.41 in10.4 mm
01:47 AM 58.3°F14.6°C -28.9°F-33.8°C 1% 0.6 mph NE1.0 kmh NE 1.9 mph3.1 kmh 29.69 in1005.4 mb 0.39 in9.9 mm 0.60 in15.2 mm 0.40 in10.2 mm
01:46 AM 58.3°F14.6°C -28.9°F-33.8°C 1% 0.4 mph NE0.6 kmh NE 1.6 mph2.6 kmh 29.69 in1005.4 mb 0.38 in9.7 mm 0.00 in0.0 mm 0.39 in9.9 mm
01:45 AM 58.3°F14.6°C -28.9°F-33.8°C 1% 0.4 mph NE0.6 kmh NE 1.6 mph2.6 kmh 29.69 in1005.4 mb 0.38 in9.7 mm 0.60 in15.2 mm 0.39 in9.9 mm
01:44 AM 58.3°F14.6°C -28.9°F-33.8°C 1% 0.6 mph NE1.0 kmh NE 1.6 mph2.6 kmh 29.70 in1005.8 mb 0.37 in9.4 mm 0.00 in0.0 mm 0.38 in9.7 mm
01:43 AM 58.3°F14.6°C -28.9°F-33.8°C 1% 0.6 mph NE1.0 kmh NE 1.6 mph2.6 kmh 29.70 in1005.8 mb 0.37 in9.4 mm 0.60 in15.2 mm 0.38 in9.7 mm
01:42 AM 58.5°F14.7°C -28.8°F-33.8°C 1% 0.3 mph NE0.5 kmh NE 1.6 mph2.6 kmh 29.70 in1005.8 mb 0.36 in9.1 mm 0.00 in0.0 mm 0.37 in9.4 mm
01:41 AM 58.5°F14.7°C -28.8°F-33.8°C 1% 0.4 mph W0.6 kmh W 1.6 mph2.6 kmh 29.70 in1005.8 mb 0.36 in9.1 mm 0.00 in0.0 mm 0.37 in9.4 mm
01:40 AM 58.5°F14.7°C -28.8°F-33.8°C 1% 0.5 mph W0.8 kmh W 1.6 mph2.6 kmh 29.70 in1005.8 mb 0.36 in9.1 mm 1.20 in30.5 mm 0.37 in9.4 mm
01:39 AM 58.7°F14.8°C -28.7°F-33.7°C 1% 0.8 mph W1.3 kmh W 1.6 mph2.6 kmh 29.71 in1006.1 mb 0.34 in8.6 mm 0.60 in15.2 mm 0.35 in8.9 mm
01:38 AM 58.7°F14.8°C -28.7°F-33.7°C 1% 0.8 mph WSW1.3 kmh WSW 1.6 mph2.6 kmh 29.71 in1006.1 mb 0.33 in8.4 mm 0.60 in15.2 mm 0.34 in8.6 mm
01:37 AM 58.7°F14.8°C -28.7°F-33.7°C 1% 0.8 mph WSW1.3 kmh WSW 1.6 mph2.6 kmh 29.71 in1006.1 mb 0.32 in8.1 mm 1.80 in45.7 mm 0.33 in8.4 mm
01:36 AM 58.7°F14.8°C -28.7°F-33.7°C 1% 0.9 mph WSW1.4 kmh WSW 1.6 mph2.6 kmh 29.71 in1006.1 mb 0.29 in7.4 mm 0.60 in15.2 mm 0.30 in7.6 mm
01:35 AM 58.9°F14.9°C -28.5°F-33.6°C 1% 0.8 mph WSW1.3 kmh WSW 1.6 mph2.6 kmh 29.70 in1005.8 mb 0.28 in7.1 mm 2.40 in61.0 mm 0.29 in7.4 mm
01:34 AM 58.9°F14.9°C -28.5°F-33.6°C 1% 0.5 mph WSW0.8 kmh WSW 1.2 mph1.9 kmh 29.70 in1005.8 mb 0.24 in6.1 mm 1.20 in30.5 mm 0.25 in6.4 mm
01:33 AM 58.9°F14.9°C -28.5°F-33.6°C 1% 0.4 mph WSW0.6 kmh WSW 1.2 mph1.9 kmh 29.69 in1005.4 mb 0.22 in5.6 mm 3.00 in76.2 mm 0.23 in5.8 mm
01:32 AM 59.0°F15.0°C -28.5°F-33.6°C 1% 0.4 mph WSW0.6 kmh WSW 1.2 mph1.9 kmh 29.69 in1005.4 mb 0.17 in4.3 mm 1.20 in30.5 mm 0.18 in4.6 mm
01:31 AM 59.0°F15.0°C -28.5°F-33.6°C 1% 0.5 mph WSW0.8 kmh WSW 1.2 mph1.9 kmh 29.69 in1005.4 mb 0.15 in3.8 mm 2.40 in61.0 mm 0.16 in4.1 mm
01:30 AM 59.0°F15.0°C -28.5°F-33.6°C 1% 0.7 mph SW1.1 kmh SW 1.2 mph1.9 kmh 29.69 in1005.4 mb 0.11 in2.8 mm 3.60 in91.4 mm 0.12 in3.0 mm
01:29 AM 59.0°F15.0°C -28.5°F-33.6°C 1% 0.6 mph S1.0 kmh S 1.2 mph1.9 kmh 29.69 in1005.4 mb 0.05 in1.3 mm 0.60 in15.2 mm 0.06 in1.5 mm
01:28 AM 59.0°F15.0°C -28.5°F-33.6°C 1% 0.5 mph SE0.8 kmh SE 1.2 mph1.9 kmh 29.69 in1005.4 mb 0.04 in1.0 mm 0.00 in0.0 mm 0.05 in1.3 mm
01:27 AM 59.0°F15.0°C -28.5°F-33.6°C 1% 0.4 mph ESE0.6 kmh ESE 1.2 mph1.9 kmh 29.68 in1005.1 mb 0.04 in1.0 mm 0.00 in0.0 mm 0.05 in1.3 mm
01:26 AM 59.2°F15.1°C -28.3°F-33.5°C 1% 0.3 mph ENE0.5 kmh ENE 1.2 mph1.9 kmh 29.68 in1005.1 mb 0.04 in1.0 mm 0.00 in0.0 mm 0.05 in1.3 mm
01:25 AM 59.2°F15.1°C -28.3°F-33.5°C 1% 0.3 mph NE0.5 kmh NE 1.2 mph1.9 kmh 29.68 in1005.1 mb 0.04 in1.0 mm 0.00 in0.0 mm 0.05 in1.3 mm
01:24 AM 59.2°F15.1°C -28.3°F-33.5°C 1% 0.3 mph NE0.5 kmh NE 1.2 mph1.9 kmh 29.68 in1005.1 mb 0.04 in1.0 mm 0.00 in0.0 mm 0.05 in1.3 mm
01:23 AM 59.2°F15.1°C -28.3°F-33.5°C 1% 0.3 mph ENE0.5 kmh ENE 1.2 mph1.9 kmh 29.68 in1005.1 mb 0.04 in1.0 mm 0.00 in0.0 mm 0.05 in1.3 mm
01:22 AM 59.2°F15.1°C -28.3°F-33.5°C 1% 0.4 mph NE0.6 kmh NE 1.2 mph1.9 kmh 29.68 in1005.1 mb 0.04 in1.0 mm 0.60 in15.2 mm 0.05 in1.3 mm
01:21 AM 59.4°F15.2°C -28.2°F-33.4°C 1% 0.6 mph E1.0 kmh E 1.2 mph1.9 kmh 29.67 in1004.7 mb 0.03 in0.8 mm 0.00 in0.0 mm 0.04 in1.0 mm
01:20 AM 59.4°F15.2°C -28.2°F-33.4°C 1% 0.7 mph ENE1.1 kmh ENE 1.2 mph1.9 kmh 29.67 in1004.7 mb 0.03 in0.8 mm 0.60 in15.2 mm 0.04 in1.0 mm
01:19 AM 59.4°F15.2°C -28.2°F-33.4°C 1% 0.5 mph N0.8 kmh N 0.7 mph1.1 kmh 29.67 in1004.7 mb 0.02 in0.5 mm 0.00 in0.0 mm 0.03 in0.8 mm
01:18 AM 59.4°F15.2°C -28.2°F-33.4°C 1% 0.4 mph NE0.6 kmh NE 0.7 mph1.1 kmh 29.68 in1005.1 mb 0.02 in0.5 mm 0.60 in15.2 mm 0.03 in0.8 mm
01:17 AM 59.4°F15.2°C -28.2°F-33.4°C 1% 0.4 mph ENE0.6 kmh ENE 0.7 mph1.1 kmh 29.68 in1005.1 mb 0.01 in0.3 mm 0.60 in15.2 mm 0.02 in0.5 mm
01:16 AM 59.4°F15.2°C -28.2°F-33.4°C 1% 0.5 mph E0.8 kmh E 1.9 mph3.1 kmh 29.68 in1005.1 mb 0.00 in0.0 mm 0.00 in0.0 mm 0.01 in0.3 mm
01:15 AM 59.4°F15.2°C -28.2°F-33.4°C 1% 0.4 mph E0.6 kmh E 1.9 mph3.1 kmh 29.68 in1005.1 mb 0.00 in0.0 mm 0.00 in0.0 mm 0.01 in0.3 mm
01:14 AM 59.4°F15.2°C -28.2°F-33.4°C 1% 0.3 mph NE0.5 kmh NE 1.9 mph3.1 kmh 29.68 in1005.1 mb 0.00 in0.0 mm 0.00 in0.0 mm 0.01 in0.3 mm
01:13 AM 59.4°F15.2°C -28.2°F-33.4°C 1% 0.4 mph E0.6 kmh E 1.9 mph3.1 kmh 29.68 in1005.1 mb 0.00 in0.0 mm 0.00 in0.0 mm 0.01 in0.3 mm
01:12 AM 59.6°F15.3°C -28.1°F-33.4°C 1% 0.5 mph E0.8 kmh E 1.9 mph3.1 kmh 29.68 in1005.1 mb 0.00 in0.0 mm 0.00 in0.0 mm 0.01 in0.3 mm
01:11 AM 59.6°F15.3°C -28.1°F-33.4°C 1% 0.5 mph E0.8 kmh E 1.9 mph3.1 kmh 29.68 in1005.1 mb 0.00 in0.0 mm 0.00 in0.0 mm 0.01 in0.3 mm
01:10 AM 59.6°F15.3°C -28.1°F-33.4°C 1% 0.4 mph E0.6 kmh E 1.9 mph3.1 kmh 29.68 in1005.1 mb 0.01 in0.3 mm 0.00 in0.0 mm 0.01 in0.3 mm
01:09 AM 59.6°F15.3°C -28.1°F-33.4°C 1% 0.5 mph NE0.8 kmh NE 1.9 mph3.1 kmh 29.69 in1005.4 mb 0.01 in0.3 mm 0.00 in0.0 mm 0.01 in0.3 mm
01:08 AM 59.6°F15.3°C -28.1°F-33.4°C 1% 0.7 mph NE1.1 kmh NE 2.3 mph3.7 kmh 29.69 in1005.4 mb 0.01 in0.3 mm 0.00 in0.0 mm 0.01 in0.3 mm
01:07 AM 59.6°F15.3°C -28.1°F-33.4°C 1% 0.7 mph NE1.1 kmh NE 2.3 mph3.7 kmh 29.69 in1005.4 mb 0.01 in0.3 mm 0.00 in0.0 mm 0.01 in0.3 mm
01:06 AM 59.8°F15.4°C -28.0°F-33.3°C 1% 0.5 mph E0.8 kmh E 2.3 mph3.7 kmh 29.69 in1005.4 mb 0.01 in0.3 mm 0.00 in0.0 mm 0.01 in0.3 mm
01:05 AM 59.8°F15.4°C -28.0°F-33.3°C 1% 0.3 mph E0.5 kmh E 3.1 mph5.0 kmh 29.69 in1005.4 mb 0.01 in0.3 mm 0.00 in0.0 mm 0.01 in0.3 mm
01:04 AM 59.8°F15.4°C -28.0°F-33.3°C 1% Calm Calm 3.1 mph5.0 kmh 29.70 in1005.8 mb 0.01 in0.3 mm 0.00 in0.0 mm 0.01 in0.3 mm
01:03 AM 59.8°F15.4°C -28.0°F-33.3°C 1% Calm Calm 3.1 mph5.0 kmh 29.70 in1005.8 mb 0.01 in0.3 mm 0.00 in0.0 mm 0.01 in0.3 mm
01:02 AM 59.8°F15.4°C -28.0°F-33.3°C 1% 0.3 mph NE0.5 kmh NE 3.1 mph5.0 kmh 29.70 in1005.8 mb 0.01 in0.3 mm 0.00 in0.0 mm 0.01 in0.3 mm
01:01 AM 59.8°F15.4°C -28.0°F-33.3°C 1% 0.3 mph NE0.5 kmh NE 4.7 mph7.6 kmh 29.70 in1005.8 mb 0.01 in0.3 mm 0.00 in0.0 mm 0.01 in0.3 mm
01:00 AM 59.8°F15.4°C -28.0°F-33.3°C 1% 0.6 mph NE1.0 kmh NE 6.7 mph10.8 kmh 29.69 in1005.4 mb 0.01 in0.3 mm 0.00 in0.0 mm 0.01 in0.3 mm
12:59 AM 59.8°F15.4°C -28.0°F-33.3°C 1% 0.8 mph NNE1.3 kmh NNE 6.7 mph10.8 kmh 29.69 in1005.4 mb 0.01 in0.3 mm 0.00 in0.0 mm 0.01 in0.3 mm
12:58 AM 59.8°F15.4°C -28.0°F-33.3°C 1% 0.7 mph N1.1 kmh N 6.7 mph10.8 kmh 29.69 in1005.4 mb 0.01 in0.3 mm 0.00 in0.0 mm 0.01 in0.3 mm
12:57 AM 59.8°F15.4°C -28.0°F-33.3°C 1% 1.3 mph NNE2.1 kmh NNE 6.7 mph10.8 kmh 29.69 in1005.4 mb 0.01 in0.3 mm 0.00 in0.0 mm 0.01 in0.3 mm
12:56 AM 59.8°F15.4°C -28.0°F-33.3°C 1% 1.5 mph NE2.4 kmh NE 6.7 mph10.8 kmh 29.69 in1005.4 mb 0.01 in0.3 mm 0.00 in0.0 mm 0.01 in0.3 mm
12:55 AM 59.8°F15.4°C -28.0°F-33.3°C 1% 0.7 mph NNE1.1 kmh NNE 6.7 mph10.8 kmh 29.69 in1005.4 mb 0.01 in0.3 mm 0.00 in0.0 mm 0.01 in0.3 mm
12:54 AM 59.8°F15.4°C -28.0°F-33.3°C 1% 0.4 mph NE0.6 kmh NE 6.7 mph10.8 kmh 29.69 in1005.4 mb 0.01 in0.3 mm 0.00 in0.0 mm 0.01 in0.3 mm
12:53 AM 59.8°F15.4°C -28.0°F-33.3°C 1% 1.2 mph E1.9 kmh E 6.7 mph10.8 kmh 29.69 in1005.4 mb 0.01 in0.3 mm 0.00 in0.0 mm 0.01 in0.3 mm
12:52 AM 59.8°F15.4°C -28.0°F-33.3°C 1% 2.7 mph E4.3 kmh E 6.7 mph10.8 kmh 29.69 in1005.4 mb 0.01 in0.3 mm 0.00 in0.0 mm 0.01 in0.3 mm
12:51 AM 59.8°F15.4°C -28.0°F-33.3°C 1% 2.6 mph E4.2 kmh E 6.7 mph10.8 kmh 29.69 in1005.4 mb 0.01 in0.3 mm 0.00 in0.0 mm 0.01 in0.3 mm
12:50 AM 59.8°F15.4°C -28.0°F-33.3°C 1% 1.8 mph E2.9 kmh E 6.7 mph10.8 kmh 29.70 in1005.8 mb 0.01 in0.3 mm 0.00 in0.0 mm 0.01 in0.3 mm
12:49 AM 59.8°F15.4°C -27.9°F-33.3°C 1% 2.7 mph E4.3 kmh E 6.7 mph10.8 kmh 29.69 in1005.4 mb 0.01 in0.3 mm 0.00 in0.0 mm 0.01 in0.3 mm
12:48 AM 59.8°F15.4°C -28.0°F-33.3°C 1% 2.7 mph E4.3 kmh E 6.7 mph10.8 kmh 29.69 in1005.4 mb 0.01 in0.3 mm 0.00 in0.0 mm 0.01 in0.3 mm
12:47 AM 59.8°F15.4°C -27.9°F-33.3°C 1% 2.1 mph E3.4 kmh E 4.7 mph7.6 kmh 29.70 in1005.8 mb 0.01 in0.3 mm 0.00 in0.0 mm 0.01 in0.3 mm
12:46 AM 59.8°F15.4°C -27.9°F-33.3°C 1% 2.0 mph E3.2 kmh E 4.7 mph7.6 kmh 29.69 in1005.4 mb 0.01 in0.3 mm 0.00 in0.0 mm 0.01 in0.3 mm
12:45 AM 59.8°F15.4°C -27.9°F-33.3°C 1% 1.2 mph ENE1.9 kmh ENE 4.7 mph7.6 kmh 29.69 in1005.4 mb 0.01 in0.3 mm 0.00 in0.0 mm 0.01 in0.3 mm
12:44 AM 60.0°F15.6°C -27.8°F-33.2°C 1% 1.2 mph E1.9 kmh E 3.5 mph5.6 kmh 29.69 in1005.4 mb 0.01 in0.3 mm 0.00 in0.0 mm 0.01 in0.3 mm
12:43 AM 60.0°F15.6°C -27.8°F-33.2°C 1% 1.5 mph NE2.4 kmh NE 3.5 mph5.6 kmh 29.69 in1005.4 mb 0.01 in0.3 mm 0.00 in0.0 mm 0.01 in0.3 mm
12:42 AM 60.0°F15.6°C -27.8°F-33.2°C 1% 1.2 mph NE1.9 kmh NE 3.5 mph5.6 kmh 29.69 in1005.4 mb 0.01 in0.3 mm 0.00 in0.0 mm 0.01 in0.3 mm
12:41 AM 60.0°F15.6°C -27.8°F-33.2°C 1% 1.1 mph E1.8 kmh E 3.5 mph5.6 kmh 29.69 in1005.4 mb 0.01 in0.3 mm 0.00 in0.0 mm 0.01 in0.3 mm
12:40 AM 60.0°F15.6°C -27.8°F-33.2°C 1% 1.2 mph E1.9 kmh E 3.5 mph5.6 kmh 29.69 in1005.4 mb 0.01 in0.3 mm 0.00 in0.0 mm 0.01 in0.3 mm
12:39 AM 60.0°F15.6°C -27.8°F-33.2°C 1% 1.0 mph ENE1.6 kmh ENE 3.5 mph5.6 kmh 29.70 in1005.8 mb 0.01 in0.3 mm 0.00 in0.0 mm 0.01 in0.3 mm
12:38 AM 60.2°F15.7°C -27.7°F-33.2°C 1% 1.3 mph ENE2.1 kmh ENE 3.5 mph5.6 kmh 29.70 in1005.8 mb 0.01 in0.3 mm 0.00 in0.0 mm 0.01 in0.3 mm
12:37 AM 60.2°F15.7°C -27.7°F-33.2°C 1% 0.9 mph E1.4 kmh E 3.5 mph5.6 kmh 29.70 in1005.8 mb 0.01 in0.3 mm 0.00 in0.0 mm 0.01 in0.3 mm
12:36 AM 60.4°F15.8°C -27.5°F-33.1°C 1% 0.5 mph E0.8 kmh E 3.5 mph5.6 kmh 29.70 in1005.8 mb 0.01 in0.3 mm 0.00 in0.0 mm 0.01 in0.3 mm
12:35 AM 60.4°F15.8°C -27.5°F-33.1°C 1% 0.6 mph E1.0 kmh E 3.5 mph5.6 kmh 29.70 in1005.8 mb 0.01 in0.3 mm 0.00 in0.0 mm 0.01 in0.3 mm
12:34 AM 60.4°F15.8°C -27.5°F-33.1°C 1% 0.4 mph ENE0.6 kmh ENE 3.5 mph5.6 kmh 29.70 in1005.8 mb 0.01 in0.3 mm 0.00 in0.0 mm 0.01 in0.3 mm
12:33 AM 60.4°F15.8°C -27.5°F-33.1°C 1% 0.4 mph E0.6 kmh E 3.5 mph5.6 kmh 29.70 in1005.8 mb 0.01 in0.3 mm 0.00 in0.0 mm 0.01 in0.3 mm
12:32 AM 60.4°F15.8°C -27.5°F-33.1°C 1% 0.5 mph ENE0.8 kmh ENE 3.5 mph5.6 kmh 29.69 in1005.4 mb 0.01 in0.3 mm 0.00 in0.0 mm 0.01 in0.3 mm
12:31 AM 60.6°F15.9°C -27.4°F-33.0°C 1% 1.2 mph ENE1.9 kmh ENE 3.5 mph5.6 kmh 29.70 in1005.8 mb 0.01 in0.3 mm 0.00 in0.0 mm 0.01 in0.3 mm
12:30 AM 60.6°F15.9°C -27.4°F-33.0°C 1% 1.3 mph ENE2.1 kmh ENE 3.5 mph5.6 kmh 29.70 in1005.8 mb 0.01 in0.3 mm 0.00 in0.0 mm 0.01 in0.3 mm
12:29 AM 60.6°F15.9°C -27.4°F-33.0°C 1% 1.0 mph E1.6 kmh E 1.9 mph3.1 kmh 29.70 in1005.8 mb 0.01 in0.3 mm 0.00 in0.0 mm 0.01 in0.3 mm
12:28 AM 60.7°F15.9°C -27.3°F-32.9°C 1% 1.0 mph E1.6 kmh E 1.9 mph3.1 kmh 29.70 in1005.8 mb 0.01 in0.3 mm 0.00 in0.0 mm 0.01 in0.3 mm
12:27 AM 60.9°F16.1°C -27.2°F-32.9°C 1% 0.8 mph SE1.3 kmh SE 1.6 mph2.6 kmh 29.70 in1005.8 mb 0.01 in0.3 mm 0.00 in0.0 mm 0.01 in0.3 mm
12:26 AM 60.9°F16.1°C -27.2°F-32.9°C 1% 0.7 mph SSE1.1 kmh SSE 1.9 mph3.1 kmh 29.70 in1005.8 mb 0.01 in0.3 mm 0.00 in0.0 mm 0.01 in0.3 mm
12:25 AM 60.9°F16.1°C -27.2°F-32.9°C 1% 0.7 mph SSE1.1 kmh SSE 1.9 mph3.1 kmh 29.70 in1005.8 mb 0.01 in0.3 mm 0.00 in0.0 mm 0.01 in0.3 mm
12:24 AM 61.1°F16.2°C -27.1°F-32.8°C 1% 0.7 mph SE1.1 kmh SE 1.9 mph3.1 kmh 29.69 in1005.4 mb 0.01 in0.3 mm 0.00 in0.0 mm 0.01 in0.3 mm
12:23 AM 61.3°F16.3°C -27.0°F-32.8°C 1% 0.4 mph SE0.6 kmh SE 2.3 mph3.7 kmh 29.70 in1005.8 mb 0.01 in0.3 mm 0.00 in0.0 mm 0.01 in0.3 mm
12:22 AM 61.3°F16.3°C -27.0°F-32.8°C 1% 0.3 mph ENE0.5 kmh ENE 3.1 mph5.0 kmh 29.69 in1005.4 mb 0.01 in0.3 mm 0.00 in0.0 mm 0.01 in0.3 mm
12:21 AM 61.5°F16.4°C -26.8°F-32.7°C 1% 0.6 mph E1.0 kmh E 3.1 mph5.0 kmh 29.69 in1005.4 mb 0.01 in0.3 mm 0.00 in0.0 mm 0.01 in0.3 mm
12:20 AM 61.5°F16.4°C -26.8°F-32.7°C 1% 0.8 mph E1.3 kmh E 3.1 mph5.0 kmh 29.69 in1005.4 mb 0.01 in0.3 mm 0.00 in0.0 mm 0.01 in0.3 mm
12:19 AM 61.6°F16.4°C -26.8°F-32.7°C 1% 0.4 mph ESE0.6 kmh ESE 3.1 mph5.0 kmh 29.69 in1005.4 mb 0.01 in0.3 mm 0.00 in0.0 mm 0.01 in0.3 mm
12:18 AM 61.6°F16.4°C -26.8°F-32.7°C 1% 0.5 mph E0.8 kmh E 3.1 mph5.0 kmh 29.69 in1005.4 mb 0.01 in0.3 mm 0.00 in0.0 mm 0.01 in0.3 mm
12:17 AM 61.8°F16.6°C -26.7°F-32.6°C 1% 0.7 mph E1.1 kmh E 3.1 mph5.0 kmh 29.69 in1005.4 mb 0.01 in0.3 mm 0.00 in0.0 mm 0.01 in0.3 mm
12:16 AM 61.8°F16.6°C -26.7°F-32.6°C 1% 0.8 mph E1.3 kmh E 3.1 mph5.0 kmh 29.69 in1005.4 mb 0.01 in0.3 mm 0.00 in0.0 mm 0.01 in0.3 mm
12:15 AM 61.8°F16.6°C -26.7°F-32.6°C 1% 0.9 mph E1.4 kmh E 6.3 mph10.1 kmh 29.69 in1005.4 mb 0.01 in0.3 mm 0.00 in0.0 mm 0.01 in0.3 mm
12:14 AM 62.0°F16.7°C -26.5°F-32.5°C 1% 1.1 mph E1.8 kmh E 7.0 mph11.3 kmh 29.69 in1005.4 mb 0.01 in0.3 mm 0.00 in0.0 mm 0.01 in0.3 mm
12:12 AM 62.2°F16.8°C -26.4°F-32.4°C 1% 0.8 mph ESE1.3 kmh ESE 8.2 mph13.2 kmh 29.69 in1005.4 mb 0.01 in0.3 mm 0.60 in15.2 mm 0.01 in0.3 mm
12:11 AM 62.2°F16.8°C -26.4°F-32.4°C 1% 1.0 mph SE1.6 kmh SE 8.2 mph13.2 kmh 29.69 in1005.4 mb 0.00 in0.0 mm 0.00 in0.0 mm 0.00 in0.0 mm
12:10 AM 62.4°F16.9°C -26.3°F-32.4°C 1% 0.8 mph SSE1.3 kmh SSE 8.2 mph13.2 kmh 29.69 in1005.4 mb 0.00 in0.0 mm 0.00 in0.0 mm 0.00 in0.0 mm
12:09 AM 62.4°F16.9°C -26.3°F-32.4°C 1% 0.6 mph SE1.0 kmh SE 8.2 mph13.2 kmh 29.69 in1005.4 mb 0.00 in0.0 mm 0.00 in0.0 mm 0.00 in0.0 mm
12:08 AM 62.4°F16.9°C -26.3°F-32.4°C 1% 0.5 mph ESE0.8 kmh ESE 8.2 mph13.2 kmh 29.69 in1005.4 mb 0.00 in0.0 mm 0.00 in0.0 mm 0.00 in0.0 mm
12:07 AM 62.4°F16.9°C -26.3°F-32.4°C 1% 1.4 mph E2.3 kmh E 8.2 mph13.2 kmh 29.69 in1005.4 mb 0.00 in0.0 mm 0.00 in0.0 mm 0.00 in0.0 mm
12:06 AM 62.4°F16.9°C -26.3°F-32.4°C 1% 3.8 mph E6.1 kmh E 8.2 mph13.2 kmh 29.69 in1005.4 mb 0.00 in0.0 mm 0.00 in0.0 mm 0.00 in0.0 mm
12:05 AM 62.4°F16.9°C -26.3°F-32.4°C 1% 4.3 mph E6.9 kmh E 8.2 mph13.2 kmh 29.69 in1005.4 mb 0.00 in0.0 mm 0.00 in0.0 mm 0.00 in0.0 mm
12:04 AM 62.4°F16.9°C -26.3°F-32.4°C 1% 3.1 mph E5.0 kmh E 6.7 mph10.8 kmh 29.69 in1005.4 mb 0.00 in0.0 mm 0.00 in0.0 mm 0.00 in0.0 mm
12:03 AM 62.2°F16.8°C -26.4°F-32.4°C 1% 2.9 mph E4.7 kmh E 6.7 mph10.8 kmh 29.69 in1005.4 mb 0.00 in0.0 mm 0.00 in0.0 mm 0.00 in0.0 mm
12:02 AM 62.4°F16.9°C -26.3°F-32.4°C 1% 3.5 mph E5.6 kmh E 6.7 mph10.8 kmh 29.68 in1005.1 mb 0.00 in0.0 mm 0.00 in0.0 mm 0.00 in0.0 mm
12:01 AM 62.2°F16.8°C -26.4°F-32.4°C 1% 2.8 mph E4.5 kmh E 6.7 mph10.8 kmh 29.68 in1005.1 mb 0.00 in0.0 mm 0.00 in0.0 mm 0.00 in0.0 mm
12:00 AM 62.2°F16.8°C -26.4°F-32.4°C 1% 1.5 mph E2.4 kmh E 6.7 mph10.8 kmh 29.68 in1005.1 mb 0.00 in0.0 mm 0.00 in0.0 mm 0.00 in0.0 mm